<?xml version="1.0" encoding="UTF-8" standalone="no" ?>
<gpx xmlns="http://www.topografix.com/GPX/1/1" xmlns:xsi="http://www.w3.org/2001/XMLSchema-instance" xsi:schemaLocation="http://www.topografix.com/GPX/1/1 http://www.topografix.com/GPX/1/1/gpx.xsd" version="1.1" creator="VisuGPX - https://www.visugpx.com">
  <metadata>
    <name>Delincourt Boubier Le Mesnil Petit Seran Delincourt</name>
    <desc><![CDATA[Delincourt Boubier Le Mesnil Petit Seran Delincourt]]></desc>
  </metadata>
  <trk>
    <name><![CDATA[9 janv. 2017]]></name>
    <cmt><![CDATA[09:13:36]]></cmt>
    <desc><![CDATA[comment ...]]></desc>
    <trkseg>
      <trkpt lat="49.23495" lon="1.84458">
        <ele>141</ele>
        <time>2017-01-09T08:13:26Z</time>
      </trkpt>
      <trkpt lat="49.23494" lon="1.84487">
        <ele>144</ele>
        <time>2017-01-09T08:13:37Z</time>
      </trkpt>
      <trkpt lat="49.23488" lon="1.84488">
        <ele>140</ele>
        <time>2017-01-09T08:13:43Z</time>
      </trkpt>
      <trkpt lat="49.23485" lon="1.8449">
        <ele>139</ele>
        <time>2017-01-09T08:13:45Z</time>
      </trkpt>
      <trkpt lat="49.23483" lon="1.84491">
        <ele>138</ele>
        <time>2017-01-09T08:13:49Z</time>
      </trkpt>
      <trkpt lat="49.23478" lon="1.84497">
        <ele>136</ele>
        <time>2017-01-09T08:13:55Z</time>
      </trkpt>
      <trkpt lat="49.23476" lon="1.84498">
        <ele>133</ele>
        <time>2017-01-09T08:13:58Z</time>
      </trkpt>
      <trkpt lat="49.2347" lon="1.84505">
        <ele>134</ele>
        <time>2017-01-09T08:14:05Z</time>
      </trkpt>
      <trkpt lat="49.23444" lon="1.84527">
        <ele>134</ele>
        <time>2017-01-09T08:14:35Z</time>
      </trkpt>
      <trkpt lat="49.23436" lon="1.84529">
        <ele>135</ele>
        <time>2017-01-09T08:14:41Z</time>
      </trkpt>
      <trkpt lat="49.23433" lon="1.84532">
        <ele>135</ele>
        <time>2017-01-09T08:14:45Z</time>
      </trkpt>
      <trkpt lat="49.23432" lon="1.84536">
        <ele>133</ele>
        <time>2017-01-09T08:14:47Z</time>
      </trkpt>
      <trkpt lat="49.23426" lon="1.84541">
        <ele>134</ele>
        <time>2017-01-09T08:14:52Z</time>
      </trkpt>
      <trkpt lat="49.23425" lon="1.84546">
        <ele>133</ele>
        <time>2017-01-09T08:14:55Z</time>
      </trkpt>
      <trkpt lat="49.23422" lon="1.84547">
        <ele>132</ele>
        <time>2017-01-09T08:14:57Z</time>
      </trkpt>
      <trkpt lat="49.23419" lon="1.84545">
        <ele>132</ele>
        <time>2017-01-09T08:14:59Z</time>
      </trkpt>
      <trkpt lat="49.23415" lon="1.84547">
        <ele>130</ele>
        <time>2017-01-09T08:15:02Z</time>
      </trkpt>
      <trkpt lat="49.23413" lon="1.8455">
        <ele>130</ele>
        <time>2017-01-09T08:15:04Z</time>
      </trkpt>
      <trkpt lat="49.23412" lon="1.84555">
        <ele>131</ele>
        <time>2017-01-09T08:15:06Z</time>
      </trkpt>
      <trkpt lat="49.23412" lon="1.84559">
        <ele>132</ele>
        <time>2017-01-09T08:15:09Z</time>
      </trkpt>
      <trkpt lat="49.2341" lon="1.84562">
        <ele>132</ele>
        <time>2017-01-09T08:15:11Z</time>
      </trkpt>
      <trkpt lat="49.23403" lon="1.84561">
        <ele>131</ele>
        <time>2017-01-09T08:15:18Z</time>
      </trkpt>
      <trkpt lat="49.23387" lon="1.84578">
        <ele>132</ele>
        <time>2017-01-09T08:15:28Z</time>
      </trkpt>
      <trkpt lat="49.23385" lon="1.84582">
        <ele>132</ele>
        <time>2017-01-09T08:15:31Z</time>
      </trkpt>
      <trkpt lat="49.23384" lon="1.84589">
        <ele>130</ele>
        <time>2017-01-09T08:15:35Z</time>
      </trkpt>
      <trkpt lat="49.23374" lon="1.84596">
        <ele>130</ele>
        <time>2017-01-09T08:15:44Z</time>
      </trkpt>
      <trkpt lat="49.23365" lon="1.84605">
        <ele>131</ele>
        <time>2017-01-09T08:15:51Z</time>
      </trkpt>
      <trkpt lat="49.23366" lon="1.84611">
        <ele>130</ele>
        <time>2017-01-09T08:15:52Z</time>
      </trkpt>
      <trkpt lat="49.23363" lon="1.84614">
        <ele>129</ele>
        <time>2017-01-09T08:15:54Z</time>
      </trkpt>
      <trkpt lat="49.2336" lon="1.84614">
        <ele>128</ele>
        <time>2017-01-09T08:15:57Z</time>
      </trkpt>
      <trkpt lat="49.23357" lon="1.84616">
        <ele>128</ele>
        <time>2017-01-09T08:16:01Z</time>
      </trkpt>
      <trkpt lat="49.23342" lon="1.84625">
        <ele>132</ele>
        <time>2017-01-09T08:16:12Z</time>
      </trkpt>
      <trkpt lat="49.23339" lon="1.84622">
        <ele>133</ele>
        <time>2017-01-09T08:16:13Z</time>
      </trkpt>
      <trkpt lat="49.23336" lon="1.84624">
        <ele>134</ele>
        <time>2017-01-09T08:16:16Z</time>
      </trkpt>
      <trkpt lat="49.23328" lon="1.84632">
        <ele>135</ele>
        <time>2017-01-09T08:16:22Z</time>
      </trkpt>
      <trkpt lat="49.23329" lon="1.84639">
        <ele>134</ele>
        <time>2017-01-09T08:16:24Z</time>
      </trkpt>
      <trkpt lat="49.23327" lon="1.84641">
        <ele>132</ele>
        <time>2017-01-09T08:16:26Z</time>
      </trkpt>
      <trkpt lat="49.2332" lon="1.84642">
        <ele>134</ele>
        <time>2017-01-09T08:16:31Z</time>
      </trkpt>
      <trkpt lat="49.23314" lon="1.84648">
        <ele>132</ele>
        <time>2017-01-09T08:16:37Z</time>
      </trkpt>
      <trkpt lat="49.23312" lon="1.84649">
        <ele>132</ele>
        <time>2017-01-09T08:16:40Z</time>
      </trkpt>
      <trkpt lat="49.23304" lon="1.84657">
        <ele>131</ele>
        <time>2017-01-09T08:16:46Z</time>
      </trkpt>
      <trkpt lat="49.23303" lon="1.84662">
        <ele>131</ele>
        <time>2017-01-09T08:16:49Z</time>
      </trkpt>
      <trkpt lat="49.23301" lon="1.84666">
        <ele>129</ele>
        <time>2017-01-09T08:16:52Z</time>
      </trkpt>
      <trkpt lat="49.23281" lon="1.84682">
        <ele>133</ele>
        <time>2017-01-09T08:17:11Z</time>
      </trkpt>
      <trkpt lat="49.23265" lon="1.84697">
        <ele>132</ele>
        <time>2017-01-09T08:17:29Z</time>
      </trkpt>
      <trkpt lat="49.23254" lon="1.84712">
        <ele>132</ele>
        <time>2017-01-09T08:17:39Z</time>
      </trkpt>
      <trkpt lat="49.23254" lon="1.84718">
        <ele>130</ele>
        <time>2017-01-09T08:17:42Z</time>
      </trkpt>
      <trkpt lat="49.2325" lon="1.84719">
        <ele>131</ele>
        <time>2017-01-09T08:17:46Z</time>
      </trkpt>
      <trkpt lat="49.23238" lon="1.84737">
        <ele>134</ele>
        <time>2017-01-09T08:17:59Z</time>
      </trkpt>
      <trkpt lat="49.23237" lon="1.84741">
        <ele>135</ele>
        <time>2017-01-09T08:18:02Z</time>
      </trkpt>
      <trkpt lat="49.23232" lon="1.84747">
        <ele>135</ele>
        <time>2017-01-09T08:18:08Z</time>
      </trkpt>
      <trkpt lat="49.23225" lon="1.84759">
        <ele>135</ele>
        <time>2017-01-09T08:18:15Z</time>
      </trkpt>
      <trkpt lat="49.23209" lon="1.84785">
        <ele>136</ele>
        <time>2017-01-09T08:18:36Z</time>
      </trkpt>
      <trkpt lat="49.23207" lon="1.8479">
        <ele>135</ele>
        <time>2017-01-09T08:18:39Z</time>
      </trkpt>
      <trkpt lat="49.23202" lon="1.84791">
        <ele>135</ele>
        <time>2017-01-09T08:18:43Z</time>
      </trkpt>
      <trkpt lat="49.23196" lon="1.84803">
        <ele>134</ele>
        <time>2017-01-09T08:18:47Z</time>
      </trkpt>
      <trkpt lat="49.23193" lon="1.84807">
        <ele>134</ele>
        <time>2017-01-09T08:18:49Z</time>
      </trkpt>
      <trkpt lat="49.2319" lon="1.84808">
        <ele>134</ele>
        <time>2017-01-09T08:18:54Z</time>
      </trkpt>
      <trkpt lat="49.23194" lon="1.84814">
        <ele>134</ele>
        <time>2017-01-09T08:18:57Z</time>
      </trkpt>
      <trkpt lat="49.23199" lon="1.84819">
        <ele>132</ele>
        <time>2017-01-09T08:19:00Z</time>
      </trkpt>
      <trkpt lat="49.23204" lon="1.84837">
        <ele>126</ele>
        <time>2017-01-09T08:19:11Z</time>
      </trkpt>
      <trkpt lat="49.23208" lon="1.84839">
        <ele>124</ele>
        <time>2017-01-09T08:19:14Z</time>
      </trkpt>
      <trkpt lat="49.23213" lon="1.84847">
        <ele>123</ele>
        <time>2017-01-09T08:19:21Z</time>
      </trkpt>
      <trkpt lat="49.23214" lon="1.84853">
        <ele>128</ele>
        <time>2017-01-09T08:19:32Z</time>
      </trkpt>
      <trkpt lat="49.23217" lon="1.84856">
        <ele>129</ele>
        <time>2017-01-09T08:19:34Z</time>
      </trkpt>
      <trkpt lat="49.23232" lon="1.84885">
        <ele>128</ele>
        <time>2017-01-09T08:19:58Z</time>
      </trkpt>
      <trkpt lat="49.23236" lon="1.84892">
        <ele>122</ele>
        <time>2017-01-09T08:20:03Z</time>
      </trkpt>
      <trkpt lat="49.23248" lon="1.84914">
        <ele>121</ele>
        <time>2017-01-09T08:20:25Z</time>
      </trkpt>
      <trkpt lat="49.23249" lon="1.84922">
        <ele>124</ele>
        <time>2017-01-09T08:20:28Z</time>
      </trkpt>
      <trkpt lat="49.23258" lon="1.84936">
        <ele>124</ele>
        <time>2017-01-09T08:20:34Z</time>
      </trkpt>
      <trkpt lat="49.23276" lon="1.84966">
        <ele>130</ele>
        <time>2017-01-09T08:20:57Z</time>
      </trkpt>
      <trkpt lat="49.23297" lon="1.85005">
        <ele>119</ele>
        <time>2017-01-09T08:21:18Z</time>
      </trkpt>
      <trkpt lat="49.23299" lon="1.85014">
        <ele>119</ele>
        <time>2017-01-09T08:21:25Z</time>
      </trkpt>
      <trkpt lat="49.233" lon="1.8502">
        <ele>121</ele>
        <time>2017-01-09T08:21:31Z</time>
      </trkpt>
      <trkpt lat="49.23298" lon="1.85027">
        <ele>120</ele>
        <time>2017-01-09T08:21:35Z</time>
      </trkpt>
      <trkpt lat="49.23301" lon="1.8503">
        <ele>120</ele>
        <time>2017-01-09T08:21:40Z</time>
      </trkpt>
      <trkpt lat="49.23302" lon="1.85038">
        <ele>119</ele>
        <time>2017-01-09T08:21:45Z</time>
      </trkpt>
      <trkpt lat="49.233" lon="1.85046">
        <ele>120</ele>
        <time>2017-01-09T08:21:52Z</time>
      </trkpt>
      <trkpt lat="49.23295" lon="1.85051">
        <ele>120</ele>
        <time>2017-01-09T08:22:14Z</time>
      </trkpt>
      <trkpt lat="49.23289" lon="1.85064">
        <ele>129</ele>
        <time>2017-01-09T08:22:30Z</time>
      </trkpt>
      <trkpt lat="49.23286" lon="1.85067">
        <ele>128</ele>
        <time>2017-01-09T08:22:33Z</time>
      </trkpt>
      <trkpt lat="49.23284" lon="1.85072">
        <ele>127</ele>
        <time>2017-01-09T08:22:36Z</time>
      </trkpt>
      <trkpt lat="49.23281" lon="1.85081">
        <ele>127</ele>
        <time>2017-01-09T08:22:44Z</time>
      </trkpt>
      <trkpt lat="49.23279" lon="1.85092">
        <ele>129</ele>
        <time>2017-01-09T08:22:49Z</time>
      </trkpt>
      <trkpt lat="49.23269" lon="1.85102">
        <ele>134</ele>
        <time>2017-01-09T08:22:59Z</time>
      </trkpt>
      <trkpt lat="49.23269" lon="1.85115">
        <ele>138</ele>
        <time>2017-01-09T08:23:06Z</time>
      </trkpt>
      <trkpt lat="49.23266" lon="1.85119">
        <ele>137</ele>
        <time>2017-01-09T08:23:13Z</time>
      </trkpt>
      <trkpt lat="49.23263" lon="1.85119">
        <ele>137</ele>
        <time>2017-01-09T08:23:15Z</time>
      </trkpt>
      <trkpt lat="49.2326" lon="1.85119">
        <ele>137</ele>
        <time>2017-01-09T08:23:16Z</time>
      </trkpt>
      <trkpt lat="49.23258" lon="1.85123">
        <ele>137</ele>
        <time>2017-01-09T08:23:19Z</time>
      </trkpt>
      <trkpt lat="49.23261" lon="1.85132">
        <ele>135</ele>
        <time>2017-01-09T08:23:29Z</time>
      </trkpt>
      <trkpt lat="49.23252" lon="1.85137">
        <ele>132</ele>
        <time>2017-01-09T08:23:37Z</time>
      </trkpt>
      <trkpt lat="49.23251" lon="1.85149">
        <ele>126</ele>
        <time>2017-01-09T08:23:43Z</time>
      </trkpt>
      <trkpt lat="49.2325" lon="1.85157">
        <ele>124</ele>
        <time>2017-01-09T08:23:51Z</time>
      </trkpt>
      <trkpt lat="49.23249" lon="1.85163">
        <ele>126</ele>
        <time>2017-01-09T08:23:54Z</time>
      </trkpt>
      <trkpt lat="49.23245" lon="1.85167">
        <ele>127</ele>
        <time>2017-01-09T08:23:57Z</time>
      </trkpt>
      <trkpt lat="49.23241" lon="1.85164">
        <ele>126</ele>
        <time>2017-01-09T08:24:00Z</time>
      </trkpt>
      <trkpt lat="49.2324" lon="1.85171">
        <ele>125</ele>
        <time>2017-01-09T08:24:05Z</time>
      </trkpt>
      <trkpt lat="49.23235" lon="1.85173">
        <ele>121</ele>
        <time>2017-01-09T08:24:09Z</time>
      </trkpt>
      <trkpt lat="49.23234" lon="1.85178">
        <ele>121</ele>
        <time>2017-01-09T08:24:13Z</time>
      </trkpt>
      <trkpt lat="49.23235" lon="1.85182">
        <ele>121</ele>
        <time>2017-01-09T08:24:23Z</time>
      </trkpt>
      <trkpt lat="49.23234" lon="1.85187">
        <ele>121</ele>
        <time>2017-01-09T08:24:28Z</time>
      </trkpt>
      <trkpt lat="49.23228" lon="1.85197">
        <ele>121</ele>
        <time>2017-01-09T08:24:39Z</time>
      </trkpt>
      <trkpt lat="49.23226" lon="1.85207">
        <ele>119</ele>
        <time>2017-01-09T08:24:45Z</time>
      </trkpt>
      <trkpt lat="49.2322" lon="1.85213">
        <ele>119</ele>
        <time>2017-01-09T08:24:51Z</time>
      </trkpt>
      <trkpt lat="49.23219" lon="1.85218">
        <ele>120</ele>
        <time>2017-01-09T08:24:55Z</time>
      </trkpt>
      <trkpt lat="49.23215" lon="1.85222">
        <ele>120</ele>
        <time>2017-01-09T08:25:00Z</time>
      </trkpt>
      <trkpt lat="49.23209" lon="1.85228">
        <ele>118</ele>
        <time>2017-01-09T08:25:08Z</time>
      </trkpt>
      <trkpt lat="49.23206" lon="1.85228">
        <ele>118</ele>
        <time>2017-01-09T08:25:15Z</time>
      </trkpt>
      <trkpt lat="49.23204" lon="1.85234">
        <ele>117</ele>
        <time>2017-01-09T08:25:20Z</time>
      </trkpt>
      <trkpt lat="49.23205" lon="1.85239">
        <ele>116</ele>
        <time>2017-01-09T08:25:23Z</time>
      </trkpt>
      <trkpt lat="49.23211" lon="1.85242">
        <ele>114</ele>
        <time>2017-01-09T08:25:28Z</time>
      </trkpt>
      <trkpt lat="49.23236" lon="1.85239">
        <ele>117</ele>
        <time>2017-01-09T08:25:58Z</time>
      </trkpt>
      <trkpt lat="49.23242" lon="1.85243">
        <ele>115</ele>
        <time>2017-01-09T08:26:04Z</time>
      </trkpt>
      <trkpt lat="49.23244" lon="1.85248">
        <ele>111</ele>
        <time>2017-01-09T08:26:09Z</time>
      </trkpt>
      <trkpt lat="49.23266" lon="1.85253">
        <ele>111</ele>
        <time>2017-01-09T08:26:39Z</time>
      </trkpt>
      <trkpt lat="49.23269" lon="1.85251">
        <ele>113</ele>
        <time>2017-01-09T08:26:41Z</time>
      </trkpt>
      <trkpt lat="49.23275" lon="1.85256">
        <ele>112</ele>
        <time>2017-01-09T08:26:50Z</time>
      </trkpt>
      <trkpt lat="49.23279" lon="1.85257">
        <ele>110</ele>
        <time>2017-01-09T08:26:52Z</time>
      </trkpt>
      <trkpt lat="49.23282" lon="1.85256">
        <ele>105</ele>
        <time>2017-01-09T08:27:04Z</time>
      </trkpt>
      <trkpt lat="49.23289" lon="1.85256">
        <ele>104</ele>
        <time>2017-01-09T08:27:11Z</time>
      </trkpt>
      <trkpt lat="49.23291" lon="1.85259">
        <ele>108</ele>
        <time>2017-01-09T08:27:14Z</time>
      </trkpt>
      <trkpt lat="49.233" lon="1.85261">
        <ele>108</ele>
        <time>2017-01-09T08:27:28Z</time>
      </trkpt>
      <trkpt lat="49.23304" lon="1.85265">
        <ele>106</ele>
        <time>2017-01-09T08:27:34Z</time>
      </trkpt>
      <trkpt lat="49.23303" lon="1.85269">
        <ele>106</ele>
        <time>2017-01-09T08:27:39Z</time>
      </trkpt>
      <trkpt lat="49.23306" lon="1.85276">
        <ele>105</ele>
        <time>2017-01-09T08:27:45Z</time>
      </trkpt>
      <trkpt lat="49.23305" lon="1.85282">
        <ele>104</ele>
        <time>2017-01-09T08:27:48Z</time>
      </trkpt>
      <trkpt lat="49.23302" lon="1.85289">
        <ele>104</ele>
        <time>2017-01-09T08:27:54Z</time>
      </trkpt>
      <trkpt lat="49.233" lon="1.85294">
        <ele>102</ele>
        <time>2017-01-09T08:27:58Z</time>
      </trkpt>
      <trkpt lat="49.233" lon="1.85299">
        <ele>100</ele>
        <time>2017-01-09T08:28:00Z</time>
      </trkpt>
      <trkpt lat="49.23299" lon="1.85308">
        <ele>98</ele>
        <time>2017-01-09T08:28:07Z</time>
      </trkpt>
      <trkpt lat="49.23285" lon="1.85351">
        <ele>93</ele>
        <time>2017-01-09T08:28:32Z</time>
      </trkpt>
      <trkpt lat="49.23283" lon="1.85356">
        <ele>93</ele>
        <time>2017-01-09T08:28:35Z</time>
      </trkpt>
      <trkpt lat="49.23284" lon="1.85375">
        <ele>89</ele>
        <time>2017-01-09T08:28:48Z</time>
      </trkpt>
      <trkpt lat="49.23284" lon="1.85379">
        <ele>87</ele>
        <time>2017-01-09T08:28:51Z</time>
      </trkpt>
      <trkpt lat="49.23292" lon="1.85416">
        <ele>89</ele>
        <time>2017-01-09T08:29:47Z</time>
      </trkpt>
      <trkpt lat="49.23293" lon="1.85425">
        <ele>87</ele>
        <time>2017-01-09T08:29:50Z</time>
      </trkpt>
      <trkpt lat="49.23292" lon="1.85435">
        <ele>85</ele>
        <time>2017-01-09T08:29:56Z</time>
      </trkpt>
      <trkpt lat="49.23296" lon="1.8545">
        <ele>86</ele>
        <time>2017-01-09T08:30:08Z</time>
      </trkpt>
      <trkpt lat="49.23293" lon="1.85455">
        <ele>87</ele>
        <time>2017-01-09T08:30:11Z</time>
      </trkpt>
      <trkpt lat="49.23297" lon="1.85465">
        <ele>87</ele>
        <time>2017-01-09T08:30:22Z</time>
      </trkpt>
      <trkpt lat="49.23305" lon="1.85477">
        <ele>88</ele>
        <time>2017-01-09T08:30:31Z</time>
      </trkpt>
      <trkpt lat="49.23306" lon="1.85484">
        <ele>88</ele>
        <time>2017-01-09T08:30:37Z</time>
      </trkpt>
      <trkpt lat="49.2331" lon="1.85489">
        <ele>86</ele>
        <time>2017-01-09T08:30:39Z</time>
      </trkpt>
      <trkpt lat="49.23311" lon="1.85497">
        <ele>84</ele>
        <time>2017-01-09T08:30:43Z</time>
      </trkpt>
      <trkpt lat="49.2331" lon="1.85528">
        <ele>81</ele>
        <time>2017-01-09T08:31:03Z</time>
      </trkpt>
      <trkpt lat="49.23317" lon="1.85547">
        <ele>78</ele>
        <time>2017-01-09T08:31:19Z</time>
      </trkpt>
      <trkpt lat="49.23318" lon="1.85557">
        <ele>79</ele>
        <time>2017-01-09T08:31:22Z</time>
      </trkpt>
      <trkpt lat="49.23316" lon="1.85566">
        <ele>79</ele>
        <time>2017-01-09T08:31:27Z</time>
      </trkpt>
      <trkpt lat="49.23319" lon="1.85574">
        <ele>80</ele>
        <time>2017-01-09T08:31:32Z</time>
      </trkpt>
      <trkpt lat="49.23317" lon="1.85588">
        <ele>80</ele>
        <time>2017-01-09T08:31:43Z</time>
      </trkpt>
      <trkpt lat="49.23329" lon="1.85627">
        <ele>77</ele>
        <time>2017-01-09T08:31:59Z</time>
      </trkpt>
      <trkpt lat="49.23329" lon="1.85634">
        <ele>78</ele>
        <time>2017-01-09T08:32:03Z</time>
      </trkpt>
      <trkpt lat="49.23333" lon="1.85653">
        <ele>81</ele>
        <time>2017-01-09T08:32:12Z</time>
      </trkpt>
      <trkpt lat="49.23331" lon="1.85662">
        <ele>82</ele>
        <time>2017-01-09T08:32:18Z</time>
      </trkpt>
      <trkpt lat="49.23333" lon="1.85676">
        <ele>83</ele>
        <time>2017-01-09T08:32:32Z</time>
      </trkpt>
      <trkpt lat="49.2333" lon="1.85685">
        <ele>84</ele>
        <time>2017-01-09T08:32:36Z</time>
      </trkpt>
      <trkpt lat="49.23315" lon="1.85708">
        <ele>86</ele>
        <time>2017-01-09T08:32:56Z</time>
      </trkpt>
      <trkpt lat="49.23313" lon="1.85713">
        <ele>87</ele>
        <time>2017-01-09T08:33:04Z</time>
      </trkpt>
      <trkpt lat="49.23312" lon="1.85717">
        <ele>87</ele>
        <time>2017-01-09T08:33:07Z</time>
      </trkpt>
      <trkpt lat="49.23312" lon="1.85724">
        <ele>84</ele>
        <time>2017-01-09T08:33:15Z</time>
      </trkpt>
      <trkpt lat="49.23311" lon="1.85732">
        <ele>84</ele>
        <time>2017-01-09T08:33:22Z</time>
      </trkpt>
      <trkpt lat="49.23308" lon="1.85735">
        <ele>83</ele>
        <time>2017-01-09T08:33:27Z</time>
      </trkpt>
      <trkpt lat="49.23299" lon="1.85744">
        <ele>81</ele>
        <time>2017-01-09T08:33:46Z</time>
      </trkpt>
      <trkpt lat="49.23299" lon="1.85765">
        <ele>80</ele>
        <time>2017-01-09T08:33:55Z</time>
      </trkpt>
      <trkpt lat="49.23295" lon="1.85772">
        <ele>81</ele>
        <time>2017-01-09T08:34:03Z</time>
      </trkpt>
      <trkpt lat="49.23294" lon="1.8578">
        <ele>82</ele>
        <time>2017-01-09T08:34:07Z</time>
      </trkpt>
      <trkpt lat="49.23291" lon="1.85784">
        <ele>82</ele>
        <time>2017-01-09T08:34:13Z</time>
      </trkpt>
      <trkpt lat="49.23294" lon="1.85792">
        <ele>80</ele>
        <time>2017-01-09T08:34:16Z</time>
      </trkpt>
      <trkpt lat="49.23293" lon="1.85825">
        <ele>85</ele>
        <time>2017-01-09T08:34:37Z</time>
      </trkpt>
      <trkpt lat="49.23293" lon="1.85848">
        <ele>83</ele>
        <time>2017-01-09T08:34:57Z</time>
      </trkpt>
      <trkpt lat="49.23292" lon="1.85861">
        <ele>80</ele>
        <time>2017-01-09T08:35:03Z</time>
      </trkpt>
      <trkpt lat="49.23296" lon="1.85884">
        <ele>78</ele>
        <time>2017-01-09T08:35:10Z</time>
      </trkpt>
      <trkpt lat="49.23296" lon="1.85905">
        <ele>81</ele>
        <time>2017-01-09T08:35:21Z</time>
      </trkpt>
      <trkpt lat="49.2329" lon="1.85922">
        <ele>82</ele>
        <time>2017-01-09T08:35:30Z</time>
      </trkpt>
      <trkpt lat="49.23285" lon="1.85926">
        <ele>83</ele>
        <time>2017-01-09T08:35:33Z</time>
      </trkpt>
      <trkpt lat="49.23279" lon="1.85939">
        <ele>82</ele>
        <time>2017-01-09T08:35:39Z</time>
      </trkpt>
      <trkpt lat="49.23276" lon="1.85945">
        <ele>81</ele>
        <time>2017-01-09T08:35:45Z</time>
      </trkpt>
      <trkpt lat="49.23271" lon="1.8595">
        <ele>83</ele>
        <time>2017-01-09T08:35:52Z</time>
      </trkpt>
      <trkpt lat="49.23261" lon="1.85965">
        <ele>85</ele>
        <time>2017-01-09T08:35:59Z</time>
      </trkpt>
      <trkpt lat="49.23258" lon="1.85968">
        <ele>84</ele>
        <time>2017-01-09T08:36:03Z</time>
      </trkpt>
      <trkpt lat="49.23254" lon="1.85968">
        <ele>82</ele>
        <time>2017-01-09T08:36:07Z</time>
      </trkpt>
      <trkpt lat="49.23246" lon="1.85971">
        <ele>83</ele>
        <time>2017-01-09T08:36:14Z</time>
      </trkpt>
      <trkpt lat="49.23241" lon="1.8597">
        <ele>83</ele>
        <time>2017-01-09T08:36:18Z</time>
      </trkpt>
      <trkpt lat="49.23226" lon="1.85958">
        <ele>84</ele>
        <time>2017-01-09T08:36:32Z</time>
      </trkpt>
      <trkpt lat="49.2321" lon="1.85945">
        <ele>91</ele>
        <time>2017-01-09T08:36:47Z</time>
      </trkpt>
      <trkpt lat="49.23195" lon="1.85933">
        <ele>95</ele>
        <time>2017-01-09T08:37:00Z</time>
      </trkpt>
      <trkpt lat="49.23179" lon="1.8592">
        <ele>98</ele>
        <time>2017-01-09T08:37:19Z</time>
      </trkpt>
      <trkpt lat="49.23171" lon="1.85919">
        <ele>97</ele>
        <time>2017-01-09T08:37:25Z</time>
      </trkpt>
      <trkpt lat="49.23157" lon="1.85907">
        <ele>99</ele>
        <time>2017-01-09T08:37:36Z</time>
      </trkpt>
      <trkpt lat="49.23148" lon="1.85908">
        <ele>98</ele>
        <time>2017-01-09T08:37:42Z</time>
      </trkpt>
      <trkpt lat="49.23141" lon="1.85917">
        <ele>97</ele>
        <time>2017-01-09T08:37:51Z</time>
      </trkpt>
      <trkpt lat="49.2314" lon="1.85931">
        <ele>96</ele>
        <time>2017-01-09T08:37:59Z</time>
      </trkpt>
      <trkpt lat="49.23139" lon="1.85943">
        <ele>94</ele>
        <time>2017-01-09T08:38:06Z</time>
      </trkpt>
      <trkpt lat="49.23144" lon="1.85975">
        <ele>97</ele>
        <time>2017-01-09T08:38:23Z</time>
      </trkpt>
      <trkpt lat="49.23144" lon="1.85981">
        <ele>96</ele>
        <time>2017-01-09T08:38:28Z</time>
      </trkpt>
      <trkpt lat="49.23144" lon="1.85991">
        <ele>90</ele>
        <time>2017-01-09T08:38:31Z</time>
      </trkpt>
      <trkpt lat="49.23142" lon="1.86003">
        <ele>88</ele>
        <time>2017-01-09T08:38:36Z</time>
      </trkpt>
      <trkpt lat="49.2314" lon="1.86013">
        <ele>86</ele>
        <time>2017-01-09T08:38:40Z</time>
      </trkpt>
      <trkpt lat="49.23143" lon="1.8602">
        <ele>86</ele>
        <time>2017-01-09T08:38:45Z</time>
      </trkpt>
      <trkpt lat="49.23139" lon="1.86027">
        <ele>87</ele>
        <time>2017-01-09T08:38:51Z</time>
      </trkpt>
      <trkpt lat="49.23134" lon="1.86058">
        <ele>79</ele>
        <time>2017-01-09T08:39:11Z</time>
      </trkpt>
      <trkpt lat="49.23133" lon="1.8607">
        <ele>81</ele>
        <time>2017-01-09T08:39:22Z</time>
      </trkpt>
      <trkpt lat="49.23132" lon="1.86078">
        <ele>83</ele>
        <time>2017-01-09T08:39:24Z</time>
      </trkpt>
      <trkpt lat="49.23131" lon="1.86096">
        <ele>82</ele>
        <time>2017-01-09T08:39:32Z</time>
      </trkpt>
      <trkpt lat="49.23132" lon="1.86109">
        <ele>82</ele>
        <time>2017-01-09T08:39:37Z</time>
      </trkpt>
      <trkpt lat="49.23131" lon="1.86115">
        <ele>84</ele>
        <time>2017-01-09T08:39:42Z</time>
      </trkpt>
      <trkpt lat="49.23134" lon="1.86125">
        <ele>84</ele>
        <time>2017-01-09T08:39:46Z</time>
      </trkpt>
      <trkpt lat="49.23133" lon="1.86134">
        <ele>86</ele>
        <time>2017-01-09T08:39:51Z</time>
      </trkpt>
      <trkpt lat="49.23136" lon="1.86164">
        <ele>93</ele>
        <time>2017-01-09T08:40:08Z</time>
      </trkpt>
      <trkpt lat="49.23137" lon="1.86169">
        <ele>94</ele>
        <time>2017-01-09T08:40:09Z</time>
      </trkpt>
      <trkpt lat="49.23133" lon="1.86184">
        <ele>92</ele>
        <time>2017-01-09T08:40:19Z</time>
      </trkpt>
      <trkpt lat="49.23133" lon="1.86207">
        <ele>93</ele>
        <time>2017-01-09T08:40:32Z</time>
      </trkpt>
      <trkpt lat="49.2314" lon="1.86227">
        <ele>90</ele>
        <time>2017-01-09T08:40:43Z</time>
      </trkpt>
      <trkpt lat="49.23141" lon="1.86232">
        <ele>90</ele>
        <time>2017-01-09T08:40:46Z</time>
      </trkpt>
      <trkpt lat="49.23144" lon="1.86248">
        <ele>84</ele>
        <time>2017-01-09T08:40:59Z</time>
      </trkpt>
      <trkpt lat="49.23145" lon="1.86259">
        <ele>82</ele>
        <time>2017-01-09T08:41:05Z</time>
      </trkpt>
      <trkpt lat="49.23143" lon="1.86264">
        <ele>81</ele>
        <time>2017-01-09T08:41:08Z</time>
      </trkpt>
      <trkpt lat="49.23143" lon="1.86278">
        <ele>83</ele>
        <time>2017-01-09T08:41:16Z</time>
      </trkpt>
      <trkpt lat="49.23144" lon="1.86284">
        <ele>84</ele>
        <time>2017-01-09T08:41:19Z</time>
      </trkpt>
      <trkpt lat="49.23143" lon="1.86294">
        <ele>82</ele>
        <time>2017-01-09T08:41:26Z</time>
      </trkpt>
      <trkpt lat="49.23142" lon="1.863">
        <ele>84</ele>
        <time>2017-01-09T08:41:29Z</time>
      </trkpt>
      <trkpt lat="49.23138" lon="1.8631">
        <ele>85</ele>
        <time>2017-01-09T08:41:35Z</time>
      </trkpt>
      <trkpt lat="49.23127" lon="1.86345">
        <ele>85</ele>
        <time>2017-01-09T08:41:57Z</time>
      </trkpt>
      <trkpt lat="49.23125" lon="1.8635">
        <ele>86</ele>
        <time>2017-01-09T08:42:00Z</time>
      </trkpt>
      <trkpt lat="49.23125" lon="1.86356">
        <ele>86</ele>
        <time>2017-01-09T08:42:02Z</time>
      </trkpt>
      <trkpt lat="49.23126" lon="1.86372">
        <ele>86</ele>
        <time>2017-01-09T08:42:11Z</time>
      </trkpt>
      <trkpt lat="49.23125" lon="1.86382">
        <ele>89</ele>
        <time>2017-01-09T08:42:17Z</time>
      </trkpt>
      <trkpt lat="49.23122" lon="1.86385">
        <ele>90</ele>
        <time>2017-01-09T08:42:21Z</time>
      </trkpt>
      <trkpt lat="49.23121" lon="1.8639">
        <ele>90</ele>
        <time>2017-01-09T08:42:24Z</time>
      </trkpt>
      <trkpt lat="49.23121" lon="1.86401">
        <ele>89</ele>
        <time>2017-01-09T08:42:32Z</time>
      </trkpt>
      <trkpt lat="49.23117" lon="1.86416">
        <ele>89</ele>
        <time>2017-01-09T08:42:42Z</time>
      </trkpt>
      <trkpt lat="49.23114" lon="1.86421">
        <ele>90</ele>
        <time>2017-01-09T08:42:45Z</time>
      </trkpt>
      <trkpt lat="49.23116" lon="1.86428">
        <ele>90</ele>
        <time>2017-01-09T08:42:48Z</time>
      </trkpt>
      <trkpt lat="49.23114" lon="1.8644">
        <ele>92</ele>
        <time>2017-01-09T08:42:57Z</time>
      </trkpt>
      <trkpt lat="49.23113" lon="1.86461">
        <ele>90</ele>
        <time>2017-01-09T08:43:09Z</time>
      </trkpt>
      <trkpt lat="49.23113" lon="1.86478">
        <ele>88</ele>
        <time>2017-01-09T08:43:25Z</time>
      </trkpt>
      <trkpt lat="49.23113" lon="1.86487">
        <ele>90</ele>
        <time>2017-01-09T08:43:29Z</time>
      </trkpt>
      <trkpt lat="49.23112" lon="1.86499">
        <ele>91</ele>
        <time>2017-01-09T08:43:34Z</time>
      </trkpt>
      <trkpt lat="49.23114" lon="1.86512">
        <ele>90</ele>
        <time>2017-01-09T08:43:41Z</time>
      </trkpt>
      <trkpt lat="49.23112" lon="1.86519">
        <ele>88</ele>
        <time>2017-01-09T08:43:44Z</time>
      </trkpt>
      <trkpt lat="49.23108" lon="1.86539">
        <ele>84</ele>
        <time>2017-01-09T08:43:52Z</time>
      </trkpt>
      <trkpt lat="49.23107" lon="1.86548">
        <ele>84</ele>
        <time>2017-01-09T08:43:56Z</time>
      </trkpt>
      <trkpt lat="49.23107" lon="1.86553">
        <ele>85</ele>
        <time>2017-01-09T08:43:58Z</time>
      </trkpt>
      <trkpt lat="49.23106" lon="1.86559">
        <ele>86</ele>
        <time>2017-01-09T08:44:01Z</time>
      </trkpt>
      <trkpt lat="49.23105" lon="1.86597">
        <ele>84</ele>
        <time>2017-01-09T08:44:20Z</time>
      </trkpt>
      <trkpt lat="49.23104" lon="1.86602">
        <ele>85</ele>
        <time>2017-01-09T08:44:23Z</time>
      </trkpt>
      <trkpt lat="49.23106" lon="1.86608">
        <ele>85</ele>
        <time>2017-01-09T08:44:25Z</time>
      </trkpt>
      <trkpt lat="49.23104" lon="1.86618">
        <ele>84</ele>
        <time>2017-01-09T08:44:31Z</time>
      </trkpt>
      <trkpt lat="49.23103" lon="1.86623">
        <ele>84</ele>
        <time>2017-01-09T08:44:35Z</time>
      </trkpt>
      <trkpt lat="49.23102" lon="1.86627">
        <ele>85</ele>
        <time>2017-01-09T08:44:40Z</time>
      </trkpt>
      <trkpt lat="49.23105" lon="1.86633">
        <ele>84</ele>
        <time>2017-01-09T08:44:42Z</time>
      </trkpt>
      <trkpt lat="49.23104" lon="1.86644">
        <ele>84</ele>
        <time>2017-01-09T08:44:48Z</time>
      </trkpt>
      <trkpt lat="49.23098" lon="1.86698">
        <ele>88</ele>
        <time>2017-01-09T08:45:19Z</time>
      </trkpt>
      <trkpt lat="49.23096" lon="1.86757">
        <ele>91</ele>
        <time>2017-01-09T08:45:50Z</time>
      </trkpt>
      <trkpt lat="49.23095" lon="1.86787">
        <ele>89</ele>
        <time>2017-01-09T08:46:07Z</time>
      </trkpt>
      <trkpt lat="49.23093" lon="1.86791">
        <ele>89</ele>
        <time>2017-01-09T08:46:09Z</time>
      </trkpt>
      <trkpt lat="49.23094" lon="1.86816">
        <ele>89</ele>
        <time>2017-01-09T08:46:23Z</time>
      </trkpt>
      <trkpt lat="49.23095" lon="1.86829">
        <ele>94</ele>
        <time>2017-01-09T08:46:31Z</time>
      </trkpt>
      <trkpt lat="49.23091" lon="1.86854">
        <ele>97</ele>
        <time>2017-01-09T08:46:45Z</time>
      </trkpt>
      <trkpt lat="49.23082" lon="1.86885">
        <ele>95</ele>
        <time>2017-01-09T08:47:06Z</time>
      </trkpt>
      <trkpt lat="49.23079" lon="1.86912">
        <ele>94</ele>
        <time>2017-01-09T08:47:21Z</time>
      </trkpt>
      <trkpt lat="49.23076" lon="1.86913">
        <ele>93</ele>
        <time>2017-01-09T08:47:30Z</time>
      </trkpt>
      <trkpt lat="49.23075" lon="1.86918">
        <ele>91</ele>
        <time>2017-01-09T08:47:32Z</time>
      </trkpt>
      <trkpt lat="49.23055" lon="1.86967">
        <ele>87</ele>
        <time>2017-01-09T08:47:59Z</time>
      </trkpt>
      <trkpt lat="49.23053" lon="1.86973">
        <ele>87</ele>
        <time>2017-01-09T08:48:02Z</time>
      </trkpt>
      <trkpt lat="49.23047" lon="1.86978">
        <ele>89</ele>
        <time>2017-01-09T08:48:08Z</time>
      </trkpt>
      <trkpt lat="49.23032" lon="1.8701">
        <ele>89</ele>
        <time>2017-01-09T08:48:28Z</time>
      </trkpt>
      <trkpt lat="49.23019" lon="1.8703">
        <ele>89</ele>
        <time>2017-01-09T08:48:41Z</time>
      </trkpt>
      <trkpt lat="49.23016" lon="1.87032">
        <ele>90</ele>
        <time>2017-01-09T08:48:43Z</time>
      </trkpt>
      <trkpt lat="49.23013" lon="1.87052">
        <ele>87</ele>
        <time>2017-01-09T08:48:58Z</time>
      </trkpt>
      <trkpt lat="49.23011" lon="1.87063">
        <ele>83</ele>
        <time>2017-01-09T08:49:04Z</time>
      </trkpt>
      <trkpt lat="49.23004" lon="1.87075">
        <ele>84</ele>
        <time>2017-01-09T08:49:12Z</time>
      </trkpt>
      <trkpt lat="49.23001" lon="1.87079">
        <ele>85</ele>
        <time>2017-01-09T08:49:15Z</time>
      </trkpt>
      <trkpt lat="49.23" lon="1.87084">
        <ele>85</ele>
        <time>2017-01-09T08:49:18Z</time>
      </trkpt>
      <trkpt lat="49.22971" lon="1.87107">
        <ele>88</ele>
        <time>2017-01-09T08:49:49Z</time>
      </trkpt>
      <trkpt lat="49.22964" lon="1.87115">
        <ele>90</ele>
        <time>2017-01-09T08:49:56Z</time>
      </trkpt>
      <trkpt lat="49.2296" lon="1.87114">
        <ele>91</ele>
        <time>2017-01-09T08:49:59Z</time>
      </trkpt>
      <trkpt lat="49.22958" lon="1.87118">
        <ele>92</ele>
        <time>2017-01-09T08:50:01Z</time>
      </trkpt>
      <trkpt lat="49.22955" lon="1.87118">
        <ele>91</ele>
        <time>2017-01-09T08:50:03Z</time>
      </trkpt>
      <trkpt lat="49.22934" lon="1.8713">
        <ele>86</ele>
        <time>2017-01-09T08:50:20Z</time>
      </trkpt>
      <trkpt lat="49.22931" lon="1.87131">
        <ele>85</ele>
        <time>2017-01-09T08:50:22Z</time>
      </trkpt>
      <trkpt lat="49.22917" lon="1.87139">
        <ele>84</ele>
        <time>2017-01-09T08:50:34Z</time>
      </trkpt>
      <trkpt lat="49.22913" lon="1.87139">
        <ele>83</ele>
        <time>2017-01-09T08:50:36Z</time>
      </trkpt>
      <trkpt lat="49.22908" lon="1.87144">
        <ele>81</ele>
        <time>2017-01-09T08:50:41Z</time>
      </trkpt>
      <trkpt lat="49.22903" lon="1.87151">
        <ele>82</ele>
        <time>2017-01-09T08:50:47Z</time>
      </trkpt>
      <trkpt lat="49.22899" lon="1.87153">
        <ele>83</ele>
        <time>2017-01-09T08:50:51Z</time>
      </trkpt>
      <trkpt lat="49.22897" lon="1.87157">
        <ele>83</ele>
        <time>2017-01-09T08:50:54Z</time>
      </trkpt>
      <trkpt lat="49.22887" lon="1.87162">
        <ele>85</ele>
        <time>2017-01-09T08:51:01Z</time>
      </trkpt>
      <trkpt lat="49.22878" lon="1.87169">
        <ele>86</ele>
        <time>2017-01-09T08:51:10Z</time>
      </trkpt>
      <trkpt lat="49.22875" lon="1.8717">
        <ele>86</ele>
        <time>2017-01-09T08:51:13Z</time>
      </trkpt>
      <trkpt lat="49.22873" lon="1.87174">
        <ele>86</ele>
        <time>2017-01-09T08:51:19Z</time>
      </trkpt>
      <trkpt lat="49.22838" lon="1.87197">
        <ele>84</ele>
        <time>2017-01-09T08:51:52Z</time>
      </trkpt>
      <trkpt lat="49.22836" lon="1.872">
        <ele>85</ele>
        <time>2017-01-09T08:51:54Z</time>
      </trkpt>
      <trkpt lat="49.22829" lon="1.87198">
        <ele>85</ele>
        <time>2017-01-09T08:51:59Z</time>
      </trkpt>
      <trkpt lat="49.22825" lon="1.87202">
        <ele>81</ele>
        <time>2017-01-09T08:52:03Z</time>
      </trkpt>
      <trkpt lat="49.2282" lon="1.87201">
        <ele>81</ele>
        <time>2017-01-09T08:52:10Z</time>
      </trkpt>
      <trkpt lat="49.22817" lon="1.87205">
        <ele>81</ele>
        <time>2017-01-09T08:52:12Z</time>
      </trkpt>
      <trkpt lat="49.22813" lon="1.87205">
        <ele>82</ele>
        <time>2017-01-09T08:52:14Z</time>
      </trkpt>
      <trkpt lat="49.22798" lon="1.87206">
        <ele>89</ele>
        <time>2017-01-09T08:52:26Z</time>
      </trkpt>
      <trkpt lat="49.22776" lon="1.87193">
        <ele>85</ele>
        <time>2017-01-09T08:52:46Z</time>
      </trkpt>
      <trkpt lat="49.22739" lon="1.8717">
        <ele>80</ele>
        <time>2017-01-09T08:53:12Z</time>
      </trkpt>
      <trkpt lat="49.22731" lon="1.87172">
        <ele>81</ele>
        <time>2017-01-09T08:53:21Z</time>
      </trkpt>
      <trkpt lat="49.22722" lon="1.87175">
        <ele>85</ele>
        <time>2017-01-09T08:53:28Z</time>
      </trkpt>
      <trkpt lat="49.22715" lon="1.87178">
        <ele>89</ele>
        <time>2017-01-09T08:53:35Z</time>
      </trkpt>
      <trkpt lat="49.22701" lon="1.87181">
        <ele>86</ele>
        <time>2017-01-09T08:53:46Z</time>
      </trkpt>
      <trkpt lat="49.22698" lon="1.8718">
        <ele>86</ele>
        <time>2017-01-09T08:53:49Z</time>
      </trkpt>
      <trkpt lat="49.22695" lon="1.87175">
        <ele>86</ele>
        <time>2017-01-09T08:53:52Z</time>
      </trkpt>
      <trkpt lat="49.22692" lon="1.87175">
        <ele>85</ele>
        <time>2017-01-09T08:53:54Z</time>
      </trkpt>
      <trkpt lat="49.22682" lon="1.8717">
        <ele>86</ele>
        <time>2017-01-09T08:54:01Z</time>
      </trkpt>
      <trkpt lat="49.2268" lon="1.87166">
        <ele>85</ele>
        <time>2017-01-09T08:54:03Z</time>
      </trkpt>
      <trkpt lat="49.22677" lon="1.87164">
        <ele>84</ele>
        <time>2017-01-09T08:54:05Z</time>
      </trkpt>
      <trkpt lat="49.22669" lon="1.87163">
        <ele>83</ele>
        <time>2017-01-09T08:54:13Z</time>
      </trkpt>
      <trkpt lat="49.22666" lon="1.8716">
        <ele>83</ele>
        <time>2017-01-09T08:54:16Z</time>
      </trkpt>
      <trkpt lat="49.22664" lon="1.87157">
        <ele>84</ele>
        <time>2017-01-09T08:54:19Z</time>
      </trkpt>
      <trkpt lat="49.22653" lon="1.87148">
        <ele>84</ele>
        <time>2017-01-09T08:54:30Z</time>
      </trkpt>
      <trkpt lat="49.2265" lon="1.87141">
        <ele>85</ele>
        <time>2017-01-09T08:54:36Z</time>
      </trkpt>
      <trkpt lat="49.22648" lon="1.87129">
        <ele>87</ele>
        <time>2017-01-09T08:54:42Z</time>
      </trkpt>
      <trkpt lat="49.22644" lon="1.87113">
        <ele>92</ele>
        <time>2017-01-09T08:54:51Z</time>
      </trkpt>
      <trkpt lat="49.2264" lon="1.8711">
        <ele>93</ele>
        <time>2017-01-09T08:54:55Z</time>
      </trkpt>
      <trkpt lat="49.22641" lon="1.87105">
        <ele>93</ele>
        <time>2017-01-09T08:54:58Z</time>
      </trkpt>
      <trkpt lat="49.22639" lon="1.87094">
        <ele>94</ele>
        <time>2017-01-09T08:55:04Z</time>
      </trkpt>
      <trkpt lat="49.22633" lon="1.8709">
        <ele>93</ele>
        <time>2017-01-09T08:55:09Z</time>
      </trkpt>
      <trkpt lat="49.22628" lon="1.87081">
        <ele>92</ele>
        <time>2017-01-09T08:55:14Z</time>
      </trkpt>
      <trkpt lat="49.22627" lon="1.87071">
        <ele>93</ele>
        <time>2017-01-09T08:55:21Z</time>
      </trkpt>
      <trkpt lat="49.22623" lon="1.87063">
        <ele>92</ele>
        <time>2017-01-09T08:55:28Z</time>
      </trkpt>
      <trkpt lat="49.22611" lon="1.87048">
        <ele>88</ele>
        <time>2017-01-09T08:55:50Z</time>
      </trkpt>
      <trkpt lat="49.22609" lon="1.87055">
        <ele>88</ele>
        <time>2017-01-09T08:56:02Z</time>
      </trkpt>
      <trkpt lat="49.22607" lon="1.87047">
        <ele>85</ele>
        <time>2017-01-09T08:57:08Z</time>
      </trkpt>
      <trkpt lat="49.22608" lon="1.87037">
        <ele>85</ele>
        <time>2017-01-09T08:57:12Z</time>
      </trkpt>
      <trkpt lat="49.22605" lon="1.8702">
        <ele>93</ele>
        <time>2017-01-09T08:57:23Z</time>
      </trkpt>
      <trkpt lat="49.226" lon="1.87016">
        <ele>94</ele>
        <time>2017-01-09T08:57:27Z</time>
      </trkpt>
      <trkpt lat="49.22597" lon="1.87008">
        <ele>92</ele>
        <time>2017-01-09T08:57:31Z</time>
      </trkpt>
      <trkpt lat="49.22593" lon="1.87004">
        <ele>91</ele>
        <time>2017-01-09T08:57:35Z</time>
      </trkpt>
      <trkpt lat="49.22593" lon="1.86998">
        <ele>91</ele>
        <time>2017-01-09T08:57:37Z</time>
      </trkpt>
      <trkpt lat="49.22591" lon="1.86992">
        <ele>94</ele>
        <time>2017-01-09T08:57:40Z</time>
      </trkpt>
      <trkpt lat="49.22591" lon="1.86966">
        <ele>100</ele>
        <time>2017-01-09T08:58:03Z</time>
      </trkpt>
      <trkpt lat="49.22589" lon="1.8696">
        <ele>99</ele>
        <time>2017-01-09T08:58:13Z</time>
      </trkpt>
      <trkpt lat="49.22589" lon="1.86953">
        <ele>99</ele>
        <time>2017-01-09T08:58:16Z</time>
      </trkpt>
      <trkpt lat="49.22586" lon="1.86948">
        <ele>99</ele>
        <time>2017-01-09T08:58:18Z</time>
      </trkpt>
      <trkpt lat="49.22572" lon="1.86905">
        <ele>102</ele>
        <time>2017-01-09T08:58:46Z</time>
      </trkpt>
      <trkpt lat="49.22573" lon="1.86901">
        <ele>102</ele>
        <time>2017-01-09T08:58:50Z</time>
      </trkpt>
      <trkpt lat="49.22576" lon="1.86898">
        <ele>102</ele>
        <time>2017-01-09T08:58:54Z</time>
      </trkpt>
      <trkpt lat="49.22574" lon="1.86892">
        <ele>104</ele>
        <time>2017-01-09T08:59:22Z</time>
      </trkpt>
      <trkpt lat="49.22572" lon="1.86897">
        <ele>105</ele>
        <time>2017-01-09T08:59:25Z</time>
      </trkpt>
      <trkpt lat="49.22569" lon="1.86898">
        <ele>104</ele>
        <time>2017-01-09T08:59:28Z</time>
      </trkpt>
      <trkpt lat="49.22567" lon="1.869">
        <ele>105</ele>
        <time>2017-01-09T08:59:30Z</time>
      </trkpt>
      <trkpt lat="49.22559" lon="1.86901">
        <ele>104</ele>
        <time>2017-01-09T08:59:38Z</time>
      </trkpt>
      <trkpt lat="49.22556" lon="1.86899">
        <ele>105</ele>
        <time>2017-01-09T08:59:42Z</time>
      </trkpt>
      <trkpt lat="49.22519" lon="1.86896">
        <ele>107</ele>
        <time>2017-01-09T09:00:14Z</time>
      </trkpt>
      <trkpt lat="49.22509" lon="1.86894">
        <ele>106</ele>
        <time>2017-01-09T09:00:23Z</time>
      </trkpt>
      <trkpt lat="49.22475" lon="1.86894">
        <ele>110</ele>
        <time>2017-01-09T09:00:54Z</time>
      </trkpt>
      <trkpt lat="49.22472" lon="1.86894">
        <ele>110</ele>
        <time>2017-01-09T09:00:58Z</time>
      </trkpt>
      <trkpt lat="49.22438" lon="1.86889">
        <ele>112</ele>
        <time>2017-01-09T09:01:26Z</time>
      </trkpt>
      <trkpt lat="49.22436" lon="1.86892">
        <ele>112</ele>
        <time>2017-01-09T09:01:29Z</time>
      </trkpt>
      <trkpt lat="49.22432" lon="1.86891">
        <ele>111</ele>
        <time>2017-01-09T09:01:33Z</time>
      </trkpt>
      <trkpt lat="49.22429" lon="1.86889">
        <ele>112</ele>
        <time>2017-01-09T09:01:35Z</time>
      </trkpt>
      <trkpt lat="49.22425" lon="1.86889">
        <ele>112</ele>
        <time>2017-01-09T09:01:38Z</time>
      </trkpt>
      <trkpt lat="49.22409" lon="1.86884">
        <ele>115</ele>
        <time>2017-01-09T09:01:50Z</time>
      </trkpt>
      <trkpt lat="49.22389" lon="1.86881">
        <ele>115</ele>
        <time>2017-01-09T09:02:05Z</time>
      </trkpt>
      <trkpt lat="49.2236" lon="1.86876">
        <ele>109</ele>
        <time>2017-01-09T09:02:28Z</time>
      </trkpt>
      <trkpt lat="49.22358" lon="1.86873">
        <ele>110</ele>
        <time>2017-01-09T09:02:31Z</time>
      </trkpt>
      <trkpt lat="49.22337" lon="1.86855">
        <ele>117</ele>
        <time>2017-01-09T09:02:52Z</time>
      </trkpt>
      <trkpt lat="49.22335" lon="1.86851">
        <ele>117</ele>
        <time>2017-01-09T09:02:54Z</time>
      </trkpt>
      <trkpt lat="49.22332" lon="1.8685">
        <ele>116</ele>
        <time>2017-01-09T09:02:56Z</time>
      </trkpt>
      <trkpt lat="49.22331" lon="1.86846">
        <ele>116</ele>
        <time>2017-01-09T09:02:58Z</time>
      </trkpt>
      <trkpt lat="49.22329" lon="1.86843">
        <ele>115</ele>
        <time>2017-01-09T09:03:00Z</time>
      </trkpt>
      <trkpt lat="49.2233" lon="1.86837">
        <ele>115</ele>
        <time>2017-01-09T09:03:03Z</time>
      </trkpt>
      <trkpt lat="49.22334" lon="1.86836">
        <ele>116</ele>
        <time>2017-01-09T09:03:04Z</time>
      </trkpt>
      <trkpt lat="49.22333" lon="1.86832">
        <ele>116</ele>
        <time>2017-01-09T09:03:07Z</time>
      </trkpt>
      <trkpt lat="49.22335" lon="1.86825">
        <ele>115</ele>
        <time>2017-01-09T09:03:10Z</time>
      </trkpt>
      <trkpt lat="49.22335" lon="1.8682">
        <ele>114</ele>
        <time>2017-01-09T09:03:13Z</time>
      </trkpt>
      <trkpt lat="49.22332" lon="1.86822">
        <ele>116</ele>
        <time>2017-01-09T09:03:30Z</time>
      </trkpt>
      <trkpt lat="49.2232" lon="1.86815">
        <ele>119</ele>
        <time>2017-01-09T09:03:42Z</time>
      </trkpt>
      <trkpt lat="49.22314" lon="1.86811">
        <ele>120</ele>
        <time>2017-01-09T09:03:47Z</time>
      </trkpt>
      <trkpt lat="49.22309" lon="1.86811">
        <ele>120</ele>
        <time>2017-01-09T09:03:51Z</time>
      </trkpt>
      <trkpt lat="49.22306" lon="1.8681">
        <ele>120</ele>
        <time>2017-01-09T09:03:54Z</time>
      </trkpt>
      <trkpt lat="49.22303" lon="1.86803">
        <ele>121</ele>
        <time>2017-01-09T09:03:57Z</time>
      </trkpt>
      <trkpt lat="49.22299" lon="1.86804">
        <ele>121</ele>
        <time>2017-01-09T09:04:00Z</time>
      </trkpt>
      <trkpt lat="49.22284" lon="1.868">
        <ele>120</ele>
        <time>2017-01-09T09:04:20Z</time>
      </trkpt>
      <trkpt lat="49.22271" lon="1.86802">
        <ele>118</ele>
        <time>2017-01-09T09:04:29Z</time>
      </trkpt>
      <trkpt lat="49.22267" lon="1.868">
        <ele>120</ele>
        <time>2017-01-09T09:04:31Z</time>
      </trkpt>
      <trkpt lat="49.22263" lon="1.86801">
        <ele>121</ele>
        <time>2017-01-09T09:04:34Z</time>
      </trkpt>
      <trkpt lat="49.2226" lon="1.86797">
        <ele>121</ele>
        <time>2017-01-09T09:04:36Z</time>
      </trkpt>
      <trkpt lat="49.22242" lon="1.86783">
        <ele>120</ele>
        <time>2017-01-09T09:04:53Z</time>
      </trkpt>
      <trkpt lat="49.22238" lon="1.86785">
        <ele>121</ele>
        <time>2017-01-09T09:04:57Z</time>
      </trkpt>
      <trkpt lat="49.22234" lon="1.86784">
        <ele>122</ele>
        <time>2017-01-09T09:05:00Z</time>
      </trkpt>
      <trkpt lat="49.2223" lon="1.86779">
        <ele>121</ele>
        <time>2017-01-09T09:05:03Z</time>
      </trkpt>
      <trkpt lat="49.22224" lon="1.86784">
        <ele>120</ele>
        <time>2017-01-09T09:05:08Z</time>
      </trkpt>
      <trkpt lat="49.2222" lon="1.86786">
        <ele>123</ele>
        <time>2017-01-09T09:05:10Z</time>
      </trkpt>
      <trkpt lat="49.22217" lon="1.86791">
        <ele>123</ele>
        <time>2017-01-09T09:05:18Z</time>
      </trkpt>
      <trkpt lat="49.22217" lon="1.86786">
        <ele>123</ele>
        <time>2017-01-09T09:05:26Z</time>
      </trkpt>
      <trkpt lat="49.22218" lon="1.8678">
        <ele>123</ele>
        <time>2017-01-09T09:05:34Z</time>
      </trkpt>
      <trkpt lat="49.22218" lon="1.86776">
        <ele>122</ele>
        <time>2017-01-09T09:05:37Z</time>
      </trkpt>
      <trkpt lat="49.22221" lon="1.86772">
        <ele>121</ele>
        <time>2017-01-09T09:05:40Z</time>
      </trkpt>
      <trkpt lat="49.22218" lon="1.86768">
        <ele>120</ele>
        <time>2017-01-09T09:05:43Z</time>
      </trkpt>
      <trkpt lat="49.22223" lon="1.86763">
        <ele>120</ele>
        <time>2017-01-09T09:05:46Z</time>
      </trkpt>
      <trkpt lat="49.22229" lon="1.86732">
        <ele>122</ele>
        <time>2017-01-09T09:06:04Z</time>
      </trkpt>
      <trkpt lat="49.22228" lon="1.86723">
        <ele>122</ele>
        <time>2017-01-09T09:06:10Z</time>
      </trkpt>
      <trkpt lat="49.22224" lon="1.86721">
        <ele>121</ele>
        <time>2017-01-09T09:06:12Z</time>
      </trkpt>
      <trkpt lat="49.22225" lon="1.86715">
        <ele>122</ele>
        <time>2017-01-09T09:06:14Z</time>
      </trkpt>
      <trkpt lat="49.22221" lon="1.86717">
        <ele>123</ele>
        <time>2017-01-09T09:06:17Z</time>
      </trkpt>
      <trkpt lat="49.22218" lon="1.86719">
        <ele>123</ele>
        <time>2017-01-09T09:06:20Z</time>
      </trkpt>
      <trkpt lat="49.22215" lon="1.86719">
        <ele>124</ele>
        <time>2017-01-09T09:06:21Z</time>
      </trkpt>
      <trkpt lat="49.22209" lon="1.86725">
        <ele>124</ele>
        <time>2017-01-09T09:06:27Z</time>
      </trkpt>
      <trkpt lat="49.22207" lon="1.86729">
        <ele>124</ele>
        <time>2017-01-09T09:06:30Z</time>
      </trkpt>
      <trkpt lat="49.22203" lon="1.86733">
        <ele>127</ele>
        <time>2017-01-09T09:06:33Z</time>
      </trkpt>
      <trkpt lat="49.22201" lon="1.86738">
        <ele>128</ele>
        <time>2017-01-09T09:06:36Z</time>
      </trkpt>
      <trkpt lat="49.22196" lon="1.86743">
        <ele>128</ele>
        <time>2017-01-09T09:06:41Z</time>
      </trkpt>
      <trkpt lat="49.22194" lon="1.86748">
        <ele>126</ele>
        <time>2017-01-09T09:06:45Z</time>
      </trkpt>
      <trkpt lat="49.2219" lon="1.86749">
        <ele>126</ele>
        <time>2017-01-09T09:06:48Z</time>
      </trkpt>
      <trkpt lat="49.22186" lon="1.86747">
        <ele>126</ele>
        <time>2017-01-09T09:06:51Z</time>
      </trkpt>
      <trkpt lat="49.22174" lon="1.86729">
        <ele>127</ele>
        <time>2017-01-09T09:07:06Z</time>
      </trkpt>
      <trkpt lat="49.22157" lon="1.86704">
        <ele>122</ele>
        <time>2017-01-09T09:07:26Z</time>
      </trkpt>
      <trkpt lat="49.22133" lon="1.86673">
        <ele>122</ele>
        <time>2017-01-09T09:07:44Z</time>
      </trkpt>
      <trkpt lat="49.22132" lon="1.86668">
        <ele>122</ele>
        <time>2017-01-09T09:07:47Z</time>
      </trkpt>
      <trkpt lat="49.22126" lon="1.86657">
        <ele>122</ele>
        <time>2017-01-09T09:07:52Z</time>
      </trkpt>
      <trkpt lat="49.22122" lon="1.86656">
        <ele>123</ele>
        <time>2017-01-09T09:07:56Z</time>
      </trkpt>
      <trkpt lat="49.22122" lon="1.86647">
        <ele>124</ele>
        <time>2017-01-09T09:07:59Z</time>
      </trkpt>
      <trkpt lat="49.22117" lon="1.86646">
        <ele>123</ele>
        <time>2017-01-09T09:08:02Z</time>
      </trkpt>
      <trkpt lat="49.22112" lon="1.8665">
        <ele>121</ele>
        <time>2017-01-09T09:08:06Z</time>
      </trkpt>
      <trkpt lat="49.22109" lon="1.86653">
        <ele>124</ele>
        <time>2017-01-09T09:08:10Z</time>
      </trkpt>
      <trkpt lat="49.22106" lon="1.86659">
        <ele>124</ele>
        <time>2017-01-09T09:08:13Z</time>
      </trkpt>
      <trkpt lat="49.22098" lon="1.86663">
        <ele>125</ele>
        <time>2017-01-09T09:08:20Z</time>
      </trkpt>
      <trkpt lat="49.22086" lon="1.86669">
        <ele>126</ele>
        <time>2017-01-09T09:08:30Z</time>
      </trkpt>
      <trkpt lat="49.22082" lon="1.86667">
        <ele>126</ele>
        <time>2017-01-09T09:08:33Z</time>
      </trkpt>
      <trkpt lat="49.22075" lon="1.86672">
        <ele>126</ele>
        <time>2017-01-09T09:08:38Z</time>
      </trkpt>
      <trkpt lat="49.22066" lon="1.86672">
        <ele>128</ele>
        <time>2017-01-09T09:08:45Z</time>
      </trkpt>
      <trkpt lat="49.22063" lon="1.86675">
        <ele>127</ele>
        <time>2017-01-09T09:08:48Z</time>
      </trkpt>
      <trkpt lat="49.22047" lon="1.86674">
        <ele>125</ele>
        <time>2017-01-09T09:08:58Z</time>
      </trkpt>
      <trkpt lat="49.22043" lon="1.86668">
        <ele>125</ele>
        <time>2017-01-09T09:08:59Z</time>
      </trkpt>
      <trkpt lat="49.22042" lon="1.8668">
        <ele>125</ele>
        <time>2017-01-09T09:09:02Z</time>
      </trkpt>
      <trkpt lat="49.22036" lon="1.86682">
        <ele>125</ele>
        <time>2017-01-09T09:09:09Z</time>
      </trkpt>
      <trkpt lat="49.22033" lon="1.8668">
        <ele>125</ele>
        <time>2017-01-09T09:09:12Z</time>
      </trkpt>
      <trkpt lat="49.2203" lon="1.8668">
        <ele>125</ele>
        <time>2017-01-09T09:09:17Z</time>
      </trkpt>
      <trkpt lat="49.22028" lon="1.86678">
        <ele>126</ele>
        <time>2017-01-09T09:09:20Z</time>
      </trkpt>
      <trkpt lat="49.22015" lon="1.86678">
        <ele>124</ele>
        <time>2017-01-09T09:09:29Z</time>
      </trkpt>
      <trkpt lat="49.22012" lon="1.86679">
        <ele>125</ele>
        <time>2017-01-09T09:09:31Z</time>
      </trkpt>
      <trkpt lat="49.22005" lon="1.86678">
        <ele>124</ele>
        <time>2017-01-09T09:09:36Z</time>
      </trkpt>
      <trkpt lat="49.22004" lon="1.86674">
        <ele>125</ele>
        <time>2017-01-09T09:09:37Z</time>
      </trkpt>
      <trkpt lat="49.22001" lon="1.86673">
        <ele>123</ele>
        <time>2017-01-09T09:09:41Z</time>
      </trkpt>
      <trkpt lat="49.21995" lon="1.86675">
        <ele>122</ele>
        <time>2017-01-09T09:09:46Z</time>
      </trkpt>
      <trkpt lat="49.21988" lon="1.86678">
        <ele>121</ele>
        <time>2017-01-09T09:09:52Z</time>
      </trkpt>
      <trkpt lat="49.21985" lon="1.86676">
        <ele>121</ele>
        <time>2017-01-09T09:09:54Z</time>
      </trkpt>
      <trkpt lat="49.21976" lon="1.86672">
        <ele>124</ele>
        <time>2017-01-09T09:10:00Z</time>
      </trkpt>
      <trkpt lat="49.21967" lon="1.86673">
        <ele>121</ele>
        <time>2017-01-09T09:10:08Z</time>
      </trkpt>
      <trkpt lat="49.21965" lon="1.8667">
        <ele>122</ele>
        <time>2017-01-09T09:10:10Z</time>
      </trkpt>
      <trkpt lat="49.21962" lon="1.86668">
        <ele>122</ele>
        <time>2017-01-09T09:10:12Z</time>
      </trkpt>
      <trkpt lat="49.21958" lon="1.86669">
        <ele>122</ele>
        <time>2017-01-09T09:10:14Z</time>
      </trkpt>
      <trkpt lat="49.21951" lon="1.86666">
        <ele>121</ele>
        <time>2017-01-09T09:10:22Z</time>
      </trkpt>
      <trkpt lat="49.21949" lon="1.86663">
        <ele>121</ele>
        <time>2017-01-09T09:10:23Z</time>
      </trkpt>
      <trkpt lat="49.21945" lon="1.86666">
        <ele>120</ele>
        <time>2017-01-09T09:10:27Z</time>
      </trkpt>
      <trkpt lat="49.21939" lon="1.86659">
        <ele>121</ele>
        <time>2017-01-09T09:10:30Z</time>
      </trkpt>
      <trkpt lat="49.21935" lon="1.86656">
        <ele>121</ele>
        <time>2017-01-09T09:10:32Z</time>
      </trkpt>
      <trkpt lat="49.2193" lon="1.86657">
        <ele>121</ele>
        <time>2017-01-09T09:10:36Z</time>
      </trkpt>
      <trkpt lat="49.21926" lon="1.86652">
        <ele>121</ele>
        <time>2017-01-09T09:10:38Z</time>
      </trkpt>
      <trkpt lat="49.21923" lon="1.86655">
        <ele>121</ele>
        <time>2017-01-09T09:10:42Z</time>
      </trkpt>
      <trkpt lat="49.2192" lon="1.8665">
        <ele>121</ele>
        <time>2017-01-09T09:10:44Z</time>
      </trkpt>
      <trkpt lat="49.21918" lon="1.86654">
        <ele>122</ele>
        <time>2017-01-09T09:10:47Z</time>
      </trkpt>
      <trkpt lat="49.21914" lon="1.86656">
        <ele>121</ele>
        <time>2017-01-09T09:10:51Z</time>
      </trkpt>
      <trkpt lat="49.2191" lon="1.86655">
        <ele>121</ele>
        <time>2017-01-09T09:10:53Z</time>
      </trkpt>
      <trkpt lat="49.21907" lon="1.86656">
        <ele>121</ele>
        <time>2017-01-09T09:10:56Z</time>
      </trkpt>
      <trkpt lat="49.21902" lon="1.86651">
        <ele>118</ele>
        <time>2017-01-09T09:11:03Z</time>
      </trkpt>
      <trkpt lat="49.21895" lon="1.86646">
        <ele>116</ele>
        <time>2017-01-09T09:11:08Z</time>
      </trkpt>
      <trkpt lat="49.21892" lon="1.86646">
        <ele>115</ele>
        <time>2017-01-09T09:11:12Z</time>
      </trkpt>
      <trkpt lat="49.21885" lon="1.8664">
        <ele>114</ele>
        <time>2017-01-09T09:11:17Z</time>
      </trkpt>
      <trkpt lat="49.2188" lon="1.86632">
        <ele>115</ele>
        <time>2017-01-09T09:11:22Z</time>
      </trkpt>
      <trkpt lat="49.2187" lon="1.86628">
        <ele>118</ele>
        <time>2017-01-09T09:11:31Z</time>
      </trkpt>
      <trkpt lat="49.21867" lon="1.86625">
        <ele>119</ele>
        <time>2017-01-09T09:11:35Z</time>
      </trkpt>
      <trkpt lat="49.21864" lon="1.86623">
        <ele>119</ele>
        <time>2017-01-09T09:11:39Z</time>
      </trkpt>
      <trkpt lat="49.21862" lon="1.86619">
        <ele>119</ele>
        <time>2017-01-09T09:11:41Z</time>
      </trkpt>
      <trkpt lat="49.21859" lon="1.86618">
        <ele>120</ele>
        <time>2017-01-09T09:11:44Z</time>
      </trkpt>
      <trkpt lat="49.21856" lon="1.86616">
        <ele>120</ele>
        <time>2017-01-09T09:11:46Z</time>
      </trkpt>
      <trkpt lat="49.21851" lon="1.86608">
        <ele>120</ele>
        <time>2017-01-09T09:11:51Z</time>
      </trkpt>
      <trkpt lat="49.21848" lon="1.8661">
        <ele>117</ele>
        <time>2017-01-09T09:11:54Z</time>
      </trkpt>
      <trkpt lat="49.21844" lon="1.86606">
        <ele>116</ele>
        <time>2017-01-09T09:11:57Z</time>
      </trkpt>
      <trkpt lat="49.21841" lon="1.86598">
        <ele>114</ele>
        <time>2017-01-09T09:12:02Z</time>
      </trkpt>
      <trkpt lat="49.21835" lon="1.86593">
        <ele>114</ele>
        <time>2017-01-09T09:12:09Z</time>
      </trkpt>
      <trkpt lat="49.21831" lon="1.86586">
        <ele>114</ele>
        <time>2017-01-09T09:12:16Z</time>
      </trkpt>
      <trkpt lat="49.21827" lon="1.86585">
        <ele>113</ele>
        <time>2017-01-09T09:12:18Z</time>
      </trkpt>
      <trkpt lat="49.21808" lon="1.86566">
        <ele>115</ele>
        <time>2017-01-09T09:12:35Z</time>
      </trkpt>
      <trkpt lat="49.21802" lon="1.86558">
        <ele>115</ele>
        <time>2017-01-09T09:12:43Z</time>
      </trkpt>
      <trkpt lat="49.21795" lon="1.86556">
        <ele>116</ele>
        <time>2017-01-09T09:12:51Z</time>
      </trkpt>
      <trkpt lat="49.21796" lon="1.8655">
        <ele>115</ele>
        <time>2017-01-09T09:12:54Z</time>
      </trkpt>
      <trkpt lat="49.21789" lon="1.8654">
        <ele>114</ele>
        <time>2017-01-09T09:13:00Z</time>
      </trkpt>
      <trkpt lat="49.21785" lon="1.86536">
        <ele>113</ele>
        <time>2017-01-09T09:13:03Z</time>
      </trkpt>
      <trkpt lat="49.21782" lon="1.86528">
        <ele>109</ele>
        <time>2017-01-09T09:13:10Z</time>
      </trkpt>
      <trkpt lat="49.21775" lon="1.86522">
        <ele>113</ele>
        <time>2017-01-09T09:13:16Z</time>
      </trkpt>
      <trkpt lat="49.21771" lon="1.86524">
        <ele>112</ele>
        <time>2017-01-09T09:13:18Z</time>
      </trkpt>
      <trkpt lat="49.21769" lon="1.86514">
        <ele>113</ele>
        <time>2017-01-09T09:13:24Z</time>
      </trkpt>
      <trkpt lat="49.21767" lon="1.8651">
        <ele>114</ele>
        <time>2017-01-09T09:13:27Z</time>
      </trkpt>
      <trkpt lat="49.21761" lon="1.86503">
        <ele>115</ele>
        <time>2017-01-09T09:13:31Z</time>
      </trkpt>
      <trkpt lat="49.21758" lon="1.86502">
        <ele>112</ele>
        <time>2017-01-09T09:13:35Z</time>
      </trkpt>
      <trkpt lat="49.21755" lon="1.86498">
        <ele>113</ele>
        <time>2017-01-09T09:13:38Z</time>
      </trkpt>
      <trkpt lat="49.21743" lon="1.8649">
        <ele>112</ele>
        <time>2017-01-09T09:13:46Z</time>
      </trkpt>
      <trkpt lat="49.21739" lon="1.86482">
        <ele>113</ele>
        <time>2017-01-09T09:13:53Z</time>
      </trkpt>
      <trkpt lat="49.21733" lon="1.86472">
        <ele>114</ele>
        <time>2017-01-09T09:13:57Z</time>
      </trkpt>
      <trkpt lat="49.2173" lon="1.86471">
        <ele>114</ele>
        <time>2017-01-09T09:14:00Z</time>
      </trkpt>
      <trkpt lat="49.21722" lon="1.86462">
        <ele>116</ele>
        <time>2017-01-09T09:14:08Z</time>
      </trkpt>
      <trkpt lat="49.21714" lon="1.86461">
        <ele>115</ele>
        <time>2017-01-09T09:14:14Z</time>
      </trkpt>
      <trkpt lat="49.21708" lon="1.86463">
        <ele>114</ele>
        <time>2017-01-09T09:14:17Z</time>
      </trkpt>
      <trkpt lat="49.21708" lon="1.86459">
        <ele>114</ele>
        <time>2017-01-09T09:14:19Z</time>
      </trkpt>
      <trkpt lat="49.21705" lon="1.86448">
        <ele>116</ele>
        <time>2017-01-09T09:14:24Z</time>
      </trkpt>
      <trkpt lat="49.21703" lon="1.86448">
        <ele>115</ele>
        <time>2017-01-09T09:14:30Z</time>
      </trkpt>
      <trkpt lat="49.21701" lon="1.86445">
        <ele>115</ele>
        <time>2017-01-09T09:14:31Z</time>
      </trkpt>
      <trkpt lat="49.21692" lon="1.86441">
        <ele>113</ele>
        <time>2017-01-09T09:14:40Z</time>
      </trkpt>
      <trkpt lat="49.21691" lon="1.86436">
        <ele>113</ele>
        <time>2017-01-09T09:14:42Z</time>
      </trkpt>
      <trkpt lat="49.21683" lon="1.86427">
        <ele>115</ele>
        <time>2017-01-09T09:14:48Z</time>
      </trkpt>
      <trkpt lat="49.21676" lon="1.86427">
        <ele>114</ele>
        <time>2017-01-09T09:14:54Z</time>
      </trkpt>
      <trkpt lat="49.21669" lon="1.8642">
        <ele>113</ele>
        <time>2017-01-09T09:15:01Z</time>
      </trkpt>
      <trkpt lat="49.21668" lon="1.86415">
        <ele>113</ele>
        <time>2017-01-09T09:15:05Z</time>
      </trkpt>
      <trkpt lat="49.21661" lon="1.8641">
        <ele>114</ele>
        <time>2017-01-09T09:15:12Z</time>
      </trkpt>
      <trkpt lat="49.21659" lon="1.86406">
        <ele>115</ele>
        <time>2017-01-09T09:15:14Z</time>
      </trkpt>
      <trkpt lat="49.2165" lon="1.86398">
        <ele>118</ele>
        <time>2017-01-09T09:15:21Z</time>
      </trkpt>
      <trkpt lat="49.21646" lon="1.86395">
        <ele>117</ele>
        <time>2017-01-09T09:15:25Z</time>
      </trkpt>
      <trkpt lat="49.21645" lon="1.86392">
        <ele>116</ele>
        <time>2017-01-09T09:15:28Z</time>
      </trkpt>
      <trkpt lat="49.21641" lon="1.86389">
        <ele>116</ele>
        <time>2017-01-09T09:15:30Z</time>
      </trkpt>
      <trkpt lat="49.21639" lon="1.86387">
        <ele>118</ele>
        <time>2017-01-09T09:15:33Z</time>
      </trkpt>
      <trkpt lat="49.21636" lon="1.86385">
        <ele>117</ele>
        <time>2017-01-09T09:15:36Z</time>
      </trkpt>
      <trkpt lat="49.21629" lon="1.86378">
        <ele>116</ele>
        <time>2017-01-09T09:15:46Z</time>
      </trkpt>
      <trkpt lat="49.21613" lon="1.86364">
        <ele>117</ele>
        <time>2017-01-09T09:16:02Z</time>
      </trkpt>
      <trkpt lat="49.21611" lon="1.86364">
        <ele>117</ele>
        <time>2017-01-09T09:16:05Z</time>
      </trkpt>
      <trkpt lat="49.21596" lon="1.86346">
        <ele>117</ele>
        <time>2017-01-09T09:16:20Z</time>
      </trkpt>
      <trkpt lat="49.21593" lon="1.86347">
        <ele>116</ele>
        <time>2017-01-09T09:16:22Z</time>
      </trkpt>
      <trkpt lat="49.21587" lon="1.86339">
        <ele>113</ele>
        <time>2017-01-09T09:16:27Z</time>
      </trkpt>
      <trkpt lat="49.21585" lon="1.86336">
        <ele>114</ele>
        <time>2017-01-09T09:16:30Z</time>
      </trkpt>
      <trkpt lat="49.21573" lon="1.86324">
        <ele>116</ele>
        <time>2017-01-09T09:16:40Z</time>
      </trkpt>
      <trkpt lat="49.2157" lon="1.86323">
        <ele>117</ele>
        <time>2017-01-09T09:16:43Z</time>
      </trkpt>
      <trkpt lat="49.21567" lon="1.8632">
        <ele>117</ele>
        <time>2017-01-09T09:16:46Z</time>
      </trkpt>
      <trkpt lat="49.21562" lon="1.86318">
        <ele>120</ele>
        <time>2017-01-09T09:16:53Z</time>
      </trkpt>
      <trkpt lat="49.21559" lon="1.86315">
        <ele>120</ele>
        <time>2017-01-09T09:16:57Z</time>
      </trkpt>
      <trkpt lat="49.21555" lon="1.86314">
        <ele>119</ele>
        <time>2017-01-09T09:17:01Z</time>
      </trkpt>
      <trkpt lat="49.21551" lon="1.86308">
        <ele>119</ele>
        <time>2017-01-09T09:17:04Z</time>
      </trkpt>
      <trkpt lat="49.21548" lon="1.86307">
        <ele>119</ele>
        <time>2017-01-09T09:17:06Z</time>
      </trkpt>
      <trkpt lat="49.21545" lon="1.86304">
        <ele>119</ele>
        <time>2017-01-09T09:17:09Z</time>
      </trkpt>
      <trkpt lat="49.21541" lon="1.86292">
        <ele>117</ele>
        <time>2017-01-09T09:17:17Z</time>
      </trkpt>
      <trkpt lat="49.21527" lon="1.8629">
        <ele>116</ele>
        <time>2017-01-09T09:17:27Z</time>
      </trkpt>
      <trkpt lat="49.21521" lon="1.8628">
        <ele>117</ele>
        <time>2017-01-09T09:17:32Z</time>
      </trkpt>
      <trkpt lat="49.21514" lon="1.8627">
        <ele>114</ele>
        <time>2017-01-09T09:17:38Z</time>
      </trkpt>
      <trkpt lat="49.21511" lon="1.8627">
        <ele>115</ele>
        <time>2017-01-09T09:17:43Z</time>
      </trkpt>
      <trkpt lat="49.21508" lon="1.86265">
        <ele>116</ele>
        <time>2017-01-09T09:17:46Z</time>
      </trkpt>
      <trkpt lat="49.21504" lon="1.86262">
        <ele>117</ele>
        <time>2017-01-09T09:17:48Z</time>
      </trkpt>
      <trkpt lat="49.21503" lon="1.86258">
        <ele>117</ele>
        <time>2017-01-09T09:17:53Z</time>
      </trkpt>
      <trkpt lat="49.21501" lon="1.86255">
        <ele>117</ele>
        <time>2017-01-09T09:17:57Z</time>
      </trkpt>
      <trkpt lat="49.21491" lon="1.8625">
        <ele>118</ele>
        <time>2017-01-09T09:18:03Z</time>
      </trkpt>
      <trkpt lat="49.21488" lon="1.86253">
        <ele>118</ele>
        <time>2017-01-09T09:18:06Z</time>
      </trkpt>
      <trkpt lat="49.21485" lon="1.86242">
        <ele>116</ele>
        <time>2017-01-09T09:18:15Z</time>
      </trkpt>
      <trkpt lat="49.21483" lon="1.86239">
        <ele>117</ele>
        <time>2017-01-09T09:18:19Z</time>
      </trkpt>
      <trkpt lat="49.21477" lon="1.86235">
        <ele>117</ele>
        <time>2017-01-09T09:18:23Z</time>
      </trkpt>
      <trkpt lat="49.21472" lon="1.86235">
        <ele>116</ele>
        <time>2017-01-09T09:18:26Z</time>
      </trkpt>
      <trkpt lat="49.21469" lon="1.86226">
        <ele>118</ele>
        <time>2017-01-09T09:18:35Z</time>
      </trkpt>
      <trkpt lat="49.21465" lon="1.86223">
        <ele>119</ele>
        <time>2017-01-09T09:18:37Z</time>
      </trkpt>
      <trkpt lat="49.21463" lon="1.86218">
        <ele>120</ele>
        <time>2017-01-09T09:18:39Z</time>
      </trkpt>
      <trkpt lat="49.21461" lon="1.86217">
        <ele>122</ele>
        <time>2017-01-09T09:18:45Z</time>
      </trkpt>
      <trkpt lat="49.21453" lon="1.86207">
        <ele>122</ele>
        <time>2017-01-09T09:18:52Z</time>
      </trkpt>
      <trkpt lat="49.21449" lon="1.86206">
        <ele>121</ele>
        <time>2017-01-09T09:18:55Z</time>
      </trkpt>
      <trkpt lat="49.21422" lon="1.86177">
        <ele>118</ele>
        <time>2017-01-09T09:19:26Z</time>
      </trkpt>
      <trkpt lat="49.2142" lon="1.86174">
        <ele>119</ele>
        <time>2017-01-09T09:19:29Z</time>
      </trkpt>
      <trkpt lat="49.21391" lon="1.86144">
        <ele>119</ele>
        <time>2017-01-09T09:19:59Z</time>
      </trkpt>
      <trkpt lat="49.21388" lon="1.86143">
        <ele>118</ele>
        <time>2017-01-09T09:20:01Z</time>
      </trkpt>
      <trkpt lat="49.21386" lon="1.86138">
        <ele>117</ele>
        <time>2017-01-09T09:20:03Z</time>
      </trkpt>
      <trkpt lat="49.21383" lon="1.86136">
        <ele>116</ele>
        <time>2017-01-09T09:20:05Z</time>
      </trkpt>
      <trkpt lat="49.2138" lon="1.86135">
        <ele>116</ele>
        <time>2017-01-09T09:20:08Z</time>
      </trkpt>
      <trkpt lat="49.21378" lon="1.86129">
        <ele>115</ele>
        <time>2017-01-09T09:20:12Z</time>
      </trkpt>
      <trkpt lat="49.21375" lon="1.86127">
        <ele>113</ele>
        <time>2017-01-09T09:20:15Z</time>
      </trkpt>
      <trkpt lat="49.21373" lon="1.86122">
        <ele>114</ele>
        <time>2017-01-09T09:20:19Z</time>
      </trkpt>
      <trkpt lat="49.21361" lon="1.86112">
        <ele>118</ele>
        <time>2017-01-09T09:20:29Z</time>
      </trkpt>
      <trkpt lat="49.21356" lon="1.86104">
        <ele>118</ele>
        <time>2017-01-09T09:20:35Z</time>
      </trkpt>
      <trkpt lat="49.21355" lon="1.86099">
        <ele>116</ele>
        <time>2017-01-09T09:20:40Z</time>
      </trkpt>
      <trkpt lat="49.21348" lon="1.86094">
        <ele>119</ele>
        <time>2017-01-09T09:20:46Z</time>
      </trkpt>
      <trkpt lat="49.21346" lon="1.8609">
        <ele>119</ele>
        <time>2017-01-09T09:20:48Z</time>
      </trkpt>
      <trkpt lat="49.21341" lon="1.86086">
        <ele>118</ele>
        <time>2017-01-09T09:20:53Z</time>
      </trkpt>
      <trkpt lat="49.2134" lon="1.8608">
        <ele>118</ele>
        <time>2017-01-09T09:20:57Z</time>
      </trkpt>
      <trkpt lat="49.21324" lon="1.86066">
        <ele>116</ele>
        <time>2017-01-09T09:21:12Z</time>
      </trkpt>
      <trkpt lat="49.21322" lon="1.86062">
        <ele>118</ele>
        <time>2017-01-09T09:21:14Z</time>
      </trkpt>
      <trkpt lat="49.21313" lon="1.86054">
        <ele>117</ele>
        <time>2017-01-09T09:21:21Z</time>
      </trkpt>
      <trkpt lat="49.2131" lon="1.86051">
        <ele>115</ele>
        <time>2017-01-09T09:21:25Z</time>
      </trkpt>
      <trkpt lat="49.21307" lon="1.86047">
        <ele>114</ele>
        <time>2017-01-09T09:21:28Z</time>
      </trkpt>
      <trkpt lat="49.213" lon="1.86033">
        <ele>116</ele>
        <time>2017-01-09T09:21:37Z</time>
      </trkpt>
      <trkpt lat="49.21297" lon="1.86033">
        <ele>116</ele>
        <time>2017-01-09T09:21:39Z</time>
      </trkpt>
      <trkpt lat="49.21291" lon="1.86027">
        <ele>116</ele>
        <time>2017-01-09T09:21:44Z</time>
      </trkpt>
      <trkpt lat="49.21288" lon="1.86027">
        <ele>115</ele>
        <time>2017-01-09T09:21:46Z</time>
      </trkpt>
      <trkpt lat="49.21286" lon="1.86023">
        <ele>115</ele>
        <time>2017-01-09T09:21:49Z</time>
      </trkpt>
      <trkpt lat="49.21284" lon="1.86021">
        <ele>116</ele>
        <time>2017-01-09T09:21:51Z</time>
      </trkpt>
      <trkpt lat="49.21283" lon="1.86018">
        <ele>116</ele>
        <time>2017-01-09T09:21:54Z</time>
      </trkpt>
      <trkpt lat="49.21269" lon="1.86001">
        <ele>119</ele>
        <time>2017-01-09T09:22:10Z</time>
      </trkpt>
      <trkpt lat="49.21266" lon="1.86001">
        <ele>118</ele>
        <time>2017-01-09T09:22:13Z</time>
      </trkpt>
      <trkpt lat="49.21261" lon="1.85994">
        <ele>116</ele>
        <time>2017-01-09T09:22:20Z</time>
      </trkpt>
      <trkpt lat="49.21244" lon="1.85973">
        <ele>122</ele>
        <time>2017-01-09T09:22:38Z</time>
      </trkpt>
      <trkpt lat="49.21235" lon="1.85965">
        <ele>123</ele>
        <time>2017-01-09T09:22:45Z</time>
      </trkpt>
      <trkpt lat="49.21233" lon="1.85964">
        <ele>121</ele>
        <time>2017-01-09T09:22:47Z</time>
      </trkpt>
      <trkpt lat="49.21232" lon="1.85959">
        <ele>121</ele>
        <time>2017-01-09T09:22:51Z</time>
      </trkpt>
      <trkpt lat="49.21228" lon="1.85953">
        <ele>119</ele>
        <time>2017-01-09T09:22:55Z</time>
      </trkpt>
      <trkpt lat="49.21225" lon="1.85951">
        <ele>118</ele>
        <time>2017-01-09T09:22:58Z</time>
      </trkpt>
      <trkpt lat="49.21224" lon="1.85947">
        <ele>118</ele>
        <time>2017-01-09T09:23:00Z</time>
      </trkpt>
      <trkpt lat="49.21218" lon="1.85942">
        <ele>119</ele>
        <time>2017-01-09T09:23:04Z</time>
      </trkpt>
      <trkpt lat="49.2121" lon="1.85929">
        <ele>120</ele>
        <time>2017-01-09T09:23:16Z</time>
      </trkpt>
      <trkpt lat="49.21201" lon="1.85915">
        <ele>120</ele>
        <time>2017-01-09T09:23:26Z</time>
      </trkpt>
      <trkpt lat="49.21195" lon="1.85907">
        <ele>123</ele>
        <time>2017-01-09T09:23:32Z</time>
      </trkpt>
      <trkpt lat="49.21193" lon="1.85901">
        <ele>123</ele>
        <time>2017-01-09T09:23:35Z</time>
      </trkpt>
      <trkpt lat="49.21189" lon="1.85896">
        <ele>122</ele>
        <time>2017-01-09T09:23:38Z</time>
      </trkpt>
      <trkpt lat="49.21186" lon="1.85886">
        <ele>123</ele>
        <time>2017-01-09T09:23:42Z</time>
      </trkpt>
      <trkpt lat="49.21185" lon="1.8589">
        <ele>123</ele>
        <time>2017-01-09T09:23:44Z</time>
      </trkpt>
      <trkpt lat="49.21181" lon="1.85882">
        <ele>125</ele>
        <time>2017-01-09T09:23:49Z</time>
      </trkpt>
      <trkpt lat="49.21175" lon="1.85876">
        <ele>125</ele>
        <time>2017-01-09T09:23:54Z</time>
      </trkpt>
      <trkpt lat="49.21164" lon="1.85855">
        <ele>126</ele>
        <time>2017-01-09T09:24:09Z</time>
      </trkpt>
      <trkpt lat="49.21161" lon="1.85853">
        <ele>126</ele>
        <time>2017-01-09T09:24:11Z</time>
      </trkpt>
      <trkpt lat="49.21159" lon="1.8585">
        <ele>126</ele>
        <time>2017-01-09T09:24:13Z</time>
      </trkpt>
      <trkpt lat="49.21155" lon="1.85854">
        <ele>125</ele>
        <time>2017-01-09T09:24:15Z</time>
      </trkpt>
      <trkpt lat="49.21153" lon="1.85852">
        <ele>125</ele>
        <time>2017-01-09T09:24:17Z</time>
      </trkpt>
      <trkpt lat="49.21153" lon="1.85847">
        <ele>125</ele>
        <time>2017-01-09T09:24:19Z</time>
      </trkpt>
      <trkpt lat="49.21147" lon="1.85848">
        <ele>125</ele>
        <time>2017-01-09T09:24:22Z</time>
      </trkpt>
      <trkpt lat="49.21145" lon="1.85843">
        <ele>128</ele>
        <time>2017-01-09T09:24:25Z</time>
      </trkpt>
      <trkpt lat="49.21144" lon="1.85837">
        <ele>128</ele>
        <time>2017-01-09T09:24:27Z</time>
      </trkpt>
      <trkpt lat="49.2114" lon="1.85834">
        <ele>127</ele>
        <time>2017-01-09T09:24:29Z</time>
      </trkpt>
      <trkpt lat="49.21139" lon="1.85831">
        <ele>126</ele>
        <time>2017-01-09T09:24:31Z</time>
      </trkpt>
      <trkpt lat="49.21131" lon="1.85828">
        <ele>124</ele>
        <time>2017-01-09T09:24:37Z</time>
      </trkpt>
      <trkpt lat="49.2113" lon="1.85822">
        <ele>125</ele>
        <time>2017-01-09T09:24:40Z</time>
      </trkpt>
      <trkpt lat="49.21124" lon="1.85812">
        <ele>126</ele>
        <time>2017-01-09T09:24:44Z</time>
      </trkpt>
      <trkpt lat="49.21121" lon="1.85809">
        <ele>126</ele>
        <time>2017-01-09T09:24:46Z</time>
      </trkpt>
      <trkpt lat="49.21117" lon="1.85802">
        <ele>125</ele>
        <time>2017-01-09T09:24:53Z</time>
      </trkpt>
      <trkpt lat="49.21112" lon="1.85801">
        <ele>125</ele>
        <time>2017-01-09T09:24:55Z</time>
      </trkpt>
      <trkpt lat="49.21109" lon="1.85789">
        <ele>126</ele>
        <time>2017-01-09T09:25:04Z</time>
      </trkpt>
      <trkpt lat="49.21106" lon="1.85784">
        <ele>126</ele>
        <time>2017-01-09T09:25:06Z</time>
      </trkpt>
      <trkpt lat="49.21104" lon="1.85782">
        <ele>124</ele>
        <time>2017-01-09T09:25:08Z</time>
      </trkpt>
      <trkpt lat="49.21102" lon="1.85778">
        <ele>123</ele>
        <time>2017-01-09T09:25:11Z</time>
      </trkpt>
      <trkpt lat="49.21103" lon="1.85774">
        <ele>122</ele>
        <time>2017-01-09T09:25:14Z</time>
      </trkpt>
      <trkpt lat="49.21101" lon="1.85769">
        <ele>122</ele>
        <time>2017-01-09T09:25:16Z</time>
      </trkpt>
      <trkpt lat="49.21098" lon="1.85769">
        <ele>123</ele>
        <time>2017-01-09T09:25:18Z</time>
      </trkpt>
      <trkpt lat="49.21093" lon="1.8576">
        <ele>123</ele>
        <time>2017-01-09T09:25:23Z</time>
      </trkpt>
      <trkpt lat="49.2109" lon="1.85761">
        <ele>123</ele>
        <time>2017-01-09T09:25:24Z</time>
      </trkpt>
      <trkpt lat="49.21089" lon="1.85756">
        <ele>122</ele>
        <time>2017-01-09T09:25:26Z</time>
      </trkpt>
      <trkpt lat="49.21084" lon="1.85747">
        <ele>122</ele>
        <time>2017-01-09T09:25:32Z</time>
      </trkpt>
      <trkpt lat="49.21082" lon="1.85737">
        <ele>126</ele>
        <time>2017-01-09T09:25:36Z</time>
      </trkpt>
      <trkpt lat="49.21068" lon="1.85717">
        <ele>126</ele>
        <time>2017-01-09T09:25:49Z</time>
      </trkpt>
      <trkpt lat="49.21066" lon="1.8571">
        <ele>126</ele>
        <time>2017-01-09T09:25:54Z</time>
      </trkpt>
      <trkpt lat="49.21061" lon="1.857">
        <ele>126</ele>
        <time>2017-01-09T09:25:59Z</time>
      </trkpt>
      <trkpt lat="49.21054" lon="1.85696">
        <ele>126</ele>
        <time>2017-01-09T09:26:04Z</time>
      </trkpt>
      <trkpt lat="49.21052" lon="1.85694">
        <ele>125</ele>
        <time>2017-01-09T09:26:06Z</time>
      </trkpt>
      <trkpt lat="49.21053" lon="1.85689">
        <ele>124</ele>
        <time>2017-01-09T09:26:10Z</time>
      </trkpt>
      <trkpt lat="49.21052" lon="1.85684">
        <ele>124</ele>
        <time>2017-01-09T09:26:12Z</time>
      </trkpt>
      <trkpt lat="49.2105" lon="1.85678">
        <ele>123</ele>
        <time>2017-01-09T09:26:16Z</time>
      </trkpt>
      <trkpt lat="49.21049" lon="1.85671">
        <ele>123</ele>
        <time>2017-01-09T09:26:18Z</time>
      </trkpt>
      <trkpt lat="49.21039" lon="1.85662">
        <ele>121</ele>
        <time>2017-01-09T09:26:24Z</time>
      </trkpt>
      <trkpt lat="49.21036" lon="1.85661">
        <ele>122</ele>
        <time>2017-01-09T09:26:28Z</time>
      </trkpt>
      <trkpt lat="49.21035" lon="1.85653">
        <ele>123</ele>
        <time>2017-01-09T09:26:33Z</time>
      </trkpt>
      <trkpt lat="49.21032" lon="1.85646">
        <ele>124</ele>
        <time>2017-01-09T09:26:35Z</time>
      </trkpt>
      <trkpt lat="49.2103" lon="1.85651">
        <ele>125</ele>
        <time>2017-01-09T09:26:37Z</time>
      </trkpt>
      <trkpt lat="49.21028" lon="1.85649">
        <ele>126</ele>
        <time>2017-01-09T09:26:39Z</time>
      </trkpt>
      <trkpt lat="49.21027" lon="1.85642">
        <ele>125</ele>
        <time>2017-01-09T09:26:41Z</time>
      </trkpt>
      <trkpt lat="49.21021" lon="1.85636">
        <ele>124</ele>
        <time>2017-01-09T09:26:47Z</time>
      </trkpt>
      <trkpt lat="49.21021" lon="1.85629">
        <ele>121</ele>
        <time>2017-01-09T09:26:51Z</time>
      </trkpt>
      <trkpt lat="49.21022" lon="1.85623">
        <ele>121</ele>
        <time>2017-01-09T09:26:55Z</time>
      </trkpt>
      <trkpt lat="49.2102" lon="1.8562">
        <ele>122</ele>
        <time>2017-01-09T09:26:58Z</time>
      </trkpt>
      <trkpt lat="49.21019" lon="1.85616">
        <ele>121</ele>
        <time>2017-01-09T09:27:03Z</time>
      </trkpt>
      <trkpt lat="49.21018" lon="1.85612">
        <ele>122</ele>
        <time>2017-01-09T09:27:14Z</time>
      </trkpt>
      <trkpt lat="49.21015" lon="1.85609">
        <ele>127</ele>
        <time>2017-01-09T09:27:15Z</time>
      </trkpt>
      <trkpt lat="49.21015" lon="1.85614">
        <ele>129</ele>
        <time>2017-01-09T09:27:19Z</time>
      </trkpt>
      <trkpt lat="49.21011" lon="1.85613">
        <ele>129</ele>
        <time>2017-01-09T09:27:21Z</time>
      </trkpt>
      <trkpt lat="49.21012" lon="1.85607">
        <ele>129</ele>
        <time>2017-01-09T09:27:23Z</time>
      </trkpt>
      <trkpt lat="49.2101" lon="1.85602">
        <ele>128</ele>
        <time>2017-01-09T09:27:25Z</time>
      </trkpt>
      <trkpt lat="49.21004" lon="1.85595">
        <ele>128</ele>
        <time>2017-01-09T09:27:31Z</time>
      </trkpt>
      <trkpt lat="49.20995" lon="1.85598">
        <ele>126</ele>
        <time>2017-01-09T09:27:38Z</time>
      </trkpt>
      <trkpt lat="49.20993" lon="1.85595">
        <ele>126</ele>
        <time>2017-01-09T09:27:42Z</time>
      </trkpt>
      <trkpt lat="49.2099" lon="1.85594">
        <ele>127</ele>
        <time>2017-01-09T09:27:45Z</time>
      </trkpt>
      <trkpt lat="49.20983" lon="1.85595">
        <ele>129</ele>
        <time>2017-01-09T09:27:50Z</time>
      </trkpt>
      <trkpt lat="49.20977" lon="1.85588">
        <ele>128</ele>
        <time>2017-01-09T09:27:55Z</time>
      </trkpt>
      <trkpt lat="49.20972" lon="1.85585">
        <ele>128</ele>
        <time>2017-01-09T09:27:57Z</time>
      </trkpt>
      <trkpt lat="49.20964" lon="1.85589">
        <ele>128</ele>
        <time>2017-01-09T09:28:03Z</time>
      </trkpt>
      <trkpt lat="49.20962" lon="1.85585">
        <ele>128</ele>
        <time>2017-01-09T09:28:06Z</time>
      </trkpt>
      <trkpt lat="49.20951" lon="1.85584">
        <ele>128</ele>
        <time>2017-01-09T09:28:13Z</time>
      </trkpt>
      <trkpt lat="49.2094" lon="1.8558">
        <ele>125</ele>
        <time>2017-01-09T09:28:21Z</time>
      </trkpt>
      <trkpt lat="49.20937" lon="1.85578">
        <ele>125</ele>
        <time>2017-01-09T09:28:27Z</time>
      </trkpt>
      <trkpt lat="49.20935" lon="1.85577">
        <ele>122</ele>
        <time>2017-01-09T09:28:30Z</time>
      </trkpt>
      <trkpt lat="49.20933" lon="1.85573">
        <ele>122</ele>
        <time>2017-01-09T09:28:33Z</time>
      </trkpt>
      <trkpt lat="49.20929" lon="1.85571">
        <ele>124</ele>
        <time>2017-01-09T09:28:36Z</time>
      </trkpt>
      <trkpt lat="49.20921" lon="1.85569">
        <ele>124</ele>
        <time>2017-01-09T09:28:41Z</time>
      </trkpt>
      <trkpt lat="49.2092" lon="1.85578">
        <ele>124</ele>
        <time>2017-01-09T09:28:44Z</time>
      </trkpt>
      <trkpt lat="49.20917" lon="1.85576">
        <ele>123</ele>
        <time>2017-01-09T09:28:45Z</time>
      </trkpt>
      <trkpt lat="49.20913" lon="1.85577">
        <ele>122</ele>
        <time>2017-01-09T09:28:48Z</time>
      </trkpt>
      <trkpt lat="49.20913" lon="1.85573">
        <ele>122</ele>
        <time>2017-01-09T09:28:49Z</time>
      </trkpt>
      <trkpt lat="49.2091" lon="1.8557">
        <ele>123</ele>
        <time>2017-01-09T09:28:50Z</time>
      </trkpt>
      <trkpt lat="49.20898" lon="1.85564">
        <ele>123</ele>
        <time>2017-01-09T09:28:58Z</time>
      </trkpt>
      <trkpt lat="49.20896" lon="1.85568">
        <ele>123</ele>
        <time>2017-01-09T09:29:00Z</time>
      </trkpt>
      <trkpt lat="49.20886" lon="1.85565">
        <ele>122</ele>
        <time>2017-01-09T09:29:07Z</time>
      </trkpt>
      <trkpt lat="49.20875" lon="1.85553">
        <ele>121</ele>
        <time>2017-01-09T09:29:14Z</time>
      </trkpt>
      <trkpt lat="49.20869" lon="1.85554">
        <ele>121</ele>
        <time>2017-01-09T09:29:18Z</time>
      </trkpt>
      <trkpt lat="49.20866" lon="1.85551">
        <ele>121</ele>
        <time>2017-01-09T09:29:21Z</time>
      </trkpt>
      <trkpt lat="49.20863" lon="1.85551">
        <ele>121</ele>
        <time>2017-01-09T09:29:23Z</time>
      </trkpt>
      <trkpt lat="49.20854" lon="1.85546">
        <ele>120</ele>
        <time>2017-01-09T09:29:31Z</time>
      </trkpt>
      <trkpt lat="49.2085" lon="1.85545">
        <ele>124</ele>
        <time>2017-01-09T09:29:34Z</time>
      </trkpt>
      <trkpt lat="49.20845" lon="1.85541">
        <ele>127</ele>
        <time>2017-01-09T09:29:39Z</time>
      </trkpt>
      <trkpt lat="49.20823" lon="1.85531">
        <ele>127</ele>
        <time>2017-01-09T09:30:02Z</time>
      </trkpt>
      <trkpt lat="49.2081" lon="1.85525">
        <ele>129</ele>
        <time>2017-01-09T09:30:15Z</time>
      </trkpt>
      <trkpt lat="49.20803" lon="1.85527">
        <ele>128</ele>
        <time>2017-01-09T09:30:21Z</time>
      </trkpt>
      <trkpt lat="49.20767" lon="1.85513">
        <ele>127</ele>
        <time>2017-01-09T09:30:51Z</time>
      </trkpt>
      <trkpt lat="49.20761" lon="1.85509">
        <ele>126</ele>
        <time>2017-01-09T09:30:57Z</time>
      </trkpt>
      <trkpt lat="49.20738" lon="1.85502">
        <ele>128</ele>
        <time>2017-01-09T09:31:16Z</time>
      </trkpt>
      <trkpt lat="49.20734" lon="1.85505">
        <ele>127</ele>
        <time>2017-01-09T09:31:20Z</time>
      </trkpt>
      <trkpt lat="49.20725" lon="1.85497">
        <ele>127</ele>
        <time>2017-01-09T09:31:25Z</time>
      </trkpt>
      <trkpt lat="49.20717" lon="1.85494">
        <ele>126</ele>
        <time>2017-01-09T09:31:31Z</time>
      </trkpt>
      <trkpt lat="49.20715" lon="1.85491">
        <ele>125</ele>
        <time>2017-01-09T09:31:33Z</time>
      </trkpt>
      <trkpt lat="49.20707" lon="1.85488">
        <ele>125</ele>
        <time>2017-01-09T09:31:39Z</time>
      </trkpt>
      <trkpt lat="49.20703" lon="1.8549">
        <ele>124</ele>
        <time>2017-01-09T09:31:41Z</time>
      </trkpt>
      <trkpt lat="49.20701" lon="1.85487">
        <ele>123</ele>
        <time>2017-01-09T09:31:44Z</time>
      </trkpt>
      <trkpt lat="49.20664" lon="1.85472">
        <ele>125</ele>
        <time>2017-01-09T09:32:14Z</time>
      </trkpt>
      <trkpt lat="49.2065" lon="1.85466">
        <ele>125</ele>
        <time>2017-01-09T09:32:26Z</time>
      </trkpt>
      <trkpt lat="49.20634" lon="1.85463">
        <ele>122</ele>
        <time>2017-01-09T09:32:36Z</time>
      </trkpt>
      <trkpt lat="49.20632" lon="1.85456">
        <ele>121</ele>
        <time>2017-01-09T09:32:39Z</time>
      </trkpt>
      <trkpt lat="49.20625" lon="1.8546">
        <ele>121</ele>
        <time>2017-01-09T09:32:43Z</time>
      </trkpt>
      <trkpt lat="49.20615" lon="1.85458">
        <ele>120</ele>
        <time>2017-01-09T09:32:51Z</time>
      </trkpt>
      <trkpt lat="49.20612" lon="1.85454">
        <ele>119</ele>
        <time>2017-01-09T09:32:53Z</time>
      </trkpt>
      <trkpt lat="49.20598" lon="1.8545">
        <ele>113</ele>
        <time>2017-01-09T09:33:04Z</time>
      </trkpt>
      <trkpt lat="49.2059" lon="1.85447">
        <ele>114</ele>
        <time>2017-01-09T09:33:09Z</time>
      </trkpt>
      <trkpt lat="49.20589" lon="1.85443">
        <ele>113</ele>
        <time>2017-01-09T09:33:11Z</time>
      </trkpt>
      <trkpt lat="49.2058" lon="1.85445">
        <ele>115</ele>
        <time>2017-01-09T09:33:18Z</time>
      </trkpt>
      <trkpt lat="49.20553" lon="1.85434">
        <ele>115</ele>
        <time>2017-01-09T09:33:44Z</time>
      </trkpt>
      <trkpt lat="49.20552" lon="1.8543">
        <ele>116</ele>
        <time>2017-01-09T09:33:49Z</time>
      </trkpt>
      <trkpt lat="49.2055" lon="1.85427">
        <ele>116</ele>
        <time>2017-01-09T09:33:53Z</time>
      </trkpt>
      <trkpt lat="49.20547" lon="1.85425">
        <ele>116</ele>
        <time>2017-01-09T09:33:55Z</time>
      </trkpt>
      <trkpt lat="49.20544" lon="1.85423">
        <ele>114</ele>
        <time>2017-01-09T09:33:59Z</time>
      </trkpt>
      <trkpt lat="49.20542" lon="1.8542">
        <ele>114</ele>
        <time>2017-01-09T09:34:02Z</time>
      </trkpt>
      <trkpt lat="49.20539" lon="1.85411">
        <ele>116</ele>
        <time>2017-01-09T09:34:09Z</time>
      </trkpt>
      <trkpt lat="49.20537" lon="1.85407">
        <ele>116</ele>
        <time>2017-01-09T09:34:12Z</time>
      </trkpt>
      <trkpt lat="49.20538" lon="1.85401">
        <ele>116</ele>
        <time>2017-01-09T09:34:15Z</time>
      </trkpt>
      <trkpt lat="49.20537" lon="1.85397">
        <ele>116</ele>
        <time>2017-01-09T09:34:19Z</time>
      </trkpt>
      <trkpt lat="49.20537" lon="1.85391">
        <ele>116</ele>
        <time>2017-01-09T09:34:22Z</time>
      </trkpt>
      <trkpt lat="49.20539" lon="1.85388">
        <ele>117</ele>
        <time>2017-01-09T09:34:25Z</time>
      </trkpt>
      <trkpt lat="49.20537" lon="1.85384">
        <ele>116</ele>
        <time>2017-01-09T09:34:27Z</time>
      </trkpt>
      <trkpt lat="49.20538" lon="1.8538">
        <ele>116</ele>
        <time>2017-01-09T09:34:30Z</time>
      </trkpt>
      <trkpt lat="49.20538" lon="1.85365">
        <ele>115</ele>
        <time>2017-01-09T09:34:39Z</time>
      </trkpt>
      <trkpt lat="49.2054" lon="1.85354">
        <ele>115</ele>
        <time>2017-01-09T09:34:46Z</time>
      </trkpt>
      <trkpt lat="49.20543" lon="1.85346">
        <ele>116</ele>
        <time>2017-01-09T09:34:51Z</time>
      </trkpt>
      <trkpt lat="49.20546" lon="1.85343">
        <ele>116</ele>
        <time>2017-01-09T09:34:53Z</time>
      </trkpt>
      <trkpt lat="49.20542" lon="1.85342">
        <ele>116</ele>
        <time>2017-01-09T09:34:54Z</time>
      </trkpt>
      <trkpt lat="49.2054" lon="1.85338">
        <ele>116</ele>
        <time>2017-01-09T09:34:56Z</time>
      </trkpt>
      <trkpt lat="49.20543" lon="1.85333">
        <ele>115</ele>
        <time>2017-01-09T09:34:58Z</time>
      </trkpt>
      <trkpt lat="49.20541" lon="1.85329">
        <ele>115</ele>
        <time>2017-01-09T09:35:01Z</time>
      </trkpt>
      <trkpt lat="49.20538" lon="1.8532">
        <ele>115</ele>
        <time>2017-01-09T09:35:08Z</time>
      </trkpt>
      <trkpt lat="49.2054" lon="1.85314">
        <ele>114</ele>
        <time>2017-01-09T09:35:10Z</time>
      </trkpt>
      <trkpt lat="49.2054" lon="1.85307">
        <ele>115</ele>
        <time>2017-01-09T09:35:14Z</time>
      </trkpt>
      <trkpt lat="49.20538" lon="1.85301">
        <ele>114</ele>
        <time>2017-01-09T09:35:17Z</time>
      </trkpt>
      <trkpt lat="49.20541" lon="1.853">
        <ele>114</ele>
        <time>2017-01-09T09:35:18Z</time>
      </trkpt>
      <trkpt lat="49.20541" lon="1.85294">
        <ele>115</ele>
        <time>2017-01-09T09:35:21Z</time>
      </trkpt>
      <trkpt lat="49.20538" lon="1.8529">
        <ele>110</ele>
        <time>2017-01-09T09:35:25Z</time>
      </trkpt>
      <trkpt lat="49.20544" lon="1.85274">
        <ele>109</ele>
        <time>2017-01-09T09:35:33Z</time>
      </trkpt>
      <trkpt lat="49.20541" lon="1.85268">
        <ele>111</ele>
        <time>2017-01-09T09:35:37Z</time>
      </trkpt>
      <trkpt lat="49.20545" lon="1.85254">
        <ele>114</ele>
        <time>2017-01-09T09:35:45Z</time>
      </trkpt>
      <trkpt lat="49.20542" lon="1.85246">
        <ele>114</ele>
        <time>2017-01-09T09:35:48Z</time>
      </trkpt>
      <trkpt lat="49.20545" lon="1.85241">
        <ele>114</ele>
        <time>2017-01-09T09:35:51Z</time>
      </trkpt>
      <trkpt lat="49.20545" lon="1.85236">
        <ele>113</ele>
        <time>2017-01-09T09:35:54Z</time>
      </trkpt>
      <trkpt lat="49.20543" lon="1.85232">
        <ele>111</ele>
        <time>2017-01-09T09:35:56Z</time>
      </trkpt>
      <trkpt lat="49.2054" lon="1.85231">
        <ele>110</ele>
        <time>2017-01-09T09:35:58Z</time>
      </trkpt>
      <trkpt lat="49.20537" lon="1.85229">
        <ele>108</ele>
        <time>2017-01-09T09:36:00Z</time>
      </trkpt>
      <trkpt lat="49.20537" lon="1.85222">
        <ele>107</ele>
        <time>2017-01-09T09:36:03Z</time>
      </trkpt>
      <trkpt lat="49.2054" lon="1.85218">
        <ele>108</ele>
        <time>2017-01-09T09:36:05Z</time>
      </trkpt>
      <trkpt lat="49.20539" lon="1.85214">
        <ele>108</ele>
        <time>2017-01-09T09:36:07Z</time>
      </trkpt>
      <trkpt lat="49.20542" lon="1.85198">
        <ele>106</ele>
        <time>2017-01-09T09:36:16Z</time>
      </trkpt>
      <trkpt lat="49.2054" lon="1.85192">
        <ele>107</ele>
        <time>2017-01-09T09:36:18Z</time>
      </trkpt>
      <trkpt lat="49.20542" lon="1.85182">
        <ele>109</ele>
        <time>2017-01-09T09:36:23Z</time>
      </trkpt>
      <trkpt lat="49.2054" lon="1.85173">
        <ele>109</ele>
        <time>2017-01-09T09:36:29Z</time>
      </trkpt>
      <trkpt lat="49.20545" lon="1.85158">
        <ele>111</ele>
        <time>2017-01-09T09:36:38Z</time>
      </trkpt>
      <trkpt lat="49.20545" lon="1.85152">
        <ele>115</ele>
        <time>2017-01-09T09:36:45Z</time>
      </trkpt>
      <trkpt lat="49.20542" lon="1.85146">
        <ele>116</ele>
        <time>2017-01-09T09:36:48Z</time>
      </trkpt>
      <trkpt lat="49.20544" lon="1.8514">
        <ele>119</ele>
        <time>2017-01-09T09:36:54Z</time>
      </trkpt>
      <trkpt lat="49.20542" lon="1.85135">
        <ele>119</ele>
        <time>2017-01-09T09:36:57Z</time>
      </trkpt>
      <trkpt lat="49.20545" lon="1.8513">
        <ele>117</ele>
        <time>2017-01-09T09:37:01Z</time>
      </trkpt>
      <trkpt lat="49.20543" lon="1.85125">
        <ele>115</ele>
        <time>2017-01-09T09:37:04Z</time>
      </trkpt>
      <trkpt lat="49.20545" lon="1.85123">
        <ele>113</ele>
        <time>2017-01-09T09:37:44Z</time>
      </trkpt>
      <trkpt lat="49.20547" lon="1.85119">
        <ele>115</ele>
        <time>2017-01-09T09:37:47Z</time>
      </trkpt>
      <trkpt lat="49.20544" lon="1.85118">
        <ele>115</ele>
        <time>2017-01-09T09:37:58Z</time>
      </trkpt>
      <trkpt lat="49.20545" lon="1.85114">
        <ele>115</ele>
        <time>2017-01-09T09:38:01Z</time>
      </trkpt>
      <trkpt lat="49.20542" lon="1.85104">
        <ele>112</ele>
        <time>2017-01-09T09:38:06Z</time>
      </trkpt>
      <trkpt lat="49.20537" lon="1.85096">
        <ele>111</ele>
        <time>2017-01-09T09:38:10Z</time>
      </trkpt>
      <trkpt lat="49.20534" lon="1.85094">
        <ele>112</ele>
        <time>2017-01-09T09:38:12Z</time>
      </trkpt>
      <trkpt lat="49.20532" lon="1.8509">
        <ele>112</ele>
        <time>2017-01-09T09:38:14Z</time>
      </trkpt>
      <trkpt lat="49.20528" lon="1.85087">
        <ele>113</ele>
        <time>2017-01-09T09:38:20Z</time>
      </trkpt>
      <trkpt lat="49.20525" lon="1.85083">
        <ele>113</ele>
        <time>2017-01-09T09:38:23Z</time>
      </trkpt>
      <trkpt lat="49.20522" lon="1.85083">
        <ele>113</ele>
        <time>2017-01-09T09:38:25Z</time>
      </trkpt>
      <trkpt lat="49.20518" lon="1.8508">
        <ele>114</ele>
        <time>2017-01-09T09:38:27Z</time>
      </trkpt>
      <trkpt lat="49.20515" lon="1.85081">
        <ele>114</ele>
        <time>2017-01-09T09:38:30Z</time>
      </trkpt>
      <trkpt lat="49.20506" lon="1.85074">
        <ele>113</ele>
        <time>2017-01-09T09:38:38Z</time>
      </trkpt>
      <trkpt lat="49.20505" lon="1.8507">
        <ele>113</ele>
        <time>2017-01-09T09:38:40Z</time>
      </trkpt>
      <trkpt lat="49.20501" lon="1.85067">
        <ele>114</ele>
        <time>2017-01-09T09:38:42Z</time>
      </trkpt>
      <trkpt lat="49.205" lon="1.85063">
        <ele>114</ele>
        <time>2017-01-09T09:38:44Z</time>
      </trkpt>
      <trkpt lat="49.20499" lon="1.85059">
        <ele>115</ele>
        <time>2017-01-09T09:38:46Z</time>
      </trkpt>
      <trkpt lat="49.20491" lon="1.85054">
        <ele>114</ele>
        <time>2017-01-09T09:38:51Z</time>
      </trkpt>
      <trkpt lat="49.20488" lon="1.85053">
        <ele>112</ele>
        <time>2017-01-09T09:38:54Z</time>
      </trkpt>
      <trkpt lat="49.20475" lon="1.85037">
        <ele>111</ele>
        <time>2017-01-09T09:39:06Z</time>
      </trkpt>
      <trkpt lat="49.20468" lon="1.85027">
        <ele>110</ele>
        <time>2017-01-09T09:39:16Z</time>
      </trkpt>
      <trkpt lat="49.20461" lon="1.85024">
        <ele>111</ele>
        <time>2017-01-09T09:39:23Z</time>
      </trkpt>
      <trkpt lat="49.20459" lon="1.85015">
        <ele>112</ele>
        <time>2017-01-09T09:39:29Z</time>
      </trkpt>
      <trkpt lat="49.20443" lon="1.85">
        <ele>111</ele>
        <time>2017-01-09T09:39:44Z</time>
      </trkpt>
      <trkpt lat="49.20442" lon="1.84995">
        <ele>111</ele>
        <time>2017-01-09T09:39:46Z</time>
      </trkpt>
      <trkpt lat="49.20431" lon="1.84986">
        <ele>110</ele>
        <time>2017-01-09T09:39:58Z</time>
      </trkpt>
      <trkpt lat="49.20416" lon="1.84971">
        <ele>111</ele>
        <time>2017-01-09T09:40:13Z</time>
      </trkpt>
      <trkpt lat="49.20413" lon="1.84968">
        <ele>112</ele>
        <time>2017-01-09T09:40:17Z</time>
      </trkpt>
      <trkpt lat="49.20412" lon="1.84963">
        <ele>113</ele>
        <time>2017-01-09T09:40:21Z</time>
      </trkpt>
      <trkpt lat="49.20401" lon="1.84957">
        <ele>112</ele>
        <time>2017-01-09T09:40:27Z</time>
      </trkpt>
      <trkpt lat="49.204" lon="1.84952">
        <ele>112</ele>
        <time>2017-01-09T09:40:29Z</time>
      </trkpt>
      <trkpt lat="49.20396" lon="1.84949">
        <ele>112</ele>
        <time>2017-01-09T09:40:32Z</time>
      </trkpt>
      <trkpt lat="49.20378" lon="1.84929">
        <ele>108</ele>
        <time>2017-01-09T09:40:49Z</time>
      </trkpt>
      <trkpt lat="49.20373" lon="1.84922">
        <ele>108</ele>
        <time>2017-01-09T09:40:52Z</time>
      </trkpt>
      <trkpt lat="49.20372" lon="1.84927">
        <ele>108</ele>
        <time>2017-01-09T09:40:54Z</time>
      </trkpt>
      <trkpt lat="49.20368" lon="1.84922">
        <ele>107</ele>
        <time>2017-01-09T09:40:56Z</time>
      </trkpt>
      <trkpt lat="49.20366" lon="1.84918">
        <ele>107</ele>
        <time>2017-01-09T09:40:58Z</time>
      </trkpt>
      <trkpt lat="49.20361" lon="1.84916">
        <ele>106</ele>
        <time>2017-01-09T09:41:03Z</time>
      </trkpt>
      <trkpt lat="49.20357" lon="1.84914">
        <ele>105</ele>
        <time>2017-01-09T09:41:05Z</time>
      </trkpt>
      <trkpt lat="49.20355" lon="1.84911">
        <ele>106</ele>
        <time>2017-01-09T09:41:08Z</time>
      </trkpt>
      <trkpt lat="49.20352" lon="1.84909">
        <ele>106</ele>
        <time>2017-01-09T09:41:10Z</time>
      </trkpt>
      <trkpt lat="49.20347" lon="1.84899">
        <ele>107</ele>
        <time>2017-01-09T09:41:16Z</time>
      </trkpt>
      <trkpt lat="49.20338" lon="1.8489">
        <ele>107</ele>
        <time>2017-01-09T09:41:22Z</time>
      </trkpt>
      <trkpt lat="49.20339" lon="1.84886">
        <ele>108</ele>
        <time>2017-01-09T09:41:27Z</time>
      </trkpt>
      <trkpt lat="49.20336" lon="1.84884">
        <ele>110</ele>
        <time>2017-01-09T09:41:29Z</time>
      </trkpt>
      <trkpt lat="49.20335" lon="1.84879">
        <ele>110</ele>
        <time>2017-01-09T09:41:31Z</time>
      </trkpt>
      <trkpt lat="49.20331" lon="1.84881">
        <ele>110</ele>
        <time>2017-01-09T09:41:33Z</time>
      </trkpt>
      <trkpt lat="49.20328" lon="1.8488">
        <ele>109</ele>
        <time>2017-01-09T09:41:34Z</time>
      </trkpt>
      <trkpt lat="49.20325" lon="1.84877">
        <ele>108</ele>
        <time>2017-01-09T09:41:36Z</time>
      </trkpt>
      <trkpt lat="49.20322" lon="1.84876">
        <ele>108</ele>
        <time>2017-01-09T09:41:38Z</time>
      </trkpt>
      <trkpt lat="49.20321" lon="1.84872">
        <ele>108</ele>
        <time>2017-01-09T09:41:40Z</time>
      </trkpt>
      <trkpt lat="49.20313" lon="1.84863">
        <ele>107</ele>
        <time>2017-01-09T09:41:46Z</time>
      </trkpt>
      <trkpt lat="49.20312" lon="1.84859">
        <ele>107</ele>
        <time>2017-01-09T09:41:50Z</time>
      </trkpt>
      <trkpt lat="49.20308" lon="1.84858">
        <ele>107</ele>
        <time>2017-01-09T09:41:53Z</time>
      </trkpt>
      <trkpt lat="49.20303" lon="1.84851">
        <ele>106</ele>
        <time>2017-01-09T09:41:57Z</time>
      </trkpt>
      <trkpt lat="49.203" lon="1.8485">
        <ele>106</ele>
        <time>2017-01-09T09:42:00Z</time>
      </trkpt>
      <trkpt lat="49.20295" lon="1.84844">
        <ele>105</ele>
        <time>2017-01-09T09:42:05Z</time>
      </trkpt>
      <trkpt lat="49.20293" lon="1.84842">
        <ele>105</ele>
        <time>2017-01-09T09:42:07Z</time>
      </trkpt>
      <trkpt lat="49.2029" lon="1.84839">
        <ele>105</ele>
        <time>2017-01-09T09:42:10Z</time>
      </trkpt>
      <trkpt lat="49.20287" lon="1.8484">
        <ele>105</ele>
        <time>2017-01-09T09:42:12Z</time>
      </trkpt>
      <trkpt lat="49.20285" lon="1.84835">
        <ele>105</ele>
        <time>2017-01-09T09:42:14Z</time>
      </trkpt>
      <trkpt lat="49.20278" lon="1.84829">
        <ele>105</ele>
        <time>2017-01-09T09:42:19Z</time>
      </trkpt>
      <trkpt lat="49.20267" lon="1.84815">
        <ele>114</ele>
        <time>2017-01-09T09:42:33Z</time>
      </trkpt>
      <trkpt lat="49.20265" lon="1.84809">
        <ele>113</ele>
        <time>2017-01-09T09:42:35Z</time>
      </trkpt>
      <trkpt lat="49.20265" lon="1.84804">
        <ele>114</ele>
        <time>2017-01-09T09:42:40Z</time>
      </trkpt>
      <trkpt lat="49.20261" lon="1.84803">
        <ele>114</ele>
        <time>2017-01-09T09:42:42Z</time>
      </trkpt>
      <trkpt lat="49.20244" lon="1.84791">
        <ele>113</ele>
        <time>2017-01-09T09:42:56Z</time>
      </trkpt>
      <trkpt lat="49.20242" lon="1.84785">
        <ele>114</ele>
        <time>2017-01-09T09:43:00Z</time>
      </trkpt>
      <trkpt lat="49.20235" lon="1.84778">
        <ele>116</ele>
        <time>2017-01-09T09:43:08Z</time>
      </trkpt>
      <trkpt lat="49.2023" lon="1.84776">
        <ele>117</ele>
        <time>2017-01-09T09:43:10Z</time>
      </trkpt>
      <trkpt lat="49.20222" lon="1.8477">
        <ele>114</ele>
        <time>2017-01-09T09:43:17Z</time>
      </trkpt>
      <trkpt lat="49.20218" lon="1.84771">
        <ele>112</ele>
        <time>2017-01-09T09:43:19Z</time>
      </trkpt>
      <trkpt lat="49.20217" lon="1.84768">
        <ele>110</ele>
        <time>2017-01-09T09:43:23Z</time>
      </trkpt>
      <trkpt lat="49.20215" lon="1.84763">
        <ele>109</ele>
        <time>2017-01-09T09:43:25Z</time>
      </trkpt>
      <trkpt lat="49.20213" lon="1.84759">
        <ele>108</ele>
        <time>2017-01-09T09:43:27Z</time>
      </trkpt>
      <trkpt lat="49.20208" lon="1.84759">
        <ele>108</ele>
        <time>2017-01-09T09:43:30Z</time>
      </trkpt>
      <trkpt lat="49.20202" lon="1.84754">
        <ele>109</ele>
        <time>2017-01-09T09:43:34Z</time>
      </trkpt>
      <trkpt lat="49.20197" lon="1.84757">
        <ele>110</ele>
        <time>2017-01-09T09:43:40Z</time>
      </trkpt>
      <trkpt lat="49.20194" lon="1.84754">
        <ele>110</ele>
        <time>2017-01-09T09:43:43Z</time>
      </trkpt>
      <trkpt lat="49.20193" lon="1.84758">
        <ele>110</ele>
        <time>2017-01-09T09:43:44Z</time>
      </trkpt>
      <trkpt lat="49.20189" lon="1.84755">
        <ele>110</ele>
        <time>2017-01-09T09:43:46Z</time>
      </trkpt>
      <trkpt lat="49.20186" lon="1.84754">
        <ele>110</ele>
        <time>2017-01-09T09:43:49Z</time>
      </trkpt>
      <trkpt lat="49.20177" lon="1.84741">
        <ele>111</ele>
        <time>2017-01-09T09:43:58Z</time>
      </trkpt>
      <trkpt lat="49.20173" lon="1.84743">
        <ele>112</ele>
        <time>2017-01-09T09:44:03Z</time>
      </trkpt>
      <trkpt lat="49.20168" lon="1.84738">
        <ele>112</ele>
        <time>2017-01-09T09:44:10Z</time>
      </trkpt>
      <trkpt lat="49.20158" lon="1.84736">
        <ele>113</ele>
        <time>2017-01-09T09:44:18Z</time>
      </trkpt>
      <trkpt lat="49.20155" lon="1.84733">
        <ele>112</ele>
        <time>2017-01-09T09:44:21Z</time>
      </trkpt>
      <trkpt lat="49.20143" lon="1.84726">
        <ele>112</ele>
        <time>2017-01-09T09:44:33Z</time>
      </trkpt>
      <trkpt lat="49.20119" lon="1.84715">
        <ele>117</ele>
        <time>2017-01-09T09:44:57Z</time>
      </trkpt>
      <trkpt lat="49.20078" lon="1.84697">
        <ele>118</ele>
        <time>2017-01-09T09:45:27Z</time>
      </trkpt>
      <trkpt lat="49.20074" lon="1.84693">
        <ele>118</ele>
        <time>2017-01-09T09:45:31Z</time>
      </trkpt>
      <trkpt lat="49.20071" lon="1.84691">
        <ele>118</ele>
        <time>2017-01-09T09:45:38Z</time>
      </trkpt>
      <trkpt lat="49.20069" lon="1.84686">
        <ele>117</ele>
        <time>2017-01-09T09:45:40Z</time>
      </trkpt>
      <trkpt lat="49.20063" lon="1.84682">
        <ele>114</ele>
        <time>2017-01-09T09:45:45Z</time>
      </trkpt>
      <trkpt lat="49.20059" lon="1.84679">
        <ele>114</ele>
        <time>2017-01-09T09:45:47Z</time>
      </trkpt>
      <trkpt lat="49.20052" lon="1.84676">
        <ele>114</ele>
        <time>2017-01-09T09:45:52Z</time>
      </trkpt>
      <trkpt lat="49.20053" lon="1.84671">
        <ele>116</ele>
        <time>2017-01-09T09:45:55Z</time>
      </trkpt>
      <trkpt lat="49.20051" lon="1.84665">
        <ele>117</ele>
        <time>2017-01-09T09:45:59Z</time>
      </trkpt>
      <trkpt lat="49.20047" lon="1.84665">
        <ele>117</ele>
        <time>2017-01-09T09:46:01Z</time>
      </trkpt>
      <trkpt lat="49.20044" lon="1.84664">
        <ele>119</ele>
        <time>2017-01-09T09:46:03Z</time>
      </trkpt>
      <trkpt lat="49.20027" lon="1.84639">
        <ele>122</ele>
        <time>2017-01-09T09:46:25Z</time>
      </trkpt>
      <trkpt lat="49.20021" lon="1.84633">
        <ele>120</ele>
        <time>2017-01-09T09:46:31Z</time>
      </trkpt>
      <trkpt lat="49.20017" lon="1.84633">
        <ele>120</ele>
        <time>2017-01-09T09:46:33Z</time>
      </trkpt>
      <trkpt lat="49.20012" lon="1.84629">
        <ele>119</ele>
        <time>2017-01-09T09:46:36Z</time>
      </trkpt>
      <trkpt lat="49.20011" lon="1.84624">
        <ele>120</ele>
        <time>2017-01-09T09:46:39Z</time>
      </trkpt>
      <trkpt lat="49.20004" lon="1.84616">
        <ele>118</ele>
        <time>2017-01-09T09:46:43Z</time>
      </trkpt>
      <trkpt lat="49.20002" lon="1.84611">
        <ele>119</ele>
        <time>2017-01-09T09:46:47Z</time>
      </trkpt>
      <trkpt lat="49.20003" lon="1.84606">
        <ele>120</ele>
        <time>2017-01-09T09:46:51Z</time>
      </trkpt>
      <trkpt lat="49.2" lon="1.84601">
        <ele>120</ele>
        <time>2017-01-09T09:46:53Z</time>
      </trkpt>
      <trkpt lat="49.19986" lon="1.84555">
        <ele>118</ele>
        <time>2017-01-09T09:47:23Z</time>
      </trkpt>
      <trkpt lat="49.19987" lon="1.84543">
        <ele>119</ele>
        <time>2017-01-09T09:47:29Z</time>
      </trkpt>
      <trkpt lat="49.19986" lon="1.84538">
        <ele>120</ele>
        <time>2017-01-09T09:47:32Z</time>
      </trkpt>
      <trkpt lat="49.19988" lon="1.84532">
        <ele>120</ele>
        <time>2017-01-09T09:47:35Z</time>
      </trkpt>
      <trkpt lat="49.1999" lon="1.84525">
        <ele>123</ele>
        <time>2017-01-09T09:47:38Z</time>
      </trkpt>
      <trkpt lat="49.19989" lon="1.84522">
        <ele>124</ele>
        <time>2017-01-09T09:47:40Z</time>
      </trkpt>
      <trkpt lat="49.1999" lon="1.84516">
        <ele>125</ele>
        <time>2017-01-09T09:47:43Z</time>
      </trkpt>
      <trkpt lat="49.19993" lon="1.84514">
        <ele>125</ele>
        <time>2017-01-09T09:47:47Z</time>
      </trkpt>
      <trkpt lat="49.20006" lon="1.84473">
        <ele>123</ele>
        <time>2017-01-09T09:48:07Z</time>
      </trkpt>
      <trkpt lat="49.20008" lon="1.84466">
        <ele>124</ele>
        <time>2017-01-09T09:48:12Z</time>
      </trkpt>
      <trkpt lat="49.20008" lon="1.8446">
        <ele>124</ele>
        <time>2017-01-09T09:48:15Z</time>
      </trkpt>
      <trkpt lat="49.20007" lon="1.84448">
        <ele>123</ele>
        <time>2017-01-09T09:48:21Z</time>
      </trkpt>
      <trkpt lat="49.20008" lon="1.84442">
        <ele>122</ele>
        <time>2017-01-09T09:48:24Z</time>
      </trkpt>
      <trkpt lat="49.20011" lon="1.84438">
        <ele>122</ele>
        <time>2017-01-09T09:48:28Z</time>
      </trkpt>
      <trkpt lat="49.20016" lon="1.84427">
        <ele>124</ele>
        <time>2017-01-09T09:48:35Z</time>
      </trkpt>
      <trkpt lat="49.20013" lon="1.84424">
        <ele>123</ele>
        <time>2017-01-09T09:48:36Z</time>
      </trkpt>
      <trkpt lat="49.20013" lon="1.84398">
        <ele>122</ele>
        <time>2017-01-09T09:48:51Z</time>
      </trkpt>
      <trkpt lat="49.20019" lon="1.84392">
        <ele>122</ele>
        <time>2017-01-09T09:48:54Z</time>
      </trkpt>
      <trkpt lat="49.20022" lon="1.84379">
        <ele>122</ele>
        <time>2017-01-09T09:48:59Z</time>
      </trkpt>
      <trkpt lat="49.20023" lon="1.84372">
        <ele>123</ele>
        <time>2017-01-09T09:49:02Z</time>
      </trkpt>
      <trkpt lat="49.20027" lon="1.84366">
        <ele>125</ele>
        <time>2017-01-09T09:49:05Z</time>
      </trkpt>
      <trkpt lat="49.20025" lon="1.8435">
        <ele>133</ele>
        <time>2017-01-09T09:49:14Z</time>
      </trkpt>
      <trkpt lat="49.2003" lon="1.84343">
        <ele>133</ele>
        <time>2017-01-09T09:49:18Z</time>
      </trkpt>
      <trkpt lat="49.20027" lon="1.8434">
        <ele>133</ele>
        <time>2017-01-09T09:49:20Z</time>
      </trkpt>
      <trkpt lat="49.2003" lon="1.84331">
        <ele>134</ele>
        <time>2017-01-09T09:49:26Z</time>
      </trkpt>
      <trkpt lat="49.20038" lon="1.84317">
        <ele>136</ele>
        <time>2017-01-09T09:49:34Z</time>
      </trkpt>
      <trkpt lat="49.20042" lon="1.84316">
        <ele>134</ele>
        <time>2017-01-09T09:49:35Z</time>
      </trkpt>
      <trkpt lat="49.20046" lon="1.84291">
        <ele>127</ele>
        <time>2017-01-09T09:49:46Z</time>
      </trkpt>
      <trkpt lat="49.2005" lon="1.8427">
        <ele>130</ele>
        <time>2017-01-09T09:50:00Z</time>
      </trkpt>
      <trkpt lat="49.20058" lon="1.84262">
        <ele>129</ele>
        <time>2017-01-09T09:50:06Z</time>
      </trkpt>
      <trkpt lat="49.20059" lon="1.84248">
        <ele>132</ele>
        <time>2017-01-09T09:50:13Z</time>
      </trkpt>
      <trkpt lat="49.20065" lon="1.84239">
        <ele>131</ele>
        <time>2017-01-09T09:50:19Z</time>
      </trkpt>
      <trkpt lat="49.20066" lon="1.84231">
        <ele>129</ele>
        <time>2017-01-09T09:50:24Z</time>
      </trkpt>
      <trkpt lat="49.20071" lon="1.84226">
        <ele>130</ele>
        <time>2017-01-09T09:50:27Z</time>
      </trkpt>
      <trkpt lat="49.20081" lon="1.84218">
        <ele>131</ele>
        <time>2017-01-09T09:50:33Z</time>
      </trkpt>
      <trkpt lat="49.20085" lon="1.84208">
        <ele>133</ele>
        <time>2017-01-09T09:50:39Z</time>
      </trkpt>
      <trkpt lat="49.2009" lon="1.84206">
        <ele>132</ele>
        <time>2017-01-09T09:50:45Z</time>
      </trkpt>
      <trkpt lat="49.20093" lon="1.84199">
        <ele>131</ele>
        <time>2017-01-09T09:50:49Z</time>
      </trkpt>
      <trkpt lat="49.201" lon="1.8419">
        <ele>131</ele>
        <time>2017-01-09T09:50:56Z</time>
      </trkpt>
      <trkpt lat="49.20105" lon="1.84185">
        <ele>134</ele>
        <time>2017-01-09T09:51:02Z</time>
      </trkpt>
      <trkpt lat="49.20106" lon="1.84178">
        <ele>134</ele>
        <time>2017-01-09T09:51:07Z</time>
      </trkpt>
      <trkpt lat="49.20113" lon="1.84171">
        <ele>134</ele>
        <time>2017-01-09T09:51:15Z</time>
      </trkpt>
      <trkpt lat="49.20118" lon="1.84172">
        <ele>134</ele>
        <time>2017-01-09T09:51:17Z</time>
      </trkpt>
      <trkpt lat="49.2012" lon="1.84168">
        <ele>134</ele>
        <time>2017-01-09T09:51:19Z</time>
      </trkpt>
      <trkpt lat="49.20122" lon="1.84153">
        <ele>133</ele>
        <time>2017-01-09T09:51:26Z</time>
      </trkpt>
      <trkpt lat="49.20127" lon="1.84151">
        <ele>134</ele>
        <time>2017-01-09T09:51:28Z</time>
      </trkpt>
      <trkpt lat="49.20147" lon="1.84133">
        <ele>132</ele>
        <time>2017-01-09T09:51:49Z</time>
      </trkpt>
      <trkpt lat="49.20151" lon="1.84122">
        <ele>132</ele>
        <time>2017-01-09T09:51:56Z</time>
      </trkpt>
      <trkpt lat="49.20152" lon="1.84116">
        <ele>132</ele>
        <time>2017-01-09T09:51:59Z</time>
      </trkpt>
      <trkpt lat="49.20154" lon="1.84109">
        <ele>135</ele>
        <time>2017-01-09T09:52:03Z</time>
      </trkpt>
      <trkpt lat="49.20158" lon="1.84105">
        <ele>137</ele>
        <time>2017-01-09T09:52:05Z</time>
      </trkpt>
      <trkpt lat="49.20163" lon="1.841">
        <ele>137</ele>
        <time>2017-01-09T09:52:11Z</time>
      </trkpt>
      <trkpt lat="49.20167" lon="1.84099">
        <ele>138</ele>
        <time>2017-01-09T09:52:13Z</time>
      </trkpt>
      <trkpt lat="49.20169" lon="1.84093">
        <ele>137</ele>
        <time>2017-01-09T09:52:17Z</time>
      </trkpt>
      <trkpt lat="49.20173" lon="1.84092">
        <ele>134</ele>
        <time>2017-01-09T09:52:23Z</time>
      </trkpt>
      <trkpt lat="49.20179" lon="1.84091">
        <ele>133</ele>
        <time>2017-01-09T09:52:34Z</time>
      </trkpt>
      <trkpt lat="49.20184" lon="1.84092">
        <ele>131</ele>
        <time>2017-01-09T09:52:38Z</time>
      </trkpt>
      <trkpt lat="49.20195" lon="1.84076">
        <ele>126</ele>
        <time>2017-01-09T09:52:45Z</time>
      </trkpt>
      <trkpt lat="49.20204" lon="1.84079">
        <ele>124</ele>
        <time>2017-01-09T09:52:49Z</time>
      </trkpt>
      <trkpt lat="49.20212" lon="1.84085">
        <ele>125</ele>
        <time>2017-01-09T09:52:51Z</time>
      </trkpt>
      <trkpt lat="49.20214" lon="1.84092">
        <ele>126</ele>
        <time>2017-01-09T09:52:52Z</time>
      </trkpt>
      <trkpt lat="49.20221" lon="1.84095">
        <ele>127</ele>
        <time>2017-01-09T09:52:58Z</time>
      </trkpt>
      <trkpt lat="49.20227" lon="1.84096">
        <ele>130</ele>
        <time>2017-01-09T09:53:02Z</time>
      </trkpt>
      <trkpt lat="49.20229" lon="1.841">
        <ele>132</ele>
        <time>2017-01-09T09:53:06Z</time>
      </trkpt>
      <trkpt lat="49.20232" lon="1.84102">
        <ele>132</ele>
        <time>2017-01-09T09:53:11Z</time>
      </trkpt>
      <trkpt lat="49.20231" lon="1.84099">
        <ele>138</ele>
        <time>2017-01-09T09:54:12Z</time>
      </trkpt>
      <trkpt lat="49.20232" lon="1.841">
        <ele>138</ele>
        <time>2017-01-09T09:54:39Z</time>
      </trkpt>
      <trkpt lat="49.2023" lon="1.84102">
        <ele>136</ele>
        <time>2017-01-09T09:56:06Z</time>
      </trkpt>
      <trkpt lat="49.20228" lon="1.84101">
        <ele>143</ele>
        <time>2017-01-09T09:56:28Z</time>
      </trkpt>
      <trkpt lat="49.2023" lon="1.84097">
        <ele>149</ele>
        <time>2017-01-09T09:57:44Z</time>
      </trkpt>
      <trkpt lat="49.20226" lon="1.84094">
        <ele>149</ele>
        <time>2017-01-09T09:57:53Z</time>
      </trkpt>
      <trkpt lat="49.20223" lon="1.84103">
        <ele>149</ele>
        <time>2017-01-09T09:58:04Z</time>
      </trkpt>
      <trkpt lat="49.20224" lon="1.84099">
        <ele>147</ele>
        <time>2017-01-09T09:58:05Z</time>
      </trkpt>
      <trkpt lat="49.20228" lon="1.841">
        <ele>142</ele>
        <time>2017-01-09T09:58:36Z</time>
      </trkpt>
      <trkpt lat="49.20231" lon="1.84102">
        <ele>142</ele>
        <time>2017-01-09T09:59:29Z</time>
      </trkpt>
      <trkpt lat="49.20238" lon="1.84097">
        <ele>141</ele>
        <time>2017-01-09T09:59:37Z</time>
      </trkpt>
      <trkpt lat="49.2025" lon="1.84094">
        <ele>139</ele>
        <time>2017-01-09T09:59:45Z</time>
      </trkpt>
      <trkpt lat="49.20253" lon="1.84089">
        <ele>139</ele>
        <time>2017-01-09T09:59:47Z</time>
      </trkpt>
      <trkpt lat="49.20256" lon="1.84089">
        <ele>139</ele>
        <time>2017-01-09T09:59:49Z</time>
      </trkpt>
      <trkpt lat="49.20256" lon="1.84084">
        <ele>138</ele>
        <time>2017-01-09T09:59:54Z</time>
      </trkpt>
      <trkpt lat="49.20259" lon="1.84081">
        <ele>139</ele>
        <time>2017-01-09T09:59:56Z</time>
      </trkpt>
      <trkpt lat="49.20258" lon="1.84077">
        <ele>138</ele>
        <time>2017-01-09T09:59:58Z</time>
      </trkpt>
      <trkpt lat="49.20265" lon="1.84072">
        <ele>137</ele>
        <time>2017-01-09T10:00:03Z</time>
      </trkpt>
      <trkpt lat="49.20266" lon="1.84077">
        <ele>137</ele>
        <time>2017-01-09T10:00:06Z</time>
      </trkpt>
      <trkpt lat="49.20269" lon="1.84075">
        <ele>137</ele>
        <time>2017-01-09T10:00:08Z</time>
      </trkpt>
      <trkpt lat="49.20269" lon="1.8407">
        <ele>136</ele>
        <time>2017-01-09T10:00:10Z</time>
      </trkpt>
      <trkpt lat="49.20271" lon="1.84066">
        <ele>135</ele>
        <time>2017-01-09T10:00:13Z</time>
      </trkpt>
      <trkpt lat="49.20273" lon="1.84064">
        <ele>134</ele>
        <time>2017-01-09T10:00:15Z</time>
      </trkpt>
      <trkpt lat="49.20278" lon="1.8406">
        <ele>134</ele>
        <time>2017-01-09T10:00:19Z</time>
      </trkpt>
      <trkpt lat="49.20283" lon="1.8406">
        <ele>135</ele>
        <time>2017-01-09T10:00:24Z</time>
      </trkpt>
      <trkpt lat="49.20288" lon="1.8406">
        <ele>135</ele>
        <time>2017-01-09T10:00:27Z</time>
      </trkpt>
      <trkpt lat="49.20289" lon="1.84055">
        <ele>136</ele>
        <time>2017-01-09T10:00:30Z</time>
      </trkpt>
      <trkpt lat="49.20293" lon="1.84046">
        <ele>136</ele>
        <time>2017-01-09T10:00:35Z</time>
      </trkpt>
      <trkpt lat="49.20306" lon="1.8403">
        <ele>135</ele>
        <time>2017-01-09T10:00:46Z</time>
      </trkpt>
      <trkpt lat="49.20313" lon="1.84031">
        <ele>135</ele>
        <time>2017-01-09T10:00:50Z</time>
      </trkpt>
      <trkpt lat="49.20317" lon="1.84022">
        <ele>134</ele>
        <time>2017-01-09T10:00:57Z</time>
      </trkpt>
      <trkpt lat="49.2032" lon="1.84021">
        <ele>133</ele>
        <time>2017-01-09T10:01:00Z</time>
      </trkpt>
      <trkpt lat="49.2032" lon="1.84016">
        <ele>133</ele>
        <time>2017-01-09T10:01:02Z</time>
      </trkpt>
      <trkpt lat="49.20322" lon="1.84013">
        <ele>133</ele>
        <time>2017-01-09T10:01:05Z</time>
      </trkpt>
      <trkpt lat="49.20324" lon="1.8401">
        <ele>133</ele>
        <time>2017-01-09T10:01:07Z</time>
      </trkpt>
      <trkpt lat="49.20329" lon="1.83999">
        <ele>133</ele>
        <time>2017-01-09T10:01:14Z</time>
      </trkpt>
      <trkpt lat="49.20337" lon="1.83995">
        <ele>132</ele>
        <time>2017-01-09T10:01:21Z</time>
      </trkpt>
      <trkpt lat="49.20338" lon="1.83992">
        <ele>132</ele>
        <time>2017-01-09T10:01:23Z</time>
      </trkpt>
      <trkpt lat="49.2034" lon="1.83983">
        <ele>132</ele>
        <time>2017-01-09T10:01:27Z</time>
      </trkpt>
      <trkpt lat="49.20343" lon="1.83979">
        <ele>133</ele>
        <time>2017-01-09T10:01:29Z</time>
      </trkpt>
      <trkpt lat="49.20345" lon="1.83971">
        <ele>132</ele>
        <time>2017-01-09T10:01:34Z</time>
      </trkpt>
      <trkpt lat="49.20372" lon="1.83928">
        <ele>131</ele>
        <time>2017-01-09T10:02:04Z</time>
      </trkpt>
      <trkpt lat="49.20375" lon="1.83924">
        <ele>131</ele>
        <time>2017-01-09T10:02:07Z</time>
      </trkpt>
      <trkpt lat="49.20375" lon="1.8392">
        <ele>131</ele>
        <time>2017-01-09T10:02:09Z</time>
      </trkpt>
      <trkpt lat="49.20381" lon="1.83912">
        <ele>130</ele>
        <time>2017-01-09T10:02:13Z</time>
      </trkpt>
      <trkpt lat="49.20385" lon="1.83896">
        <ele>129</ele>
        <time>2017-01-09T10:02:23Z</time>
      </trkpt>
      <trkpt lat="49.20398" lon="1.83883">
        <ele>126</ele>
        <time>2017-01-09T10:02:31Z</time>
      </trkpt>
      <trkpt lat="49.204" lon="1.83881">
        <ele>124</ele>
        <time>2017-01-09T10:02:35Z</time>
      </trkpt>
      <trkpt lat="49.204" lon="1.83872">
        <ele>125</ele>
        <time>2017-01-09T10:02:38Z</time>
      </trkpt>
      <trkpt lat="49.20408" lon="1.83864">
        <ele>126</ele>
        <time>2017-01-09T10:02:43Z</time>
      </trkpt>
      <trkpt lat="49.20404" lon="1.83863">
        <ele>126</ele>
        <time>2017-01-09T10:02:44Z</time>
      </trkpt>
      <trkpt lat="49.20411" lon="1.83853">
        <ele>127</ele>
        <time>2017-01-09T10:02:50Z</time>
      </trkpt>
      <trkpt lat="49.20412" lon="1.83847">
        <ele>127</ele>
        <time>2017-01-09T10:02:53Z</time>
      </trkpt>
      <trkpt lat="49.20418" lon="1.83838">
        <ele>125</ele>
        <time>2017-01-09T10:02:59Z</time>
      </trkpt>
      <trkpt lat="49.20424" lon="1.83834">
        <ele>126</ele>
        <time>2017-01-09T10:03:03Z</time>
      </trkpt>
      <trkpt lat="49.20428" lon="1.83826">
        <ele>126</ele>
        <time>2017-01-09T10:03:09Z</time>
      </trkpt>
      <trkpt lat="49.20432" lon="1.83825">
        <ele>128</ele>
        <time>2017-01-09T10:03:10Z</time>
      </trkpt>
      <trkpt lat="49.20435" lon="1.8382">
        <ele>131</ele>
        <time>2017-01-09T10:03:13Z</time>
      </trkpt>
      <trkpt lat="49.20435" lon="1.83809">
        <ele>131</ele>
        <time>2017-01-09T10:03:18Z</time>
      </trkpt>
      <trkpt lat="49.20438" lon="1.83802">
        <ele>127</ele>
        <time>2017-01-09T10:03:23Z</time>
      </trkpt>
      <trkpt lat="49.20442" lon="1.83797">
        <ele>128</ele>
        <time>2017-01-09T10:03:27Z</time>
      </trkpt>
      <trkpt lat="49.20448" lon="1.8378">
        <ele>125</ele>
        <time>2017-01-09T10:03:37Z</time>
      </trkpt>
      <trkpt lat="49.20455" lon="1.83779">
        <ele>125</ele>
        <time>2017-01-09T10:03:39Z</time>
      </trkpt>
      <trkpt lat="49.20455" lon="1.83773">
        <ele>124</ele>
        <time>2017-01-09T10:03:42Z</time>
      </trkpt>
      <trkpt lat="49.20462" lon="1.83757">
        <ele>124</ele>
        <time>2017-01-09T10:03:50Z</time>
      </trkpt>
      <trkpt lat="49.20469" lon="1.83739">
        <ele>123</ele>
        <time>2017-01-09T10:04:02Z</time>
      </trkpt>
      <trkpt lat="49.20476" lon="1.83731">
        <ele>124</ele>
        <time>2017-01-09T10:04:07Z</time>
      </trkpt>
      <trkpt lat="49.20478" lon="1.83727">
        <ele>124</ele>
        <time>2017-01-09T10:04:10Z</time>
      </trkpt>
      <trkpt lat="49.20485" lon="1.83724">
        <ele>124</ele>
        <time>2017-01-09T10:04:16Z</time>
      </trkpt>
      <trkpt lat="49.20488" lon="1.8372">
        <ele>125</ele>
        <time>2017-01-09T10:04:20Z</time>
      </trkpt>
      <trkpt lat="49.20488" lon="1.83715">
        <ele>125</ele>
        <time>2017-01-09T10:04:23Z</time>
      </trkpt>
      <trkpt lat="49.20493" lon="1.83709">
        <ele>125</ele>
        <time>2017-01-09T10:04:27Z</time>
      </trkpt>
      <trkpt lat="49.20499" lon="1.83705">
        <ele>126</ele>
        <time>2017-01-09T10:04:32Z</time>
      </trkpt>
      <trkpt lat="49.20502" lon="1.83695">
        <ele>125</ele>
        <time>2017-01-09T10:04:38Z</time>
      </trkpt>
      <trkpt lat="49.20504" lon="1.8369">
        <ele>124</ele>
        <time>2017-01-09T10:04:40Z</time>
      </trkpt>
      <trkpt lat="49.20507" lon="1.83688">
        <ele>126</ele>
        <time>2017-01-09T10:04:43Z</time>
      </trkpt>
      <trkpt lat="49.20508" lon="1.83683">
        <ele>126</ele>
        <time>2017-01-09T10:04:46Z</time>
      </trkpt>
      <trkpt lat="49.20511" lon="1.8368">
        <ele>126</ele>
        <time>2017-01-09T10:04:48Z</time>
      </trkpt>
      <trkpt lat="49.20512" lon="1.83674">
        <ele>126</ele>
        <time>2017-01-09T10:04:51Z</time>
      </trkpt>
      <trkpt lat="49.20519" lon="1.83669">
        <ele>125</ele>
        <time>2017-01-09T10:04:57Z</time>
      </trkpt>
      <trkpt lat="49.20525" lon="1.83663">
        <ele>125</ele>
        <time>2017-01-09T10:05:02Z</time>
      </trkpt>
      <trkpt lat="49.20526" lon="1.83655">
        <ele>126</ele>
        <time>2017-01-09T10:05:06Z</time>
      </trkpt>
      <trkpt lat="49.2053" lon="1.83654">
        <ele>127</ele>
        <time>2017-01-09T10:05:09Z</time>
      </trkpt>
      <trkpt lat="49.20534" lon="1.83645">
        <ele>127</ele>
        <time>2017-01-09T10:05:14Z</time>
      </trkpt>
      <trkpt lat="49.20539" lon="1.83641">
        <ele>127</ele>
        <time>2017-01-09T10:05:19Z</time>
      </trkpt>
      <trkpt lat="49.20544" lon="1.83623">
        <ele>127</ele>
        <time>2017-01-09T10:05:26Z</time>
      </trkpt>
      <trkpt lat="49.20549" lon="1.83621">
        <ele>128</ele>
        <time>2017-01-09T10:05:28Z</time>
      </trkpt>
      <trkpt lat="49.20552" lon="1.83611">
        <ele>130</ele>
        <time>2017-01-09T10:05:34Z</time>
      </trkpt>
      <trkpt lat="49.20554" lon="1.836">
        <ele>131</ele>
        <time>2017-01-09T10:05:41Z</time>
      </trkpt>
      <trkpt lat="49.20559" lon="1.83593">
        <ele>130</ele>
        <time>2017-01-09T10:05:44Z</time>
      </trkpt>
      <trkpt lat="49.2056" lon="1.83582">
        <ele>128</ele>
        <time>2017-01-09T10:05:51Z</time>
      </trkpt>
      <trkpt lat="49.20564" lon="1.83572">
        <ele>126</ele>
        <time>2017-01-09T10:05:57Z</time>
      </trkpt>
      <trkpt lat="49.20566" lon="1.8357">
        <ele>126</ele>
        <time>2017-01-09T10:06:00Z</time>
      </trkpt>
      <trkpt lat="49.20568" lon="1.83554">
        <ele>126</ele>
        <time>2017-01-09T10:06:08Z</time>
      </trkpt>
      <trkpt lat="49.20571" lon="1.83546">
        <ele>127</ele>
        <time>2017-01-09T10:06:13Z</time>
      </trkpt>
      <trkpt lat="49.20573" lon="1.8353">
        <ele>127</ele>
        <time>2017-01-09T10:06:20Z</time>
      </trkpt>
      <trkpt lat="49.20581" lon="1.83528">
        <ele>127</ele>
        <time>2017-01-09T10:06:24Z</time>
      </trkpt>
      <trkpt lat="49.20586" lon="1.83509">
        <ele>129</ele>
        <time>2017-01-09T10:06:33Z</time>
      </trkpt>
      <trkpt lat="49.20585" lon="1.83505">
        <ele>129</ele>
        <time>2017-01-09T10:06:36Z</time>
      </trkpt>
      <trkpt lat="49.20587" lon="1.83496">
        <ele>129</ele>
        <time>2017-01-09T10:06:41Z</time>
      </trkpt>
      <trkpt lat="49.2059" lon="1.83486">
        <ele>128</ele>
        <time>2017-01-09T10:06:47Z</time>
      </trkpt>
      <trkpt lat="49.20587" lon="1.83482">
        <ele>126</ele>
        <time>2017-01-09T10:06:49Z</time>
      </trkpt>
      <trkpt lat="49.20587" lon="1.83477">
        <ele>126</ele>
        <time>2017-01-09T10:06:53Z</time>
      </trkpt>
      <trkpt lat="49.20584" lon="1.83474">
        <ele>126</ele>
        <time>2017-01-09T10:06:55Z</time>
      </trkpt>
      <trkpt lat="49.20584" lon="1.83469">
        <ele>126</ele>
        <time>2017-01-09T10:06:59Z</time>
      </trkpt>
      <trkpt lat="49.20582" lon="1.83454">
        <ele>132</ele>
        <time>2017-01-09T10:07:06Z</time>
      </trkpt>
      <trkpt lat="49.20586" lon="1.8344">
        <ele>135</ele>
        <time>2017-01-09T10:07:15Z</time>
      </trkpt>
      <trkpt lat="49.20589" lon="1.83431">
        <ele>134</ele>
        <time>2017-01-09T10:07:19Z</time>
      </trkpt>
      <trkpt lat="49.20593" lon="1.83421">
        <ele>133</ele>
        <time>2017-01-09T10:07:24Z</time>
      </trkpt>
      <trkpt lat="49.20596" lon="1.83419">
        <ele>133</ele>
        <time>2017-01-09T10:07:25Z</time>
      </trkpt>
      <trkpt lat="49.206" lon="1.83425">
        <ele>132</ele>
        <time>2017-01-09T10:07:27Z</time>
      </trkpt>
      <trkpt lat="49.20602" lon="1.83421">
        <ele>133</ele>
        <time>2017-01-09T10:07:29Z</time>
      </trkpt>
      <trkpt lat="49.20603" lon="1.83417">
        <ele>132</ele>
        <time>2017-01-09T10:07:32Z</time>
      </trkpt>
      <trkpt lat="49.20605" lon="1.83414">
        <ele>133</ele>
        <time>2017-01-09T10:07:34Z</time>
      </trkpt>
      <trkpt lat="49.20607" lon="1.83407">
        <ele>133</ele>
        <time>2017-01-09T10:07:36Z</time>
      </trkpt>
      <trkpt lat="49.2061" lon="1.83408">
        <ele>134</ele>
        <time>2017-01-09T10:07:38Z</time>
      </trkpt>
      <trkpt lat="49.20613" lon="1.83406">
        <ele>134</ele>
        <time>2017-01-09T10:07:39Z</time>
      </trkpt>
      <trkpt lat="49.20615" lon="1.83396">
        <ele>134</ele>
        <time>2017-01-09T10:07:44Z</time>
      </trkpt>
      <trkpt lat="49.20619" lon="1.83386">
        <ele>132</ele>
        <time>2017-01-09T10:07:51Z</time>
      </trkpt>
      <trkpt lat="49.20624" lon="1.83384">
        <ele>130</ele>
        <time>2017-01-09T10:07:54Z</time>
      </trkpt>
      <trkpt lat="49.20637" lon="1.83383">
        <ele>131</ele>
        <time>2017-01-09T10:08:04Z</time>
      </trkpt>
      <trkpt lat="49.20642" lon="1.83386">
        <ele>133</ele>
        <time>2017-01-09T10:08:07Z</time>
      </trkpt>
      <trkpt lat="49.20646" lon="1.8338">
        <ele>134</ele>
        <time>2017-01-09T10:08:11Z</time>
      </trkpt>
      <trkpt lat="49.2065" lon="1.83387">
        <ele>134</ele>
        <time>2017-01-09T10:08:13Z</time>
      </trkpt>
      <trkpt lat="49.20649" lon="1.83396">
        <ele>134</ele>
        <time>2017-01-09T10:08:19Z</time>
      </trkpt>
      <trkpt lat="49.20655" lon="1.83397">
        <ele>135</ele>
        <time>2017-01-09T10:08:21Z</time>
      </trkpt>
      <trkpt lat="49.20655" lon="1.83404">
        <ele>135</ele>
        <time>2017-01-09T10:08:24Z</time>
      </trkpt>
      <trkpt lat="49.20653" lon="1.83409">
        <ele>136</ele>
        <time>2017-01-09T10:08:26Z</time>
      </trkpt>
      <trkpt lat="49.20657" lon="1.83409">
        <ele>136</ele>
        <time>2017-01-09T10:08:28Z</time>
      </trkpt>
      <trkpt lat="49.20659" lon="1.83417">
        <ele>139</ele>
        <time>2017-01-09T10:08:33Z</time>
      </trkpt>
      <trkpt lat="49.20666" lon="1.83412">
        <ele>137</ele>
        <time>2017-01-09T10:08:34Z</time>
      </trkpt>
      <trkpt lat="49.20676" lon="1.83415">
        <ele>135</ele>
        <time>2017-01-09T10:08:41Z</time>
      </trkpt>
      <trkpt lat="49.20681" lon="1.83417">
        <ele>134</ele>
        <time>2017-01-09T10:08:43Z</time>
      </trkpt>
      <trkpt lat="49.20681" lon="1.83422">
        <ele>134</ele>
        <time>2017-01-09T10:08:47Z</time>
      </trkpt>
      <trkpt lat="49.20684" lon="1.83427">
        <ele>133</ele>
        <time>2017-01-09T10:08:49Z</time>
      </trkpt>
      <trkpt lat="49.20687" lon="1.83428">
        <ele>133</ele>
        <time>2017-01-09T10:08:51Z</time>
      </trkpt>
      <trkpt lat="49.20686" lon="1.83433">
        <ele>133</ele>
        <time>2017-01-09T10:08:53Z</time>
      </trkpt>
      <trkpt lat="49.20688" lon="1.83436">
        <ele>132</ele>
        <time>2017-01-09T10:08:55Z</time>
      </trkpt>
      <trkpt lat="49.20692" lon="1.83436">
        <ele>132</ele>
        <time>2017-01-09T10:08:57Z</time>
      </trkpt>
      <trkpt lat="49.20692" lon="1.83432">
        <ele>131</ele>
        <time>2017-01-09T10:09:03Z</time>
      </trkpt>
      <trkpt lat="49.20695" lon="1.83437">
        <ele>130</ele>
        <time>2017-01-09T10:09:05Z</time>
      </trkpt>
      <trkpt lat="49.20701" lon="1.83443">
        <ele>131</ele>
        <time>2017-01-09T10:09:08Z</time>
      </trkpt>
      <trkpt lat="49.20702" lon="1.83449">
        <ele>132</ele>
        <time>2017-01-09T10:09:12Z</time>
      </trkpt>
      <trkpt lat="49.20708" lon="1.83454">
        <ele>133</ele>
        <time>2017-01-09T10:09:16Z</time>
      </trkpt>
      <trkpt lat="49.20715" lon="1.83457">
        <ele>131</ele>
        <time>2017-01-09T10:09:21Z</time>
      </trkpt>
      <trkpt lat="49.20717" lon="1.83461">
        <ele>131</ele>
        <time>2017-01-09T10:09:23Z</time>
      </trkpt>
      <trkpt lat="49.2072" lon="1.83465">
        <ele>131</ele>
        <time>2017-01-09T10:09:26Z</time>
      </trkpt>
      <trkpt lat="49.20723" lon="1.83466">
        <ele>131</ele>
        <time>2017-01-09T10:09:28Z</time>
      </trkpt>
      <trkpt lat="49.20736" lon="1.83471">
        <ele>129</ele>
        <time>2017-01-09T10:09:34Z</time>
      </trkpt>
      <trkpt lat="49.20736" lon="1.83477">
        <ele>127</ele>
        <time>2017-01-09T10:09:39Z</time>
      </trkpt>
      <trkpt lat="49.20739" lon="1.8348">
        <ele>125</ele>
        <time>2017-01-09T10:09:43Z</time>
      </trkpt>
      <trkpt lat="49.20741" lon="1.83482">
        <ele>125</ele>
        <time>2017-01-09T10:09:45Z</time>
      </trkpt>
      <trkpt lat="49.20742" lon="1.83493">
        <ele>126</ele>
        <time>2017-01-09T10:09:52Z</time>
      </trkpt>
      <trkpt lat="49.2075" lon="1.83495">
        <ele>125</ele>
        <time>2017-01-09T10:09:56Z</time>
      </trkpt>
      <trkpt lat="49.20766" lon="1.83515">
        <ele>128</ele>
        <time>2017-01-09T10:10:11Z</time>
      </trkpt>
      <trkpt lat="49.20769" lon="1.83513">
        <ele>128</ele>
        <time>2017-01-09T10:10:14Z</time>
      </trkpt>
      <trkpt lat="49.20773" lon="1.83518">
        <ele>128</ele>
        <time>2017-01-09T10:10:16Z</time>
      </trkpt>
      <trkpt lat="49.20776" lon="1.83518">
        <ele>127</ele>
        <time>2017-01-09T10:10:18Z</time>
      </trkpt>
      <trkpt lat="49.20784" lon="1.83528">
        <ele>126</ele>
        <time>2017-01-09T10:10:24Z</time>
      </trkpt>
      <trkpt lat="49.2078" lon="1.83535">
        <ele>126</ele>
        <time>2017-01-09T10:10:26Z</time>
      </trkpt>
      <trkpt lat="49.20786" lon="1.83542">
        <ele>128</ele>
        <time>2017-01-09T10:10:33Z</time>
      </trkpt>
      <trkpt lat="49.20789" lon="1.83542">
        <ele>128</ele>
        <time>2017-01-09T10:10:34Z</time>
      </trkpt>
      <trkpt lat="49.20793" lon="1.83541">
        <ele>128</ele>
        <time>2017-01-09T10:10:36Z</time>
      </trkpt>
      <trkpt lat="49.20798" lon="1.83549">
        <ele>126</ele>
        <time>2017-01-09T10:10:41Z</time>
      </trkpt>
      <trkpt lat="49.20799" lon="1.83553">
        <ele>127</ele>
        <time>2017-01-09T10:10:45Z</time>
      </trkpt>
      <trkpt lat="49.20796" lon="1.83558">
        <ele>127</ele>
        <time>2017-01-09T10:10:46Z</time>
      </trkpt>
      <trkpt lat="49.208" lon="1.83571">
        <ele>128</ele>
        <time>2017-01-09T10:10:56Z</time>
      </trkpt>
      <trkpt lat="49.20805" lon="1.83573">
        <ele>129</ele>
        <time>2017-01-09T10:10:59Z</time>
      </trkpt>
      <trkpt lat="49.20821" lon="1.8357">
        <ele>127</ele>
        <time>2017-01-09T10:11:03Z</time>
      </trkpt>
      <trkpt lat="49.20832" lon="1.83574">
        <ele>125</ele>
        <time>2017-01-09T10:11:08Z</time>
      </trkpt>
      <trkpt lat="49.20835" lon="1.83574">
        <ele>123</ele>
        <time>2017-01-09T10:11:11Z</time>
      </trkpt>
      <trkpt lat="49.20836" lon="1.83581">
        <ele>122</ele>
        <time>2017-01-09T10:11:15Z</time>
      </trkpt>
      <trkpt lat="49.20838" lon="1.83578">
        <ele>123</ele>
        <time>2017-01-09T10:11:17Z</time>
      </trkpt>
      <trkpt lat="49.20843" lon="1.83582">
        <ele>125</ele>
        <time>2017-01-09T10:11:21Z</time>
      </trkpt>
      <trkpt lat="49.20846" lon="1.83588">
        <ele>126</ele>
        <time>2017-01-09T10:11:24Z</time>
      </trkpt>
      <trkpt lat="49.20852" lon="1.83593">
        <ele>123</ele>
        <time>2017-01-09T10:11:29Z</time>
      </trkpt>
      <trkpt lat="49.20858" lon="1.83595">
        <ele>121</ele>
        <time>2017-01-09T10:11:34Z</time>
      </trkpt>
      <trkpt lat="49.20863" lon="1.83597">
        <ele>122</ele>
        <time>2017-01-09T10:11:36Z</time>
      </trkpt>
      <trkpt lat="49.20866" lon="1.83592">
        <ele>123</ele>
        <time>2017-01-09T10:11:44Z</time>
      </trkpt>
      <trkpt lat="49.20868" lon="1.83596">
        <ele>124</ele>
        <time>2017-01-09T10:11:47Z</time>
      </trkpt>
      <trkpt lat="49.20869" lon="1.83601">
        <ele>124</ele>
        <time>2017-01-09T10:11:49Z</time>
      </trkpt>
      <trkpt lat="49.20881" lon="1.83614">
        <ele>128</ele>
        <time>2017-01-09T10:11:59Z</time>
      </trkpt>
      <trkpt lat="49.20882" lon="1.83619">
        <ele>130</ele>
        <time>2017-01-09T10:12:02Z</time>
      </trkpt>
      <trkpt lat="49.20883" lon="1.83626">
        <ele>131</ele>
        <time>2017-01-09T10:12:05Z</time>
      </trkpt>
      <trkpt lat="49.20886" lon="1.83627">
        <ele>131</ele>
        <time>2017-01-09T10:12:07Z</time>
      </trkpt>
      <trkpt lat="49.20893" lon="1.83624">
        <ele>132</ele>
        <time>2017-01-09T10:12:12Z</time>
      </trkpt>
      <trkpt lat="49.20894" lon="1.83634">
        <ele>132</ele>
        <time>2017-01-09T10:12:16Z</time>
      </trkpt>
      <trkpt lat="49.20899" lon="1.83636">
        <ele>131</ele>
        <time>2017-01-09T10:12:17Z</time>
      </trkpt>
      <trkpt lat="49.20912" lon="1.83643">
        <ele>129</ele>
        <time>2017-01-09T10:12:26Z</time>
      </trkpt>
      <trkpt lat="49.20922" lon="1.83641">
        <ele>127</ele>
        <time>2017-01-09T10:12:30Z</time>
      </trkpt>
      <trkpt lat="49.20931" lon="1.83647">
        <ele>125</ele>
        <time>2017-01-09T10:12:38Z</time>
      </trkpt>
      <trkpt lat="49.20934" lon="1.8365">
        <ele>124</ele>
        <time>2017-01-09T10:12:41Z</time>
      </trkpt>
      <trkpt lat="49.20932" lon="1.83655">
        <ele>125</ele>
        <time>2017-01-09T10:12:42Z</time>
      </trkpt>
      <trkpt lat="49.20936" lon="1.83657">
        <ele>125</ele>
        <time>2017-01-09T10:12:44Z</time>
      </trkpt>
      <trkpt lat="49.20939" lon="1.83659">
        <ele>123</ele>
        <time>2017-01-09T10:12:46Z</time>
      </trkpt>
      <trkpt lat="49.20951" lon="1.83668">
        <ele>122</ele>
        <time>2017-01-09T10:12:58Z</time>
      </trkpt>
      <trkpt lat="49.20967" lon="1.83684">
        <ele>122</ele>
        <time>2017-01-09T10:13:12Z</time>
      </trkpt>
      <trkpt lat="49.2097" lon="1.83683">
        <ele>123</ele>
        <time>2017-01-09T10:13:14Z</time>
      </trkpt>
      <trkpt lat="49.20987" lon="1.837">
        <ele>124</ele>
        <time>2017-01-09T10:13:28Z</time>
      </trkpt>
      <trkpt lat="49.2099" lon="1.83697">
        <ele>124</ele>
        <time>2017-01-09T10:13:31Z</time>
      </trkpt>
      <trkpt lat="49.20993" lon="1.83698">
        <ele>123</ele>
        <time>2017-01-09T10:13:34Z</time>
      </trkpt>
      <trkpt lat="49.20997" lon="1.837">
        <ele>123</ele>
        <time>2017-01-09T10:13:37Z</time>
      </trkpt>
      <trkpt lat="49.21005" lon="1.8371">
        <ele>125</ele>
        <time>2017-01-09T10:13:43Z</time>
      </trkpt>
      <trkpt lat="49.21007" lon="1.83715">
        <ele>124</ele>
        <time>2017-01-09T10:13:45Z</time>
      </trkpt>
      <trkpt lat="49.2101" lon="1.83714">
        <ele>124</ele>
        <time>2017-01-09T10:13:46Z</time>
      </trkpt>
      <trkpt lat="49.21011" lon="1.83716">
        <ele>124</ele>
        <time>2017-01-09T10:13:50Z</time>
      </trkpt>
      <trkpt lat="49.21013" lon="1.8372">
        <ele>124</ele>
        <time>2017-01-09T10:13:52Z</time>
      </trkpt>
      <trkpt lat="49.21015" lon="1.83716">
        <ele>125</ele>
        <time>2017-01-09T10:13:54Z</time>
      </trkpt>
      <trkpt lat="49.21018" lon="1.83717">
        <ele>126</ele>
        <time>2017-01-09T10:13:57Z</time>
      </trkpt>
      <trkpt lat="49.21024" lon="1.83726">
        <ele>127</ele>
        <time>2017-01-09T10:14:05Z</time>
      </trkpt>
      <trkpt lat="49.21026" lon="1.83729">
        <ele>126</ele>
        <time>2017-01-09T10:14:08Z</time>
      </trkpt>
      <trkpt lat="49.21027" lon="1.83734">
        <ele>128</ele>
        <time>2017-01-09T10:14:12Z</time>
      </trkpt>
      <trkpt lat="49.21031" lon="1.83737">
        <ele>129</ele>
        <time>2017-01-09T10:14:16Z</time>
      </trkpt>
      <trkpt lat="49.2103" lon="1.83743">
        <ele>129</ele>
        <time>2017-01-09T10:14:19Z</time>
      </trkpt>
      <trkpt lat="49.21031" lon="1.8375">
        <ele>128</ele>
        <time>2017-01-09T10:14:21Z</time>
      </trkpt>
      <trkpt lat="49.21037" lon="1.83751">
        <ele>128</ele>
        <time>2017-01-09T10:14:23Z</time>
      </trkpt>
      <trkpt lat="49.21042" lon="1.8375">
        <ele>128</ele>
        <time>2017-01-09T10:14:25Z</time>
      </trkpt>
      <trkpt lat="49.21049" lon="1.83761">
        <ele>128</ele>
        <time>2017-01-09T10:14:30Z</time>
      </trkpt>
      <trkpt lat="49.21062" lon="1.83768">
        <ele>130</ele>
        <time>2017-01-09T10:14:39Z</time>
      </trkpt>
      <trkpt lat="49.21064" lon="1.83774">
        <ele>131</ele>
        <time>2017-01-09T10:14:44Z</time>
      </trkpt>
      <trkpt lat="49.2107" lon="1.83781">
        <ele>130</ele>
        <time>2017-01-09T10:14:51Z</time>
      </trkpt>
      <trkpt lat="49.21083" lon="1.83779">
        <ele>126</ele>
        <time>2017-01-09T10:14:54Z</time>
      </trkpt>
      <trkpt lat="49.21087" lon="1.83776">
        <ele>124</ele>
        <time>2017-01-09T10:14:59Z</time>
      </trkpt>
      <trkpt lat="49.21094" lon="1.83783">
        <ele>122</ele>
        <time>2017-01-09T10:15:01Z</time>
      </trkpt>
      <trkpt lat="49.21099" lon="1.83785">
        <ele>122</ele>
        <time>2017-01-09T10:15:04Z</time>
      </trkpt>
      <trkpt lat="49.21097" lon="1.83788">
        <ele>122</ele>
        <time>2017-01-09T10:15:06Z</time>
      </trkpt>
      <trkpt lat="49.21107" lon="1.83795">
        <ele>123</ele>
        <time>2017-01-09T10:15:13Z</time>
      </trkpt>
      <trkpt lat="49.2111" lon="1.83798">
        <ele>122</ele>
        <time>2017-01-09T10:15:17Z</time>
      </trkpt>
      <trkpt lat="49.21109" lon="1.83803">
        <ele>123</ele>
        <time>2017-01-09T10:15:21Z</time>
      </trkpt>
      <trkpt lat="49.21115" lon="1.83804">
        <ele>123</ele>
        <time>2017-01-09T10:15:23Z</time>
      </trkpt>
      <trkpt lat="49.21139" lon="1.83819">
        <ele>122</ele>
        <time>2017-01-09T10:15:37Z</time>
      </trkpt>
      <trkpt lat="49.21158" lon="1.83833">
        <ele>123</ele>
        <time>2017-01-09T10:15:51Z</time>
      </trkpt>
      <trkpt lat="49.21195" lon="1.83862">
        <ele>123</ele>
        <time>2017-01-09T10:16:22Z</time>
      </trkpt>
      <trkpt lat="49.21232" lon="1.83895">
        <ele>122</ele>
        <time>2017-01-09T10:16:54Z</time>
      </trkpt>
      <trkpt lat="49.21254" lon="1.83911">
        <ele>121</ele>
        <time>2017-01-09T10:17:11Z</time>
      </trkpt>
      <trkpt lat="49.21291" lon="1.83942">
        <ele>121</ele>
        <time>2017-01-09T10:17:42Z</time>
      </trkpt>
      <trkpt lat="49.2133" lon="1.8397">
        <ele>120</ele>
        <time>2017-01-09T10:18:13Z</time>
      </trkpt>
      <trkpt lat="49.21368" lon="1.83998">
        <ele>120</ele>
        <time>2017-01-09T10:18:44Z</time>
      </trkpt>
      <trkpt lat="49.21409" lon="1.84019">
        <ele>122</ele>
        <time>2017-01-09T10:19:15Z</time>
      </trkpt>
      <trkpt lat="49.2145" lon="1.8404">
        <ele>122</ele>
        <time>2017-01-09T10:19:46Z</time>
      </trkpt>
      <trkpt lat="49.21486" lon="1.84057">
        <ele>121</ele>
        <time>2017-01-09T10:20:16Z</time>
      </trkpt>
      <trkpt lat="49.21524" lon="1.84077">
        <ele>120</ele>
        <time>2017-01-09T10:20:47Z</time>
      </trkpt>
      <trkpt lat="49.21551" lon="1.8409">
        <ele>120</ele>
        <time>2017-01-09T10:21:08Z</time>
      </trkpt>
      <trkpt lat="49.2157" lon="1.84098">
        <ele>121</ele>
        <time>2017-01-09T10:21:22Z</time>
      </trkpt>
      <trkpt lat="49.21573" lon="1.84101">
        <ele>120</ele>
        <time>2017-01-09T10:21:26Z</time>
      </trkpt>
      <trkpt lat="49.21576" lon="1.841">
        <ele>120</ele>
        <time>2017-01-09T10:21:28Z</time>
      </trkpt>
      <trkpt lat="49.21582" lon="1.84104">
        <ele>120</ele>
        <time>2017-01-09T10:21:32Z</time>
      </trkpt>
      <trkpt lat="49.21611" lon="1.84114">
        <ele>119</ele>
        <time>2017-01-09T10:21:53Z</time>
      </trkpt>
      <trkpt lat="49.21615" lon="1.84115">
        <ele>119</ele>
        <time>2017-01-09T10:21:56Z</time>
      </trkpt>
      <trkpt lat="49.21622" lon="1.84113">
        <ele>118</ele>
        <time>2017-01-09T10:22:02Z</time>
      </trkpt>
      <trkpt lat="49.21663" lon="1.84118">
        <ele>120</ele>
        <time>2017-01-09T10:22:33Z</time>
      </trkpt>
      <trkpt lat="49.2168" lon="1.84118">
        <ele>118</ele>
        <time>2017-01-09T10:22:45Z</time>
      </trkpt>
      <trkpt lat="49.21724" lon="1.84116">
        <ele>118</ele>
        <time>2017-01-09T10:23:16Z</time>
      </trkpt>
      <trkpt lat="49.21764" lon="1.84108">
        <ele>119</ele>
        <time>2017-01-09T10:23:47Z</time>
      </trkpt>
      <trkpt lat="49.21803" lon="1.84096">
        <ele>118</ele>
        <time>2017-01-09T10:24:18Z</time>
      </trkpt>
      <trkpt lat="49.21844" lon="1.84083">
        <ele>118</ele>
        <time>2017-01-09T10:24:48Z</time>
      </trkpt>
      <trkpt lat="49.21861" lon="1.8408">
        <ele>118</ele>
        <time>2017-01-09T10:25:00Z</time>
      </trkpt>
      <trkpt lat="49.219" lon="1.8407">
        <ele>120</ele>
        <time>2017-01-09T10:25:30Z</time>
      </trkpt>
      <trkpt lat="49.21941" lon="1.84059">
        <ele>120</ele>
        <time>2017-01-09T10:26:02Z</time>
      </trkpt>
      <trkpt lat="49.21952" lon="1.84063">
        <ele>121</ele>
        <time>2017-01-09T10:26:10Z</time>
      </trkpt>
      <trkpt lat="49.21989" lon="1.84047">
        <ele>120</ele>
        <time>2017-01-09T10:26:41Z</time>
      </trkpt>
      <trkpt lat="49.2203" lon="1.84035">
        <ele>119</ele>
        <time>2017-01-09T10:27:12Z</time>
      </trkpt>
      <trkpt lat="49.22055" lon="1.84032">
        <ele>120</ele>
        <time>2017-01-09T10:27:32Z</time>
      </trkpt>
      <trkpt lat="49.22096" lon="1.84032">
        <ele>120</ele>
        <time>2017-01-09T10:28:02Z</time>
      </trkpt>
      <trkpt lat="49.22104" lon="1.84036">
        <ele>121</ele>
        <time>2017-01-09T10:28:06Z</time>
      </trkpt>
      <trkpt lat="49.2214" lon="1.84037">
        <ele>124</ele>
        <time>2017-01-09T10:28:37Z</time>
      </trkpt>
      <trkpt lat="49.22179" lon="1.84034">
        <ele>123</ele>
        <time>2017-01-09T10:29:10Z</time>
      </trkpt>
      <trkpt lat="49.22185" lon="1.84033">
        <ele>123</ele>
        <time>2017-01-09T10:29:16Z</time>
      </trkpt>
      <trkpt lat="49.22223" lon="1.84034">
        <ele>124</ele>
        <time>2017-01-09T10:29:46Z</time>
      </trkpt>
      <trkpt lat="49.22261" lon="1.8403">
        <ele>125</ele>
        <time>2017-01-09T10:30:18Z</time>
      </trkpt>
      <trkpt lat="49.22293" lon="1.84032">
        <ele>126</ele>
        <time>2017-01-09T10:30:44Z</time>
      </trkpt>
      <trkpt lat="49.22296" lon="1.84029">
        <ele>126</ele>
        <time>2017-01-09T10:30:46Z</time>
      </trkpt>
      <trkpt lat="49.22336" lon="1.84029">
        <ele>128</ele>
        <time>2017-01-09T10:31:17Z</time>
      </trkpt>
      <trkpt lat="49.22377" lon="1.84029">
        <ele>128</ele>
        <time>2017-01-09T10:31:49Z</time>
      </trkpt>
      <trkpt lat="49.22419" lon="1.84029">
        <ele>129</ele>
        <time>2017-01-09T10:32:21Z</time>
      </trkpt>
      <trkpt lat="49.22455" lon="1.84024">
        <ele>126</ele>
        <time>2017-01-09T10:32:51Z</time>
      </trkpt>
      <trkpt lat="49.22494" lon="1.84015">
        <ele>128</ele>
        <time>2017-01-09T10:33:22Z</time>
      </trkpt>
      <trkpt lat="49.22523" lon="1.84005">
        <ele>128</ele>
        <time>2017-01-09T10:33:47Z</time>
      </trkpt>
      <trkpt lat="49.22555" lon="1.83999">
        <ele>127</ele>
        <time>2017-01-09T10:34:13Z</time>
      </trkpt>
      <trkpt lat="49.22587" lon="1.83994">
        <ele>129</ele>
        <time>2017-01-09T10:34:39Z</time>
      </trkpt>
      <trkpt lat="49.22626" lon="1.83986">
        <ele>131</ele>
        <time>2017-01-09T10:35:11Z</time>
      </trkpt>
      <trkpt lat="49.22632" lon="1.83984">
        <ele>131</ele>
        <time>2017-01-09T10:35:17Z</time>
      </trkpt>
      <trkpt lat="49.22635" lon="1.83981">
        <ele>131</ele>
        <time>2017-01-09T10:35:20Z</time>
      </trkpt>
      <trkpt lat="49.22676" lon="1.83971">
        <ele>128</ele>
        <time>2017-01-09T10:35:51Z</time>
      </trkpt>
      <trkpt lat="49.22678" lon="1.83971">
        <ele>129</ele>
        <time>2017-01-09T10:35:53Z</time>
      </trkpt>
      <trkpt lat="49.22686" lon="1.83966">
        <ele>130</ele>
        <time>2017-01-09T10:35:59Z</time>
      </trkpt>
      <trkpt lat="49.22692" lon="1.83966">
        <ele>130</ele>
        <time>2017-01-09T10:36:05Z</time>
      </trkpt>
      <trkpt lat="49.22731" lon="1.83939">
        <ele>130</ele>
        <time>2017-01-09T10:36:36Z</time>
      </trkpt>
      <trkpt lat="49.22738" lon="1.83937">
        <ele>129</ele>
        <time>2017-01-09T10:36:40Z</time>
      </trkpt>
      <trkpt lat="49.22749" lon="1.83924">
        <ele>129</ele>
        <time>2017-01-09T10:36:51Z</time>
      </trkpt>
      <trkpt lat="49.22752" lon="1.83924">
        <ele>129</ele>
        <time>2017-01-09T10:36:53Z</time>
      </trkpt>
      <trkpt lat="49.22755" lon="1.8392">
        <ele>129</ele>
        <time>2017-01-09T10:36:56Z</time>
      </trkpt>
      <trkpt lat="49.22765" lon="1.83917">
        <ele>132</ele>
        <time>2017-01-09T10:37:06Z</time>
      </trkpt>
      <trkpt lat="49.22768" lon="1.83913">
        <ele>133</ele>
        <time>2017-01-09T10:37:09Z</time>
      </trkpt>
      <trkpt lat="49.22797" lon="1.8389">
        <ele>132</ele>
        <time>2017-01-09T10:37:36Z</time>
      </trkpt>
      <trkpt lat="49.22801" lon="1.83891">
        <ele>132</ele>
        <time>2017-01-09T10:37:39Z</time>
      </trkpt>
      <trkpt lat="49.22803" lon="1.8389">
        <ele>133</ele>
        <time>2017-01-09T10:37:41Z</time>
      </trkpt>
      <trkpt lat="49.22809" lon="1.83881">
        <ele>134</ele>
        <time>2017-01-09T10:37:49Z</time>
      </trkpt>
      <trkpt lat="49.22812" lon="1.83879">
        <ele>133</ele>
        <time>2017-01-09T10:37:52Z</time>
      </trkpt>
      <trkpt lat="49.2282" lon="1.83878">
        <ele>133</ele>
        <time>2017-01-09T10:37:58Z</time>
      </trkpt>
      <trkpt lat="49.22845" lon="1.83855">
        <ele>134</ele>
        <time>2017-01-09T10:38:21Z</time>
      </trkpt>
      <trkpt lat="49.22865" lon="1.83843">
        <ele>133</ele>
        <time>2017-01-09T10:38:40Z</time>
      </trkpt>
      <trkpt lat="49.22875" lon="1.83838">
        <ele>133</ele>
        <time>2017-01-09T10:38:50Z</time>
      </trkpt>
      <trkpt lat="49.22878" lon="1.83836">
        <ele>134</ele>
        <time>2017-01-09T10:38:52Z</time>
      </trkpt>
      <trkpt lat="49.22917" lon="1.83838">
        <ele>132</ele>
        <time>2017-01-09T10:39:22Z</time>
      </trkpt>
      <trkpt lat="49.22923" lon="1.83834">
        <ele>131</ele>
        <time>2017-01-09T10:39:27Z</time>
      </trkpt>
      <trkpt lat="49.22937" lon="1.83834">
        <ele>131</ele>
        <time>2017-01-09T10:39:38Z</time>
      </trkpt>
      <trkpt lat="49.22939" lon="1.83837">
        <ele>131</ele>
        <time>2017-01-09T10:39:40Z</time>
      </trkpt>
      <trkpt lat="49.22977" lon="1.83842">
        <ele>132</ele>
        <time>2017-01-09T10:40:11Z</time>
      </trkpt>
      <trkpt lat="49.23013" lon="1.83847">
        <ele>130</ele>
        <time>2017-01-09T10:40:44Z</time>
      </trkpt>
      <trkpt lat="49.23053" lon="1.83852">
        <ele>129</ele>
        <time>2017-01-09T10:41:16Z</time>
      </trkpt>
      <trkpt lat="49.23083" lon="1.83844">
        <ele>129</ele>
        <time>2017-01-09T10:41:35Z</time>
      </trkpt>
      <trkpt lat="49.23117" lon="1.83838">
        <ele>134</ele>
        <time>2017-01-09T10:42:08Z</time>
      </trkpt>
      <trkpt lat="49.23145" lon="1.83835">
        <ele>133</ele>
        <time>2017-01-09T10:42:31Z</time>
      </trkpt>
      <trkpt lat="49.23154" lon="1.83831">
        <ele>132</ele>
        <time>2017-01-09T10:42:36Z</time>
      </trkpt>
      <trkpt lat="49.23166" lon="1.83832">
        <ele>130</ele>
        <time>2017-01-09T10:42:44Z</time>
      </trkpt>
      <trkpt lat="49.23185" lon="1.83829">
        <ele>125</ele>
        <time>2017-01-09T10:43:03Z</time>
      </trkpt>
      <trkpt lat="49.23212" lon="1.83822">
        <ele>122</ele>
        <time>2017-01-09T10:43:27Z</time>
      </trkpt>
      <trkpt lat="49.23261" lon="1.83814">
        <ele>132</ele>
        <time>2017-01-09T10:43:59Z</time>
      </trkpt>
      <trkpt lat="49.23277" lon="1.83813">
        <ele>132</ele>
        <time>2017-01-09T10:44:16Z</time>
      </trkpt>
      <trkpt lat="49.23283" lon="1.83808">
        <ele>130</ele>
        <time>2017-01-09T10:44:21Z</time>
      </trkpt>
      <trkpt lat="49.23289" lon="1.83808">
        <ele>129</ele>
        <time>2017-01-09T10:44:26Z</time>
      </trkpt>
      <trkpt lat="49.23291" lon="1.83805">
        <ele>129</ele>
        <time>2017-01-09T10:44:28Z</time>
      </trkpt>
      <trkpt lat="49.23297" lon="1.83801">
        <ele>129</ele>
        <time>2017-01-09T10:44:33Z</time>
      </trkpt>
      <trkpt lat="49.23302" lon="1.83803">
        <ele>128</ele>
        <time>2017-01-09T10:44:38Z</time>
      </trkpt>
      <trkpt lat="49.23318" lon="1.83801">
        <ele>129</ele>
        <time>2017-01-09T10:44:50Z</time>
      </trkpt>
      <trkpt lat="49.2332" lon="1.83798">
        <ele>129</ele>
        <time>2017-01-09T10:44:52Z</time>
      </trkpt>
      <trkpt lat="49.23323" lon="1.83798">
        <ele>129</ele>
        <time>2017-01-09T10:44:54Z</time>
      </trkpt>
      <trkpt lat="49.23362" lon="1.83795">
        <ele>131</ele>
        <time>2017-01-09T10:45:24Z</time>
      </trkpt>
      <trkpt lat="49.23372" lon="1.83792">
        <ele>133</ele>
        <time>2017-01-09T10:45:35Z</time>
      </trkpt>
      <trkpt lat="49.23379" lon="1.838">
        <ele>135</ele>
        <time>2017-01-09T10:45:45Z</time>
      </trkpt>
      <trkpt lat="49.23388" lon="1.83796">
        <ele>136</ele>
        <time>2017-01-09T10:45:54Z</time>
      </trkpt>
      <trkpt lat="49.23398" lon="1.83793">
        <ele>136</ele>
        <time>2017-01-09T10:46:00Z</time>
      </trkpt>
      <trkpt lat="49.23408" lon="1.83798">
        <ele>137</ele>
        <time>2017-01-09T10:46:04Z</time>
      </trkpt>
      <trkpt lat="49.23418" lon="1.83795">
        <ele>138</ele>
        <time>2017-01-09T10:46:08Z</time>
      </trkpt>
      <trkpt lat="49.23426" lon="1.8379">
        <ele>137</ele>
        <time>2017-01-09T10:46:15Z</time>
      </trkpt>
      <trkpt lat="49.23435" lon="1.83787">
        <ele>135</ele>
        <time>2017-01-09T10:46:21Z</time>
      </trkpt>
      <trkpt lat="49.23445" lon="1.83788">
        <ele>134</ele>
        <time>2017-01-09T10:46:31Z</time>
      </trkpt>
      <trkpt lat="49.23477" lon="1.83763">
        <ele>135</ele>
        <time>2017-01-09T10:47:03Z</time>
      </trkpt>
      <trkpt lat="49.23517" lon="1.83736">
        <ele>134</ele>
        <time>2017-01-09T10:47:33Z</time>
      </trkpt>
      <trkpt lat="49.23521" lon="1.83736">
        <ele>133</ele>
        <time>2017-01-09T10:47:36Z</time>
      </trkpt>
      <trkpt lat="49.23525" lon="1.83729">
        <ele>133</ele>
        <time>2017-01-09T10:47:41Z</time>
      </trkpt>
      <trkpt lat="49.23557" lon="1.83697">
        <ele>138</ele>
        <time>2017-01-09T10:48:17Z</time>
      </trkpt>
      <trkpt lat="49.23582" lon="1.83684">
        <ele>139</ele>
        <time>2017-01-09T10:48:39Z</time>
      </trkpt>
      <trkpt lat="49.23589" lon="1.83677">
        <ele>140</ele>
        <time>2017-01-09T10:48:47Z</time>
      </trkpt>
      <trkpt lat="49.2361" lon="1.83654">
        <ele>138</ele>
        <time>2017-01-09T10:49:06Z</time>
      </trkpt>
      <trkpt lat="49.23638" lon="1.83642">
        <ele>137</ele>
        <time>2017-01-09T10:49:28Z</time>
      </trkpt>
      <trkpt lat="49.23646" lon="1.83639">
        <ele>136</ele>
        <time>2017-01-09T10:49:33Z</time>
      </trkpt>
      <trkpt lat="49.23652" lon="1.83631">
        <ele>136</ele>
        <time>2017-01-09T10:49:40Z</time>
      </trkpt>
      <trkpt lat="49.23666" lon="1.83616">
        <ele>131</ele>
        <time>2017-01-09T10:49:52Z</time>
      </trkpt>
      <trkpt lat="49.23671" lon="1.83615">
        <ele>130</ele>
        <time>2017-01-09T10:49:55Z</time>
      </trkpt>
      <trkpt lat="49.23674" lon="1.83611">
        <ele>130</ele>
        <time>2017-01-09T10:49:58Z</time>
      </trkpt>
      <trkpt lat="49.23675" lon="1.83606">
        <ele>130</ele>
        <time>2017-01-09T10:50:00Z</time>
      </trkpt>
      <trkpt lat="49.2368" lon="1.83606">
        <ele>131</ele>
        <time>2017-01-09T10:50:04Z</time>
      </trkpt>
      <trkpt lat="49.23715" lon="1.83589">
        <ele>130</ele>
        <time>2017-01-09T10:50:34Z</time>
      </trkpt>
      <trkpt lat="49.23721" lon="1.83586">
        <ele>130</ele>
        <time>2017-01-09T10:50:39Z</time>
      </trkpt>
      <trkpt lat="49.23727" lon="1.83586">
        <ele>129</ele>
        <time>2017-01-09T10:50:43Z</time>
      </trkpt>
      <trkpt lat="49.2373" lon="1.83585">
        <ele>129</ele>
        <time>2017-01-09T10:50:45Z</time>
      </trkpt>
      <trkpt lat="49.23732" lon="1.8358">
        <ele>130</ele>
        <time>2017-01-09T10:50:48Z</time>
      </trkpt>
      <trkpt lat="49.23741" lon="1.83578">
        <ele>128</ele>
        <time>2017-01-09T10:50:53Z</time>
      </trkpt>
      <trkpt lat="49.23768" lon="1.83567">
        <ele>128</ele>
        <time>2017-01-09T10:51:17Z</time>
      </trkpt>
      <trkpt lat="49.23777" lon="1.83566">
        <ele>129</ele>
        <time>2017-01-09T10:51:23Z</time>
      </trkpt>
      <trkpt lat="49.23814" lon="1.83554">
        <ele>133</ele>
        <time>2017-01-09T10:51:58Z</time>
      </trkpt>
      <trkpt lat="49.23852" lon="1.83532">
        <ele>132</ele>
        <time>2017-01-09T10:52:29Z</time>
      </trkpt>
      <trkpt lat="49.23879" lon="1.83521">
        <ele>130</ele>
        <time>2017-01-09T10:52:52Z</time>
      </trkpt>
      <trkpt lat="49.23917" lon="1.83507">
        <ele>128</ele>
        <time>2017-01-09T10:53:23Z</time>
      </trkpt>
      <trkpt lat="49.23962" lon="1.83483">
        <ele>133</ele>
        <time>2017-01-09T10:53:58Z</time>
      </trkpt>
      <trkpt lat="49.2397" lon="1.83482">
        <ele>131</ele>
        <time>2017-01-09T10:54:04Z</time>
      </trkpt>
      <trkpt lat="49.24005" lon="1.83467">
        <ele>129</ele>
        <time>2017-01-09T10:54:34Z</time>
      </trkpt>
      <trkpt lat="49.24014" lon="1.83467">
        <ele>127</ele>
        <time>2017-01-09T10:54:41Z</time>
      </trkpt>
      <trkpt lat="49.24023" lon="1.83463">
        <ele>124</ele>
        <time>2017-01-09T10:54:50Z</time>
      </trkpt>
      <trkpt lat="49.24029" lon="1.83453">
        <ele>124</ele>
        <time>2017-01-09T10:54:59Z</time>
      </trkpt>
      <trkpt lat="49.24065" lon="1.8344">
        <ele>124</ele>
        <time>2017-01-09T10:55:25Z</time>
      </trkpt>
      <trkpt lat="49.2408" lon="1.83427">
        <ele>125</ele>
        <time>2017-01-09T10:55:41Z</time>
      </trkpt>
      <trkpt lat="49.24111" lon="1.83405">
        <ele>120</ele>
        <time>2017-01-09T10:56:11Z</time>
      </trkpt>
      <trkpt lat="49.2415" lon="1.83369">
        <ele>118</ele>
        <time>2017-01-09T10:56:43Z</time>
      </trkpt>
      <trkpt lat="49.2418" lon="1.83344">
        <ele>116</ele>
        <time>2017-01-09T10:57:11Z</time>
      </trkpt>
      <trkpt lat="49.24203" lon="1.83332">
        <ele>112</ele>
        <time>2017-01-09T10:57:36Z</time>
      </trkpt>
      <trkpt lat="49.24219" lon="1.83323">
        <ele>111</ele>
        <time>2017-01-09T10:57:47Z</time>
      </trkpt>
      <trkpt lat="49.24221" lon="1.83317">
        <ele>111</ele>
        <time>2017-01-09T10:57:50Z</time>
      </trkpt>
      <trkpt lat="49.24227" lon="1.83318">
        <ele>110</ele>
        <time>2017-01-09T10:57:55Z</time>
      </trkpt>
      <trkpt lat="49.24233" lon="1.83314">
        <ele>109</ele>
        <time>2017-01-09T10:58:04Z</time>
      </trkpt>
      <trkpt lat="49.24236" lon="1.8331">
        <ele>108</ele>
        <time>2017-01-09T10:58:06Z</time>
      </trkpt>
      <trkpt lat="49.24246" lon="1.83304">
        <ele>107</ele>
        <time>2017-01-09T10:58:12Z</time>
      </trkpt>
      <trkpt lat="49.24249" lon="1.83299">
        <ele>107</ele>
        <time>2017-01-09T10:58:14Z</time>
      </trkpt>
      <trkpt lat="49.24254" lon="1.83299">
        <ele>107</ele>
        <time>2017-01-09T10:58:16Z</time>
      </trkpt>
      <trkpt lat="49.24267" lon="1.83281">
        <ele>106</ele>
        <time>2017-01-09T10:58:32Z</time>
      </trkpt>
      <trkpt lat="49.24275" lon="1.83271">
        <ele>107</ele>
        <time>2017-01-09T10:58:39Z</time>
      </trkpt>
      <trkpt lat="49.24282" lon="1.83261">
        <ele>108</ele>
        <time>2017-01-09T10:58:47Z</time>
      </trkpt>
      <trkpt lat="49.24285" lon="1.83259">
        <ele>107</ele>
        <time>2017-01-09T10:58:50Z</time>
      </trkpt>
      <trkpt lat="49.24287" lon="1.83255">
        <ele>108</ele>
        <time>2017-01-09T10:58:52Z</time>
      </trkpt>
      <trkpt lat="49.2429" lon="1.83252">
        <ele>107</ele>
        <time>2017-01-09T10:58:55Z</time>
      </trkpt>
      <trkpt lat="49.24294" lon="1.83251">
        <ele>108</ele>
        <time>2017-01-09T10:58:58Z</time>
      </trkpt>
      <trkpt lat="49.24297" lon="1.83248">
        <ele>105</ele>
        <time>2017-01-09T10:59:01Z</time>
      </trkpt>
      <trkpt lat="49.2431" lon="1.83253">
        <ele>103</ele>
        <time>2017-01-09T10:59:11Z</time>
      </trkpt>
      <trkpt lat="49.24314" lon="1.83265">
        <ele>103</ele>
        <time>2017-01-09T10:59:18Z</time>
      </trkpt>
      <trkpt lat="49.24321" lon="1.83274">
        <ele>103</ele>
        <time>2017-01-09T10:59:26Z</time>
      </trkpt>
      <trkpt lat="49.24325" lon="1.83276">
        <ele>103</ele>
        <time>2017-01-09T10:59:29Z</time>
      </trkpt>
      <trkpt lat="49.24343" lon="1.833">
        <ele>106</ele>
        <time>2017-01-09T10:59:49Z</time>
      </trkpt>
      <trkpt lat="49.24355" lon="1.83297">
        <ele>103</ele>
        <time>2017-01-09T10:59:58Z</time>
      </trkpt>
      <trkpt lat="49.24364" lon="1.83299">
        <ele>102</ele>
        <time>2017-01-09T11:00:08Z</time>
      </trkpt>
      <trkpt lat="49.24369" lon="1.83313">
        <ele>101</ele>
        <time>2017-01-09T11:00:17Z</time>
      </trkpt>
      <trkpt lat="49.24368" lon="1.83329">
        <ele>104</ele>
        <time>2017-01-09T11:00:27Z</time>
      </trkpt>
      <trkpt lat="49.24367" lon="1.83332">
        <ele>105</ele>
        <time>2017-01-09T11:00:29Z</time>
      </trkpt>
      <trkpt lat="49.24367" lon="1.83342">
        <ele>106</ele>
        <time>2017-01-09T11:00:36Z</time>
      </trkpt>
      <trkpt lat="49.2437" lon="1.83351">
        <ele>105</ele>
        <time>2017-01-09T11:00:42Z</time>
      </trkpt>
      <trkpt lat="49.24371" lon="1.83369">
        <ele>105</ele>
        <time>2017-01-09T11:00:59Z</time>
      </trkpt>
    </trkseg>
  </trk>
</gpx>